<?xml version="1.0" encoding="utf-8"?>
<gpx xmlns:xsi="http://www.w3.org/2001/XMLSchema-instance" xmlns:xsd="http://www.w3.org/2001/XMLSchema" version="1.1" creator="Shapelink.com" xmlns="http://www.topografix.com/GPX/1/1" xmlns:gpxtpx="http://www.garmin.com/xmlschemas/TrackPointExtension/v1">
  <metadata>
    <name>Cykling 19.26 km, 2014-04-04</name>
    <desc></desc>
    <author><name>Alexander Engvall</name></author> 
    <time>2014-04-04T17:57:28Z</time>
  </metadata>
  <trk>
    <name>Cykling 19.26 km, 2014-04-04</name>
    <trkseg>
      <trkpt lat="59.33255655156" lon="18.057244181324">
        <ele>0</ele>
        <time>2014-04-04T17:57:28Z</time>
      </trkpt>
      <trkpt lat="59.332511959852" lon="18.057191040078">
        <ele>0</ele>
        <time>2014-04-04T17:57:30Z</time>
      </trkpt>
      <trkpt lat="59.332482036469" lon="18.05716656493">
        <ele>0</ele>
        <time>2014-04-04T17:57:31Z</time>
      </trkpt>
      <trkpt lat="59.332411712328" lon="18.057112417856">
        <ele>0</ele>
        <time>2014-04-04T17:57:34Z</time>
      </trkpt>
      <trkpt lat="59.332379442013" lon="18.057112585494">
        <ele>0</ele>
        <time>2014-04-04T17:57:36Z</time>
      </trkpt>
      <trkpt lat="59.332259664662" lon="18.057245103333">
        <ele>0</ele>
        <time>2014-04-04T17:57:41Z</time>
      </trkpt>
      <trkpt lat="59.332234602781" lon="18.057269997576">
        <ele>0</ele>
        <time>2014-04-04T17:57:42Z</time>
      </trkpt>
      <trkpt lat="59.332129242298" lon="18.057365048322">
        <ele>0</ele>
        <time>2014-04-04T17:57:47Z</time>
      </trkpt>
      <trkpt lat="59.332100324743" lon="18.057384410511">
        <ele>0</ele>
        <time>2014-04-04T17:57:48Z</time>
      </trkpt>
      <trkpt lat="59.332021283426" lon="18.057482394922">
        <ele>0</ele>
        <time>2014-04-04T17:57:53Z</time>
      </trkpt>
      <trkpt lat="59.332007704748" lon="18.057531512856">
        <ele>0</ele>
        <time>2014-04-04T17:57:55Z</time>
      </trkpt>
      <trkpt lat="59.331981385582" lon="18.05758146898">
        <ele>0</ele>
        <time>2014-04-04T17:57:57Z</time>
      </trkpt>
      <trkpt lat="59.331993958432" lon="18.057581888075">
        <ele>0</ele>
        <time>2014-04-04T17:57:59Z</time>
      </trkpt>
      <trkpt lat="59.331923969567" lon="18.057662019039">
        <ele>0</ele>
        <time>2014-04-04T17:58:04Z</time>
      </trkpt>
      <trkpt lat="59.33191198345" lon="18.057669311292">
        <ele>0</ele>
        <time>2014-04-04T17:58:05Z</time>
      </trkpt>
      <trkpt lat="59.331891783071" lon="18.057676855002">
        <ele>0</ele>
        <time>2014-04-04T17:58:07Z</time>
      </trkpt>
      <trkpt lat="59.331829337916" lon="18.057752878835">
        <ele>0</ele>
        <time>2014-04-04T17:58:10Z</time>
      </trkpt>
      <trkpt lat="59.331606463195" lon="18.0580072695">
        <ele>0</ele>
        <time>2014-04-04T17:58:12Z</time>
      </trkpt>
      <trkpt lat="59.33132525045" lon="18.058294098118">
        <ele>0</ele>
        <time>2014-04-04T17:58:14Z</time>
      </trkpt>
      <trkpt lat="59.331261128915" lon="18.058309520814">
        <ele>0</ele>
        <time>2014-04-04T17:58:15Z</time>
      </trkpt>
      <trkpt lat="59.331145710152" lon="18.058414881297">
        <ele>0</ele>
        <time>2014-04-04T17:58:18Z</time>
      </trkpt>
      <trkpt lat="59.331178483381" lon="18.058389316502">
        <ele>0</ele>
        <time>2014-04-04T17:58:19Z</time>
      </trkpt>
      <trkpt lat="59.331171526404" lon="18.058418485514">
        <ele>0</ele>
        <time>2014-04-04T17:58:20Z</time>
      </trkpt>
      <trkpt lat="59.331037499823" lon="18.058606742988">
        <ele>0</ele>
        <time>2014-04-04T17:58:24Z</time>
      </trkpt>
      <trkpt lat="59.330916046092" lon="18.058721910294">
        <ele>0</ele>
        <time>2014-04-04T17:58:26Z</time>
      </trkpt>
      <trkpt lat="59.330875812972" lon="18.05878259525">
        <ele>0</ele>
        <time>2014-04-04T17:58:29Z</time>
      </trkpt>
      <trkpt lat="59.330786378099" lon="18.058935229649">
        <ele>0</ele>
        <time>2014-04-04T17:58:31Z</time>
      </trkpt>
      <trkpt lat="59.330794927637" lon="18.058964231023">
        <ele>0</ele>
        <time>2014-04-04T17:58:32Z</time>
      </trkpt>
      <trkpt lat="59.330788976488" lon="18.058968924887">
        <ele>0</ele>
        <time>2014-04-04T17:58:33Z</time>
      </trkpt>
      <trkpt lat="59.33077288324" lon="18.058966913231">
        <ele>0</ele>
        <time>2014-04-04T17:58:34Z</time>
      </trkpt>
      <trkpt lat="59.33075192849" lon="18.058969763077">
        <ele>0</ele>
        <time>2014-04-04T17:58:35Z</time>
      </trkpt>
      <trkpt lat="59.330667858033" lon="18.05899884827">
        <ele>0</ele>
        <time>2014-04-04T17:58:38Z</time>
      </trkpt>
      <trkpt lat="59.330612118398" lon="18.059032711146">
        <ele>0</ele>
        <time>2014-04-04T17:58:40Z</time>
      </trkpt>
      <trkpt lat="59.330589151992" lon="18.059046373643">
        <ele>0</ele>
        <time>2014-04-04T17:58:41Z</time>
      </trkpt>
      <trkpt lat="59.330417071585" lon="18.059185261726">
        <ele>0</ele>
        <time>2014-04-04T17:58:42Z</time>
      </trkpt>
      <trkpt lat="59.330343059408" lon="18.059245359949">
        <ele>0</ele>
        <time>2014-04-04T17:58:43Z</time>
      </trkpt>
      <trkpt lat="59.330314560948" lon="18.059255837324">
        <ele>0</ele>
        <time>2014-04-04T17:58:44Z</time>
      </trkpt>
      <trkpt lat="59.330186736973" lon="18.059330268596">
        <ele>0</ele>
        <time>2014-04-04T17:58:48Z</time>
      </trkpt>
      <trkpt lat="59.329919522001" lon="18.059570829126">
        <ele>0</ele>
        <time>2014-04-04T17:58:50Z</time>
      </trkpt>
      <trkpt lat="59.329790608379" lon="18.059678117446">
        <ele>0</ele>
        <time>2014-04-04T17:58:51Z</time>
      </trkpt>
      <trkpt lat="59.329686421362" lon="18.0597590866">
        <ele>0</ele>
        <time>2014-04-04T17:58:52Z</time>
      </trkpt>
      <trkpt lat="59.32953152385" lon="18.059910463714">
        <ele>0</ele>
        <time>2014-04-04T17:58:54Z</time>
      </trkpt>
      <trkpt lat="59.329440244959" lon="18.060023787002">
        <ele>0</ele>
        <time>2014-04-04T17:58:56Z</time>
      </trkpt>
      <trkpt lat="59.32915769111" lon="18.060285721377">
        <ele>0</ele>
        <time>2014-04-04T17:59:00Z</time>
      </trkpt>
      <trkpt lat="59.328823672395" lon="18.06051261941">
        <ele>0</ele>
        <time>2014-04-04T17:59:06Z</time>
      </trkpt>
      <trkpt lat="59.328714120962" lon="18.060588559424">
        <ele>0</ele>
        <time>2014-04-04T17:59:08Z</time>
      </trkpt>
      <trkpt lat="59.32867154091" lon="18.060652261864">
        <ele>0</ele>
        <time>2014-04-04T17:59:10Z</time>
      </trkpt>
      <trkpt lat="59.328626613926" lon="18.060693416993">
        <ele>0</ele>
        <time>2014-04-04T17:59:12Z</time>
      </trkpt>
      <trkpt lat="59.32851479938" lon="18.060818391122">
        <ele>0</ele>
        <time>2014-04-04T18:00:02Z</time>
      </trkpt>
      <trkpt lat="59.328494934277" lon="18.060866419409">
        <ele>0</ele>
        <time>2014-04-04T18:00:03Z</time>
      </trkpt>
      <trkpt lat="59.328415138589" lon="18.061025340233">
        <ele>0</ele>
        <time>2014-04-04T18:00:06Z</time>
      </trkpt>
      <trkpt lat="59.328383874102" lon="18.061090551415">
        <ele>0</ele>
        <time>2014-04-04T18:00:07Z</time>
      </trkpt>
      <trkpt lat="59.328278597438" lon="18.061384588467">
        <ele>0</ele>
        <time>2014-04-04T18:00:11Z</time>
      </trkpt>
      <trkpt lat="59.328265270217" lon="18.061666555583">
        <ele>0</ele>
        <time>2014-04-04T18:00:14Z</time>
      </trkpt>
      <trkpt lat="59.328268622977" lon="18.061768563306">
        <ele>0</ele>
        <time>2014-04-04T18:00:15Z</time>
      </trkpt>
      <trkpt lat="59.32826585695" lon="18.06198364286">
        <ele>0</ele>
        <time>2014-04-04T18:00:17Z</time>
      </trkpt>
      <trkpt lat="59.328246075666" lon="18.062206685219">
        <ele>0</ele>
        <time>2014-04-04T18:00:19Z</time>
      </trkpt>
      <trkpt lat="59.328231994074" lon="18.062323528905">
        <ele>0</ele>
        <time>2014-04-04T18:00:20Z</time>
      </trkpt>
      <trkpt lat="59.328121352994" lon="18.062845385999">
        <ele>0</ele>
        <time>2014-04-04T18:00:25Z</time>
      </trkpt>
      <trkpt lat="59.328049771568" lon="18.063012185809">
        <ele>0</ele>
        <time>2014-04-04T18:00:27Z</time>
      </trkpt>
      <trkpt lat="59.327910045295" lon="18.063255009452">
        <ele>0</ele>
        <time>2014-04-04T18:00:30Z</time>
      </trkpt>
      <trkpt lat="59.327655486992" lon="18.063630770029">
        <ele>0</ele>
        <time>2014-04-04T18:00:35Z</time>
      </trkpt>
      <trkpt lat="59.327507043543" lon="18.063868983627">
        <ele>0</ele>
        <time>2014-04-04T18:00:38Z</time>
      </trkpt>
      <trkpt lat="59.3274570036" lon="18.063959591966">
        <ele>0</ele>
        <time>2014-04-04T18:00:39Z</time>
      </trkpt>
      <trkpt lat="59.32740335944" lon="18.064048523925">
        <ele>0</ele>
        <time>2014-04-04T18:00:40Z</time>
      </trkpt>
      <trkpt lat="59.327345691968" lon="18.064139048445">
        <ele>0</ele>
        <time>2014-04-04T18:00:41Z</time>
      </trkpt>
      <trkpt lat="59.327291209618" lon="18.064225549653">
        <ele>0</ele>
        <time>2014-04-04T18:00:42Z</time>
      </trkpt>
      <trkpt lat="59.326988874485" lon="18.064701306297">
        <ele>0</ele>
        <time>2014-04-04T18:00:48Z</time>
      </trkpt>
      <trkpt lat="59.326799192088" lon="18.065013867348">
        <ele>0</ele>
        <time>2014-04-04T18:00:52Z</time>
      </trkpt>
      <trkpt lat="59.326651000096" lon="18.065254427878">
        <ele>0</ele>
        <time>2014-04-04T18:00:55Z</time>
      </trkpt>
      <trkpt lat="59.326600457239" lon="18.065309245504">
        <ele>0</ele>
        <time>2014-04-04T18:00:56Z</time>
      </trkpt>
      <trkpt lat="59.326502053733" lon="18.065226935246">
        <ele>0</ele>
        <time>2014-04-04T18:00:58Z</time>
      </trkpt>
      <trkpt lat="59.326463916088" lon="18.065129705206">
        <ele>0</ele>
        <time>2014-04-04T18:00:59Z</time>
      </trkpt>
      <trkpt lat="59.326429717936" lon="18.065020489049">
        <ele>0</ele>
        <time>2014-04-04T18:01:00Z</time>
      </trkpt>
      <trkpt lat="59.326388562807" lon="18.064909680331">
        <ele>0</ele>
        <time>2014-04-04T18:01:01Z</time>
      </trkpt>
      <trkpt lat="59.326264426868" lon="18.064613463985">
        <ele>0</ele>
        <time>2014-04-04T18:01:04Z</time>
      </trkpt>
      <trkpt lat="59.326180691687" lon="18.064538781256">
        <ele>0</ele>
        <time>2014-04-04T18:01:06Z</time>
      </trkpt>
      <trkpt lat="59.326103829664" lon="18.064636011296">
        <ele>0</ele>
        <time>2014-04-04T18:01:08Z</time>
      </trkpt>
      <trkpt lat="59.326019926845" lon="18.064785292935">
        <ele>0</ele>
        <time>2014-04-04T18:01:10Z</time>
      </trkpt>
      <trkpt lat="59.325928899411" lon="18.064923510466">
        <ele>0</ele>
        <time>2014-04-04T18:01:12Z</time>
      </trkpt>
      <trkpt lat="59.325878105097" lon="18.065018980307">
        <ele>0</ele>
        <time>2014-04-04T18:01:13Z</time>
      </trkpt>
      <trkpt lat="59.325828232792" lon="18.065099530366">
        <ele>0</ele>
        <time>2014-04-04T18:01:14Z</time>
      </trkpt>
      <trkpt lat="59.325781377971" lon="18.06517714676">
        <ele>0</ele>
        <time>2014-04-04T18:01:15Z</time>
      </trkpt>
      <trkpt lat="59.325734858426" lon="18.065251829489">
        <ele>0</ele>
        <time>2014-04-04T18:01:16Z</time>
      </trkpt>
      <trkpt lat="59.32563729311" lon="18.06540094349">
        <ele>0</ele>
        <time>2014-04-04T18:01:18Z</time>
      </trkpt>
      <trkpt lat="59.325410478896" lon="18.065736638585">
        <ele>0</ele>
        <time>2014-04-04T18:01:22Z</time>
      </trkpt>
      <trkpt lat="59.325354236347" lon="18.065815679902">
        <ele>0</ele>
        <time>2014-04-04T18:01:23Z</time>
      </trkpt>
      <trkpt lat="59.325307716802" lon="18.065898157798">
        <ele>0</ele>
        <time>2014-04-04T18:01:24Z</time>
      </trkpt>
      <trkpt lat="59.32526010761" lon="18.065980635694">
        <ele>0</ele>
        <time>2014-04-04T18:01:25Z</time>
      </trkpt>
      <trkpt lat="59.325210989676" lon="18.066047439437">
        <ele>0</ele>
        <time>2014-04-04T18:01:26Z</time>
      </trkpt>
      <trkpt lat="59.325160446819" lon="18.066125307288">
        <ele>0</ele>
        <time>2014-04-04T18:01:27Z</time>
      </trkpt>
      <trkpt lat="59.324810251037" lon="18.066453458673">
        <ele>0</ele>
        <time>2014-04-04T18:01:33Z</time>
      </trkpt>
      <trkpt lat="59.324536665821" lon="18.066588071987">
        <ele>0</ele>
        <time>2014-04-04T18:01:37Z</time>
      </trkpt>
      <trkpt lat="59.324474975037" lon="18.066587149978">
        <ele>0</ele>
        <time>2014-04-04T18:01:38Z</time>
      </trkpt>
      <trkpt lat="59.324192002093" lon="18.066565021762">
        <ele>0</ele>
        <time>2014-04-04T18:01:43Z</time>
      </trkpt>
      <trkpt lat="59.32414363853" lon="18.066592765851">
        <ele>0</ele>
        <time>2014-04-04T18:01:44Z</time>
      </trkpt>
      <trkpt lat="59.32410005265" lon="18.066621096673">
        <ele>0</ele>
        <time>2014-04-04T18:01:45Z</time>
      </trkpt>
      <trkpt lat="59.32405227582" lon="18.066635932636">
        <ele>0</ele>
        <time>2014-04-04T18:01:46Z</time>
      </trkpt>
      <trkpt lat="59.324005169542" lon="18.066657222662">
        <ele>0</ele>
        <time>2014-04-04T18:01:47Z</time>
      </trkpt>
      <trkpt lat="59.323958817635" lon="18.066689073882">
        <ele>0</ele>
        <time>2014-04-04T18:01:48Z</time>
      </trkpt>
      <trkpt lat="59.323708115006" lon="18.066937848674">
        <ele>0</ele>
        <time>2014-04-04T18:01:54Z</time>
      </trkpt>
      <trkpt lat="59.323530251088" lon="18.067184025077">
        <ele>0</ele>
        <time>2014-04-04T18:02:00Z</time>
      </trkpt>
      <trkpt lat="59.32328784654" lon="18.067500693259">
        <ele>0</ele>
        <time>2014-04-04T18:02:05Z</time>
      </trkpt>
      <trkpt lat="59.323138061987" lon="18.067716611003">
        <ele>0</ele>
        <time>2014-04-04T18:02:07Z</time>
      </trkpt>
      <trkpt lat="59.323024822518" lon="18.067933618394">
        <ele>0</ele>
        <time>2014-04-04T18:02:09Z</time>
      </trkpt>
      <trkpt lat="59.322820471796" lon="18.068420522965">
        <ele>0</ele>
        <time>2014-04-04T18:02:14Z</time>
      </trkpt>
      <trkpt lat="59.322778981391" lon="18.068513729693">
        <ele>0</ele>
        <time>2014-04-04T18:02:15Z</time>
      </trkpt>
      <trkpt lat="59.322735563149" lon="18.068612133199">
        <ele>0</ele>
        <time>2014-04-04T18:02:16Z</time>
      </trkpt>
      <trkpt lat="59.32269356983" lon="18.068713386551">
        <ele>0</ele>
        <time>2014-04-04T18:02:17Z</time>
      </trkpt>
      <trkpt lat="59.322651744149" lon="18.068824782002">
        <ele>0</ele>
        <time>2014-04-04T18:02:18Z</time>
      </trkpt>
      <trkpt lat="59.322604973147" lon="18.068936596548">
        <ele>0</ele>
        <time>2014-04-04T18:02:19Z</time>
      </trkpt>
      <trkpt lat="59.322485028158" lon="18.069296934429">
        <ele>0</ele>
        <time>2014-04-04T18:02:22Z</time>
      </trkpt>
      <trkpt lat="59.322458625173" lon="18.069415789771">
        <ele>0</ele>
        <time>2014-04-04T18:02:23Z</time>
      </trkpt>
      <trkpt lat="59.322428198876" lon="18.069961954375">
        <ele>0</ele>
        <time>2014-04-04T18:02:27Z</time>
      </trkpt>
      <trkpt lat="59.322445968504" lon="18.070255237056">
        <ele>0</ele>
        <time>2014-04-04T18:02:29Z</time>
      </trkpt>
      <trkpt lat="59.322455691508" lon="18.070816656718">
        <ele>0</ele>
        <time>2014-04-04T18:02:33Z</time>
      </trkpt>
      <trkpt lat="59.322442867201" lon="18.070939619191">
        <ele>0</ele>
        <time>2014-04-04T18:02:34Z</time>
      </trkpt>
      <trkpt lat="59.322384361539" lon="18.071286965127">
        <ele>0</ele>
        <time>2014-04-04T18:02:37Z</time>
      </trkpt>
      <trkpt lat="59.322276821762" lon="18.071737408433">
        <ele>0</ele>
        <time>2014-04-04T18:02:41Z</time>
      </trkpt>
      <trkpt lat="59.322241869239" lon="18.071830447523">
        <ele>0</ele>
        <time>2014-04-04T18:02:42Z</time>
      </trkpt>
      <trkpt lat="59.322204569784" lon="18.071916864912">
        <ele>0</ele>
        <time>2014-04-04T18:02:43Z</time>
      </trkpt>
      <trkpt lat="59.322045146046" lon="18.072167483722">
        <ele>0</ele>
        <time>2014-04-04T18:02:47Z</time>
      </trkpt>
      <trkpt lat="59.322008098048" lon="18.072214506181">
        <ele>0</ele>
        <time>2014-04-04T18:02:48Z</time>
      </trkpt>
      <trkpt lat="59.321924279048" lon="18.072272592748">
        <ele>0</ele>
        <time>2014-04-04T18:02:50Z</time>
      </trkpt>
      <trkpt lat="59.321881866634" lon="18.072286422883">
        <ele>0</ele>
        <time>2014-04-04T18:02:51Z</time>
      </trkpt>
      <trkpt lat="59.321837945478" lon="18.072289943281">
        <ele>0</ele>
        <time>2014-04-04T18:02:52Z</time>
      </trkpt>
      <trkpt lat="59.321794862512" lon="18.072280136458">
        <ele>0</ele>
        <time>2014-04-04T18:02:53Z</time>
      </trkpt>
      <trkpt lat="59.3217573116" lon="18.072264210848">
        <ele>0</ele>
        <time>2014-04-04T18:02:54Z</time>
      </trkpt>
      <trkpt lat="59.321719425412" lon="18.072251554179">
        <ele>0</ele>
        <time>2014-04-04T18:02:55Z</time>
      </trkpt>
      <trkpt lat="59.321650610013" lon="18.072198077657">
        <ele>0</ele>
        <time>2014-04-04T18:02:57Z</time>
      </trkpt>
      <trkpt lat="59.321616411861" lon="18.072177458183">
        <ele>0</ele>
        <time>2014-04-04T18:02:58Z</time>
      </trkpt>
      <trkpt lat="59.32158799722" lon="18.072127334421">
        <ele>0</ele>
        <time>2014-04-04T18:02:59Z</time>
      </trkpt>
      <trkpt lat="59.321556146" lon="18.072078384125">
        <ele>0</ele>
        <time>2014-04-04T18:03:00Z</time>
      </trkpt>
      <trkpt lat="59.321511051378" lon="18.072038402462">
        <ele>0</ele>
        <time>2014-04-04T18:03:01Z</time>
      </trkpt>
      <trkpt lat="59.321463023091" lon="18.072007221794">
        <ele>0</ele>
        <time>2014-04-04T18:03:02Z</time>
      </trkpt>
      <trkpt lat="59.321363613757" lon="18.071925582088">
        <ele>0</ele>
        <time>2014-04-04T18:03:04Z</time>
      </trkpt>
      <trkpt lat="59.321203184191" lon="18.071783005969">
        <ele>0</ele>
        <time>2014-04-04T18:03:07Z</time>
      </trkpt>
      <trkpt lat="59.321167812573" lon="18.07167563383">
        <ele>0</ele>
        <time>2014-04-04T18:03:08Z</time>
      </trkpt>
      <trkpt lat="59.321159011578" lon="18.071440605354">
        <ele>0</ele>
        <time>2014-04-04T18:03:10Z</time>
      </trkpt>
      <trkpt lat="59.321163286347" lon="18.071319235442">
        <ele>0</ele>
        <time>2014-04-04T18:03:11Z</time>
      </trkpt>
      <trkpt lat="59.321174518093" lon="18.071187220517">
        <ele>0</ele>
        <time>2014-04-04T18:03:12Z</time>
      </trkpt>
      <trkpt lat="59.321181977984" lon="18.071053026298">
        <ele>0</ele>
        <time>2014-04-04T18:03:13Z</time>
      </trkpt>
      <trkpt lat="59.321185498382" lon="18.070914892586">
        <ele>0</ele>
        <time>2014-04-04T18:03:14Z</time>
      </trkpt>
      <trkpt lat="59.321188096771" lon="18.070774998675">
        <ele>0</ele>
        <time>2014-04-04T18:03:15Z</time>
      </trkpt>
      <trkpt lat="59.321203184191" lon="18.070345929214">
        <ele>0</ele>
        <time>2014-04-04T18:03:18Z</time>
      </trkpt>
      <trkpt lat="59.32121081172" lon="18.070217769963">
        <ele>0</ele>
        <time>2014-04-04T18:03:19Z</time>
      </trkpt>
      <trkpt lat="59.321218271611" lon="18.070093214929">
        <ele>0</ele>
        <time>2014-04-04T18:03:20Z</time>
      </trkpt>
      <trkpt lat="59.321226485873" lon="18.06996991718">
        <ele>0</ele>
        <time>2014-04-04T18:03:21Z</time>
      </trkpt>
      <trkpt lat="59.321233861945" lon="18.069849469277">
        <ele>0</ele>
        <time>2014-04-04T18:03:22Z</time>
      </trkpt>
      <trkpt lat="59.321211817548" lon="18.069736145989">
        <ele>0</ele>
        <time>2014-04-04T18:03:23Z</time>
      </trkpt>
      <trkpt lat="59.321146019633" lon="18.069505727558">
        <ele>0</ele>
        <time>2014-04-04T18:03:25Z</time>
      </trkpt>
      <trkpt lat="59.321116263888" lon="18.069393326279">
        <ele>0</ele>
        <time>2014-04-04T18:03:26Z</time>
      </trkpt>
      <trkpt lat="59.321015345812" lon="18.068785387072">
        <ele>0</ele>
        <time>2014-04-04T18:03:31Z</time>
      </trkpt>
      <trkpt lat="59.32099958784" lon="18.068522530688">
        <ele>0</ele>
        <time>2014-04-04T18:03:33Z</time>
      </trkpt>
      <trkpt lat="59.320950553725" lon="18.068004193992">
        <ele>0</ele>
        <time>2014-04-04T18:03:37Z</time>
      </trkpt>
      <trkpt lat="59.320928928423" lon="18.067652238011">
        <ele>0</ele>
        <time>2014-04-04T18:03:40Z</time>
      </trkpt>
      <trkpt lat="59.320933789925" lon="18.0675458717">
        <ele>0</ele>
        <time>2014-04-04T18:03:41Z</time>
      </trkpt>
      <trkpt lat="59.320960444367" lon="18.067213780822">
        <ele>0</ele>
        <time>2014-04-04T18:03:45Z</time>
      </trkpt>
      <trkpt lat="59.320977627262" lon="18.06671941636">
        <ele>0</ele>
        <time>2014-04-04T18:03:51Z</time>
      </trkpt>
      <trkpt lat="59.320935969219" lon="18.066397467581">
        <ele>0</ele>
        <time>2014-04-04T18:03:55Z</time>
      </trkpt>
      <trkpt lat="59.320933957563" lon="18.066318510083">
        <ele>0</ele>
        <time>2014-04-04T18:03:56Z</time>
      </trkpt>
      <trkpt lat="59.320963042756" lon="18.065753318566">
        <ele>0</ele>
        <time>2014-04-04T18:04:03Z</time>
      </trkpt>
      <trkpt lat="59.320980812384" lon="18.065444780827">
        <ele>0</ele>
        <time>2014-04-04T18:04:07Z</time>
      </trkpt>
      <trkpt lat="59.320989110465" lon="18.065184522832">
        <ele>0</ele>
        <time>2014-04-04T18:04:10Z</time>
      </trkpt>
      <trkpt lat="59.321010735767" lon="18.064716309898">
        <ele>0</ele>
        <time>2014-04-04T18:04:14Z</time>
      </trkpt>
      <trkpt lat="59.321067229773" lon="18.064086158656">
        <ele>0</ele>
        <time>2014-04-04T18:04:19Z</time>
      </trkpt>
      <trkpt lat="59.321103691038" lon="18.063980295259">
        <ele>0</ele>
        <time>2014-04-04T18:04:20Z</time>
      </trkpt>
      <trkpt lat="59.321185330744" lon="18.063649294028">
        <ele>0</ele>
        <time>2014-04-04T18:04:23Z</time>
      </trkpt>
      <trkpt lat="59.321192622997" lon="18.063521889148">
        <ele>0</ele>
        <time>2014-04-04T18:04:24Z</time>
      </trkpt>
      <trkpt lat="59.3212124881" lon="18.063111595143">
        <ele>0</ele>
        <time>2014-04-04T18:04:27Z</time>
      </trkpt>
      <trkpt lat="59.321219445077" lon="18.062969186662">
        <ele>0</ele>
        <time>2014-04-04T18:04:28Z</time>
      </trkpt>
      <trkpt lat="59.321224893312" lon="18.062834154253">
        <ele>0</ele>
        <time>2014-04-04T18:04:29Z</time>
      </trkpt>
      <trkpt lat="59.321228246072" lon="18.062699289482">
        <ele>0</ele>
        <time>2014-04-04T18:04:30Z</time>
      </trkpt>
      <trkpt lat="59.321233191393" lon="18.062554617888">
        <ele>0</ele>
        <time>2014-04-04T18:04:31Z</time>
      </trkpt>
      <trkpt lat="59.32125104484" lon="18.061786249115">
        <ele>0</ele>
        <time>2014-04-04T18:04:37Z</time>
      </trkpt>
      <trkpt lat="59.321251631573" lon="18.060853343645">
        <ele>0</ele>
        <time>2014-04-04T18:04:44Z</time>
      </trkpt>
      <trkpt lat="59.321241908569" lon="18.059791021639">
        <ele>0</ele>
        <time>2014-04-04T18:04:52Z</time>
      </trkpt>
      <trkpt lat="59.321245680424" lon="18.059049055851">
        <ele>0</ele>
        <time>2014-04-04T18:04:58Z</time>
      </trkpt>
      <trkpt lat="59.32123931018" lon="18.058292589376">
        <ele>0</ele>
        <time>2014-04-04T18:05:04Z</time>
      </trkpt>
      <trkpt lat="59.321219947991" lon="18.057566884474">
        <ele>0</ele>
        <time>2014-04-04T18:05:10Z</time>
      </trkpt>
      <trkpt lat="59.321213829204" lon="18.056726850456">
        <ele>0</ele>
        <time>2014-04-04T18:05:17Z</time>
      </trkpt>
      <trkpt lat="59.321217181964" lon="18.055811044062">
        <ele>0</ele>
        <time>2014-04-04T18:05:25Z</time>
      </trkpt>
      <trkpt lat="59.321221121457" lon="18.055021720539">
        <ele>0</ele>
        <time>2014-04-04T18:05:32Z</time>
      </trkpt>
      <trkpt lat="59.32117309317" lon="18.054214711207">
        <ele>0</ele>
        <time>2014-04-04T18:05:39Z</time>
      </trkpt>
      <trkpt lat="59.321172841713" lon="18.053966439329">
        <ele>0</ele>
        <time>2014-04-04T18:05:41Z</time>
      </trkpt>
      <trkpt lat="59.321166471469" lon="18.053142079464">
        <ele>0</ele>
        <time>2014-04-04T18:05:48Z</time>
      </trkpt>
      <trkpt lat="59.321156832284" lon="18.052423582996">
        <ele>0</ele>
        <time>2014-04-04T18:05:54Z</time>
      </trkpt>
      <trkpt lat="59.321162112881" lon="18.051604252271">
        <ele>0</ele>
        <time>2014-04-04T18:06:01Z</time>
      </trkpt>
      <trkpt lat="59.32115632937" lon="18.050824400295">
        <ele>0</ele>
        <time>2014-04-04T18:06:08Z</time>
      </trkpt>
      <trkpt lat="59.321120035743" lon="18.050132558269">
        <ele>0</ele>
        <time>2014-04-04T18:06:14Z</time>
      </trkpt>
      <trkpt lat="59.321058009683" lon="18.049570300417">
        <ele>0</ele>
        <time>2014-04-04T18:06:19Z</time>
      </trkpt>
      <trkpt lat="59.321032444888" lon="18.049476926051">
        <ele>0</ele>
        <time>2014-04-04T18:06:20Z</time>
      </trkpt>
      <trkpt lat="59.320961617833" lon="18.048935958225">
        <ele>0</ele>
        <time>2014-04-04T18:06:25Z</time>
      </trkpt>
      <trkpt lat="59.32089146133" lon="18.048147891987">
        <ele>0</ele>
        <time>2014-04-04T18:06:32Z</time>
      </trkpt>
      <trkpt lat="59.320825076682" lon="18.047195372871">
        <ele>0</ele>
        <time>2014-04-04T18:06:40Z</time>
      </trkpt>
      <trkpt lat="59.320772270712" lon="18.046481067353">
        <ele>0</ele>
        <time>2014-04-04T18:06:46Z</time>
      </trkpt>
      <trkpt lat="59.320724493882" lon="18.045417739519">
        <ele>0</ele>
        <time>2014-04-04T18:06:55Z</time>
      </trkpt>
      <trkpt lat="59.320728349556" lon="18.044781888585">
        <ele>0</ele>
        <time>2014-04-04T18:07:00Z</time>
      </trkpt>
      <trkpt lat="59.320725248253" lon="18.044652974963">
        <ele>0</ele>
        <time>2014-04-04T18:07:01Z</time>
      </trkpt>
      <trkpt lat="59.320660456166" lon="18.043907321139">
        <ele>0</ele>
        <time>2014-04-04T18:07:07Z</time>
      </trkpt>
      <trkpt lat="59.320567417076" lon="18.043335005007">
        <ele>0</ele>
        <time>2014-04-04T18:07:12Z</time>
      </trkpt>
      <trkpt lat="59.320555598597" lon="18.043216317303">
        <ele>0</ele>
        <time>2014-04-04T18:07:13Z</time>
      </trkpt>
      <trkpt lat="59.320519724065" lon="18.042866624435">
        <ele>0</ele>
        <time>2014-04-04T18:07:16Z</time>
      </trkpt>
      <trkpt lat="59.320508827595" lon="18.042755145165">
        <ele>0</ele>
        <time>2014-04-04T18:07:17Z</time>
      </trkpt>
      <trkpt lat="59.320501870618" lon="18.042637630927">
        <ele>0</ele>
        <time>2014-04-04T18:07:18Z</time>
      </trkpt>
      <trkpt lat="59.320507067396" lon="18.042506370373">
        <ele>0</ele>
        <time>2014-04-04T18:07:19Z</time>
      </trkpt>
      <trkpt lat="59.320506313025" lon="18.042381647701">
        <ele>0</ele>
        <time>2014-04-04T18:07:20Z</time>
      </trkpt>
      <trkpt lat="59.320508911414" lon="18.042136644764">
        <ele>0</ele>
        <time>2014-04-04T18:07:22Z</time>
      </trkpt>
      <trkpt lat="59.320510671613" lon="18.041431307879">
        <ele>0</ele>
        <time>2014-04-04T18:07:28Z</time>
      </trkpt>
      <trkpt lat="59.320484520085" lon="18.040873995348">
        <ele>0</ele>
        <time>2014-04-04T18:07:33Z</time>
      </trkpt>
      <trkpt lat="59.320471611959" lon="18.040774669833">
        <ele>0</ele>
        <time>2014-04-04T18:07:34Z</time>
      </trkpt>
      <trkpt lat="59.320450741028" lon="18.040669560807">
        <ele>0</ele>
        <time>2014-04-04T18:07:35Z</time>
      </trkpt>
      <trkpt lat="59.32043548597" lon="18.040560847564">
        <ele>0</ele>
        <time>2014-04-04T18:07:36Z</time>
      </trkpt>
      <trkpt lat="59.320384943113" lon="18.039954836194">
        <ele>0</ele>
        <time>2014-04-04T18:07:41Z</time>
      </trkpt>
      <trkpt lat="59.320306739986" lon="18.039115472728">
        <ele>0</ele>
        <time>2014-04-04T18:07:48Z</time>
      </trkpt>
      <trkpt lat="59.320285952874" lon="18.038729150957">
        <ele>0</ele>
        <time>2014-04-04T18:07:51Z</time>
      </trkpt>
      <trkpt lat="59.32025024598" lon="18.0385109701">
        <ele>0</ele>
        <time>2014-04-04T18:07:53Z</time>
      </trkpt>
      <trkpt lat="59.320225351737" lon="18.038405609617">
        <ele>0</ele>
        <time>2014-04-04T18:07:54Z</time>
      </trkpt>
      <trkpt lat="59.320205067539" lon="18.038274684339">
        <ele>0</ele>
        <time>2014-04-04T18:07:55Z</time>
      </trkpt>
      <trkpt lat="59.320196685639" lon="18.038153817341">
        <ele>0</ele>
        <time>2014-04-04T18:07:56Z</time>
      </trkpt>
      <trkpt lat="59.320186794997" lon="18.0380332018">
        <ele>0</ele>
        <time>2014-04-04T18:07:57Z</time>
      </trkpt>
      <trkpt lat="59.320150082275" lon="18.037569179816">
        <ele>0</ele>
        <time>2014-04-04T18:08:01Z</time>
      </trkpt>
      <trkpt lat="59.320083697627" lon="18.036888066622">
        <ele>0</ele>
        <time>2014-04-04T18:08:07Z</time>
      </trkpt>
      <trkpt lat="59.320022593576" lon="18.036185160488">
        <ele>0</ele>
        <time>2014-04-04T18:08:13Z</time>
      </trkpt>
      <trkpt lat="59.320000381541" lon="18.035496252127">
        <ele>0</ele>
        <time>2014-04-04T18:08:19Z</time>
      </trkpt>
      <trkpt lat="59.31997112871" lon="18.035215039382">
        <ele>0</ele>
        <time>2014-04-04T18:08:22Z</time>
      </trkpt>
      <trkpt lat="59.319951682702" lon="18.035077911498">
        <ele>0</ele>
        <time>2014-04-04T18:08:24Z</time>
      </trkpt>
      <trkpt lat="59.319937517291" lon="18.034924774185">
        <ele>0</ele>
        <time>2014-04-04T18:08:26Z</time>
      </trkpt>
      <trkpt lat="59.319930811771" lon="18.034854030949">
        <ele>0</ele>
        <time>2014-04-04T18:08:27Z</time>
      </trkpt>
      <trkpt lat="59.319925698812" lon="18.034776163098">
        <ele>0</ele>
        <time>2014-04-04T18:08:28Z</time>
      </trkpt>
      <trkpt lat="59.319920334396" lon="18.034691170632">
        <ele>0</ele>
        <time>2014-04-04T18:08:29Z</time>
      </trkpt>
      <trkpt lat="59.319912120134" lon="18.034600646112">
        <ele>0</ele>
        <time>2014-04-04T18:08:30Z</time>
      </trkpt>
      <trkpt lat="59.319901139845" lon="18.034454549595">
        <ele>0</ele>
        <time>2014-04-04T18:08:32Z</time>
      </trkpt>
      <trkpt lat="59.319866857874" lon="18.034328234362">
        <ele>0</ele>
        <time>2014-04-04T18:08:34Z</time>
      </trkpt>
      <trkpt lat="59.31984120926" lon="18.034071496765">
        <ele>0</ele>
        <time>2014-04-04T18:08:37Z</time>
      </trkpt>
      <trkpt lat="59.319836934491" lon="18.033972338888">
        <ele>0</ele>
        <time>2014-04-04T18:08:38Z</time>
      </trkpt>
      <trkpt lat="59.31981019623" lon="18.033626417875">
        <ele>0</ele>
        <time>2014-04-04T18:08:41Z</time>
      </trkpt>
      <trkpt lat="59.319792175145" lon="18.03351368132">
        <ele>0</ele>
        <time>2014-04-04T18:08:42Z</time>
      </trkpt>
      <trkpt lat="59.319765101608" lon="18.033272617876">
        <ele>0</ele>
        <time>2014-04-04T18:08:44Z</time>
      </trkpt>
      <trkpt lat="59.319753869862" lon="18.033167173574">
        <ele>0</ele>
        <time>2014-04-04T18:08:45Z</time>
      </trkpt>
      <trkpt lat="59.319736519329" lon="18.033052173906">
        <ele>0</ele>
        <time>2014-04-04T18:08:46Z</time>
      </trkpt>
      <trkpt lat="59.319722353918" lon="18.032948070708">
        <ele>0</ele>
        <time>2014-04-04T18:08:47Z</time>
      </trkpt>
      <trkpt lat="59.31966351298" lon="18.032614387269">
        <ele>0</ele>
        <time>2014-04-04T18:08:50Z</time>
      </trkpt>
      <trkpt lat="59.319619340367" lon="18.032369049056">
        <ele>0</ele>
        <time>2014-04-04T18:08:52Z</time>
      </trkpt>
      <trkpt lat="59.319606767517" lon="18.032255641949">
        <ele>0</ele>
        <time>2014-04-04T18:08:53Z</time>
      </trkpt>
      <trkpt lat="59.319591344821" lon="18.031897902457">
        <ele>0</ele>
        <time>2014-04-04T18:08:56Z</time>
      </trkpt>
      <trkpt lat="59.319578269057" lon="18.03166798694">
        <ele>0</ele>
        <time>2014-04-04T18:08:58Z</time>
      </trkpt>
      <trkpt lat="59.319550608787" lon="18.031455421956">
        <ele>0</ele>
        <time>2014-04-04T18:09:00Z</time>
      </trkpt>
      <trkpt lat="59.319525043992" lon="18.031339248822">
        <ele>0</ele>
        <time>2014-04-04T18:09:01Z</time>
      </trkpt>
      <trkpt lat="59.319476345153" lon="18.031025179029">
        <ele>0</ele>
        <time>2014-04-04T18:09:04Z</time>
      </trkpt>
      <trkpt lat="59.319446840865" lon="18.030521007744">
        <ele>0</ele>
        <time>2014-04-04T18:09:08Z</time>
      </trkpt>
      <trkpt lat="59.319409122315" lon="18.030323194904">
        <ele>0</ele>
        <time>2014-04-04T18:09:10Z</time>
      </trkpt>
      <trkpt lat="59.319357238354" lon="18.030127309901">
        <ele>0</ele>
        <time>2014-04-04T18:09:12Z</time>
      </trkpt>
      <trkpt lat="59.319310048257" lon="18.029991523121">
        <ele>0</ele>
        <time>2014-04-04T18:09:14Z</time>
      </trkpt>
      <trkpt lat="59.319284064367" lon="18.029838972541">
        <ele>0</ele>
        <time>2014-04-04T18:09:16Z</time>
      </trkpt>
      <trkpt lat="59.319244837075" lon="18.029543845842">
        <ele>0</ele>
        <time>2014-04-04T18:09:19Z</time>
      </trkpt>
      <trkpt lat="59.319230336388" lon="18.029443765956">
        <ele>0</ele>
        <time>2014-04-04T18:09:20Z</time>
      </trkpt>
      <trkpt lat="59.319196305874" lon="18.029178311183">
        <ele>0</ele>
        <time>2014-04-04T18:09:23Z</time>
      </trkpt>
      <trkpt lat="59.319177278961" lon="18.029076471098">
        <ele>0</ele>
        <time>2014-04-04T18:09:24Z</time>
      </trkpt>
      <trkpt lat="59.319126568466" lon="18.028753265034">
        <ele>0</ele>
        <time>2014-04-04T18:09:28Z</time>
      </trkpt>
      <trkpt lat="59.319103769698" lon="18.028690149327">
        <ele>0</ele>
        <time>2014-04-04T18:09:29Z</time>
      </trkpt>
      <trkpt lat="59.319002851622" lon="18.028472387565">
        <ele>0</ele>
        <time>2014-04-04T18:09:33Z</time>
      </trkpt>
      <trkpt lat="59.318946692892" lon="18.028349928006">
        <ele>0</ele>
        <time>2014-04-04T18:09:36Z</time>
      </trkpt>
      <trkpt lat="59.318922888296" lon="18.028334589129">
        <ele>0</ele>
        <time>2014-04-04T18:09:37Z</time>
      </trkpt>
      <trkpt lat="59.318903358469" lon="18.028337606613">
        <ele>0</ele>
        <time>2014-04-04T18:09:38Z</time>
      </trkpt>
      <trkpt lat="59.318874943828" lon="18.028330817274">
        <ele>0</ele>
        <time>2014-04-04T18:09:39Z</time>
      </trkpt>
      <trkpt lat="59.318798165624" lon="18.028328805618">
        <ele>0</ele>
        <time>2014-04-04T18:09:41Z</time>
      </trkpt>
      <trkpt lat="59.318642932836" lon="18.028320339899">
        <ele>0</ele>
        <time>2014-04-04T18:09:46Z</time>
      </trkpt>
      <trkpt lat="59.315004517684" lon="18.032641460806">
        <ele>0</ele>
        <time>2014-04-04T18:11:55Z</time>
      </trkpt>
      <trkpt lat="59.315012229032" lon="18.032754700275">
        <ele>0</ele>
        <time>2014-04-04T18:11:56Z</time>
      </trkpt>
      <trkpt lat="59.315033938153" lon="18.033073966846">
        <ele>0</ele>
        <time>2014-04-04T18:11:59Z</time>
      </trkpt>
      <trkpt lat="59.315037626189" lon="18.033167592669">
        <ele>0</ele>
        <time>2014-04-04T18:12:00Z</time>
      </trkpt>
      <trkpt lat="59.315049360849" lon="18.033246131072">
        <ele>0</ele>
        <time>2014-04-04T18:12:01Z</time>
      </trkpt>
      <trkpt lat="59.315063274803" lon="18.033317963955">
        <ele>0</ele>
        <time>2014-04-04T18:12:02Z</time>
      </trkpt>
      <trkpt lat="59.315080457698" lon="18.033395328892">
        <ele>0</ele>
        <time>2014-04-04T18:12:03Z</time>
      </trkpt>
      <trkpt lat="59.315109039977" lon="18.033671512497">
        <ele>0</ele>
        <time>2014-04-04T18:12:06Z</time>
      </trkpt>
      <trkpt lat="59.315111973642" lon="18.033819369213">
        <ele>0</ele>
        <time>2014-04-04T18:12:08Z</time>
      </trkpt>
      <trkpt lat="59.315107782692" lon="18.033910396647">
        <ele>0</ele>
        <time>2014-04-04T18:12:10Z</time>
      </trkpt>
      <trkpt lat="59.315093282005" lon="18.03392355623">
        <ele>0</ele>
        <time>2014-04-04T18:12:11Z</time>
      </trkpt>
      <trkpt lat="59.315054557627" lon="18.033887933155">
        <ele>0</ele>
        <time>2014-04-04T18:12:13Z</time>
      </trkpt>
      <trkpt lat="59.315031423583" lon="18.033841078334">
        <ele>0</ele>
        <time>2014-04-04T18:12:15Z</time>
      </trkpt>
      <trkpt lat="59.31501910219" lon="18.033830098045">
        <ele>0</ele>
        <time>2014-04-04T18:12:16Z</time>
      </trkpt>
      <trkpt lat="59.315005523512" lon="18.033816938462">
        <ele>0</ele>
        <time>2014-04-04T18:12:17Z</time>
      </trkpt>
      <trkpt lat="59.31499144192" lon="18.033797911549">
        <ele>0</ele>
        <time>2014-04-04T18:12:18Z</time>
      </trkpt>
      <trkpt lat="59.314974007568" lon="18.033775112781">
        <ele>0</ele>
        <time>2014-04-04T18:12:19Z</time>
      </trkpt>
      <trkpt lat="59.314752809227" lon="18.033903523489">
        <ele>0</ele>
        <time>2014-04-04T18:12:22Z</time>
      </trkpt>
      <trkpt lat="59.31464778402" lon="18.033763713397">
        <ele>0</ele>
        <time>2014-04-04T18:12:25Z</time>
      </trkpt>
      <trkpt lat="59.314526581746" lon="18.033571684068">
        <ele>0</ele>
        <time>2014-04-04T18:12:29Z</time>
      </trkpt>
      <trkpt lat="59.314496658363" lon="18.033523152867">
        <ele>0</ele>
        <time>2014-04-04T18:12:30Z</time>
      </trkpt>
      <trkpt lat="59.314466399704" lon="18.033473699657">
        <ele>0</ele>
        <time>2014-04-04T18:12:31Z</time>
      </trkpt>
      <trkpt lat="59.314431698638" lon="18.033422653886">
        <ele>0</ele>
        <time>2014-04-04T18:12:32Z</time>
      </trkpt>
      <trkpt lat="59.314398087219" lon="18.03336783626">
        <ele>0</ele>
        <time>2014-04-04T18:12:33Z</time>
      </trkpt>
      <trkpt lat="59.314328936544" lon="18.033288124391">
        <ele>0</ele>
        <time>2014-04-04T18:12:35Z</time>
      </trkpt>
      <trkpt lat="59.314294570754" lon="18.033251914583">
        <ele>0</ele>
        <time>2014-04-04T18:12:36Z</time>
      </trkpt>
      <trkpt lat="59.314052585301" lon="18.032951926382">
        <ele>0</ele>
        <time>2014-04-04T18:12:43Z</time>
      </trkpt>
      <trkpt lat="59.314022661918" lon="18.032899623326">
        <ele>0</ele>
        <time>2014-04-04T18:12:44Z</time>
      </trkpt>
      <trkpt lat="59.313989888689" lon="18.032846398261">
        <ele>0</ele>
        <time>2014-04-04T18:12:45Z</time>
      </trkpt>
      <trkpt lat="59.313959294754" lon="18.032794346662">
        <ele>0</ele>
        <time>2014-04-04T18:12:46Z</time>
      </trkpt>
      <trkpt lat="59.313929622828" lon="18.032744306719">
        <ele>0</ele>
        <time>2014-04-04T18:12:47Z</time>
      </trkpt>
      <trkpt lat="59.313806576536" lon="18.032532831382">
        <ele>0</ele>
        <time>2014-04-04T18:12:51Z</time>
      </trkpt>
      <trkpt lat="59.313771707832" lon="18.032467284924">
        <ele>0</ele>
        <time>2014-04-04T18:12:52Z</time>
      </trkpt>
      <trkpt lat="59.313742874096" lon="18.03241313785">
        <ele>0</ele>
        <time>2014-04-04T18:12:53Z</time>
      </trkpt>
      <trkpt lat="59.313713453627" lon="18.032354716007">
        <ele>0.6</ele>
        <time>2014-04-04T18:12:54Z</time>
      </trkpt>
      <trkpt lat="59.313580265236" lon="18.032120525721">
        <ele>0.6</ele>
        <time>2014-04-04T18:12:58Z</time>
      </trkpt>
      <trkpt lat="59.313287150193" lon="18.031592633659">
        <ele>0.6</ele>
        <time>2014-04-04T18:13:06Z</time>
      </trkpt>
      <trkpt lat="59.313115153605" lon="18.031267751215">
        <ele>0.2</ele>
        <time>2014-04-04T18:13:10Z</time>
      </trkpt>
      <trkpt lat="59.313070394259" lon="18.031185943871">
        <ele>0</ele>
        <time>2014-04-04T18:13:11Z</time>
      </trkpt>
      <trkpt lat="59.31302923913" lon="18.031104136527">
        <ele>0</ele>
        <time>2014-04-04T18:13:12Z</time>
      </trkpt>
      <trkpt lat="59.312983390137" lon="18.031019395518">
        <ele>0</ele>
        <time>2014-04-04T18:13:13Z</time>
      </trkpt>
      <trkpt lat="59.312937624963" lon="18.030932810491">
        <ele>0</ele>
        <time>2014-04-04T18:13:14Z</time>
      </trkpt>
      <trkpt lat="59.312807537875" lon="18.030700045128">
        <ele>0</ele>
        <time>2014-04-04T18:13:17Z</time>
      </trkpt>
      <trkpt lat="59.312763113805" lon="18.030618908336">
        <ele>0</ele>
        <time>2014-04-04T18:13:18Z</time>
      </trkpt>
      <trkpt lat="59.312721791038" lon="18.030538693553">
        <ele>0</ele>
        <time>2014-04-04T18:13:19Z</time>
      </trkpt>
      <trkpt lat="59.312678205158" lon="18.030463004996">
        <ele>0</ele>
        <time>2014-04-04T18:13:20Z</time>
      </trkpt>
      <trkpt lat="59.312596313995" lon="18.030306514923">
        <ele>0</ele>
        <time>2014-04-04T18:13:22Z</time>
      </trkpt>
      <trkpt lat="59.312471339866" lon="18.030073079008">
        <ele>0</ele>
        <time>2014-04-04T18:13:25Z</time>
      </trkpt>
      <trkpt lat="59.312427837805" lon="18.029998228641">
        <ele>0</ele>
        <time>2014-04-04T18:13:26Z</time>
      </trkpt>
      <trkpt lat="59.312386095943" lon="18.029918516772">
        <ele>0</ele>
        <time>2014-04-04T18:13:27Z</time>
      </trkpt>
      <trkpt lat="59.312344521719" lon="18.029845007509">
        <ele>0</ele>
        <time>2014-04-04T18:13:28Z</time>
      </trkpt>
      <trkpt lat="59.312299510916" lon="18.029758506301">
        <ele>0</ele>
        <time>2014-04-04T18:13:29Z</time>
      </trkpt>
      <trkpt lat="59.312254919208" lon="18.029672340369">
        <ele>0</ele>
        <time>2014-04-04T18:13:30Z</time>
      </trkpt>
      <trkpt lat="59.312017795257" lon="18.029154674225">
        <ele>0</ele>
        <time>2014-04-04T18:13:36Z</time>
      </trkpt>
      <trkpt lat="59.311982256001" lon="18.029070855225">
        <ele>0</ele>
        <time>2014-04-04T18:13:37Z</time>
      </trkpt>
      <trkpt lat="59.311948728401" lon="18.028990891899">
        <ele>0</ele>
        <time>2014-04-04T18:13:38Z</time>
      </trkpt>
      <trkpt lat="59.311915452258" lon="18.02892040012">
        <ele>0</ele>
        <time>2014-04-04T18:13:39Z</time>
      </trkpt>
      <trkpt lat="59.311888294902" lon="18.028838173681">
        <ele>0</ele>
        <time>2014-04-04T18:13:40Z</time>
      </trkpt>
      <trkpt lat="59.311821574978" lon="18.028643713601">
        <ele>0</ele>
        <time>2014-04-04T18:13:43Z</time>
      </trkpt>
      <trkpt lat="59.311770613026" lon="18.02853147996">
        <ele>0</ele>
        <time>2014-04-04T18:13:47Z</time>
      </trkpt>
      <trkpt lat="59.311777067089" lon="18.028538269299">
        <ele>0</ele>
        <time>2014-04-04T18:13:48Z</time>
      </trkpt>
      <trkpt lat="59.311775139252" lon="18.028539694222">
        <ele>0</ele>
        <time>2014-04-04T18:13:52Z</time>
      </trkpt>
      <trkpt lat="59.311708167871" lon="18.02846861571">
        <ele>0</ele>
        <time>2014-04-04T18:14:01Z</time>
      </trkpt>
      <trkpt lat="59.31153809912" lon="18.028322183917">
        <ele>0</ele>
        <time>2014-04-04T18:14:05Z</time>
      </trkpt>
      <trkpt lat="59.311484287322" lon="18.028297457312">
        <ele>0</ele>
        <time>2014-04-04T18:14:06Z</time>
      </trkpt>
      <trkpt lat="59.311393678983" lon="18.028238029641">
        <ele>0</ele>
        <time>2014-04-04T18:14:08Z</time>
      </trkpt>
      <trkpt lat="59.311297119495" lon="18.028163766007">
        <ele>0</ele>
        <time>2014-04-04T18:14:10Z</time>
      </trkpt>
      <trkpt lat="59.311249426484" lon="18.028112049684">
        <ele>0</ele>
        <time>2014-04-04T18:14:11Z</time>
      </trkpt>
      <trkpt lat="59.311017080216" lon="18.027808624904">
        <ele>0</ele>
        <time>2014-04-04T18:14:16Z</time>
      </trkpt>
      <trkpt lat="59.310633775929" lon="18.027286935448">
        <ele>0</ele>
        <time>2014-04-04T18:14:24Z</time>
      </trkpt>
      <trkpt lat="59.310589603316" lon="18.027207055941">
        <ele>0</ele>
        <time>2014-04-04T18:14:25Z</time>
      </trkpt>
      <trkpt lat="59.310457756029" lon="18.026982840116">
        <ele>0</ele>
        <time>2014-04-04T18:14:28Z</time>
      </trkpt>
      <trkpt lat="59.310406207344" lon="18.02691628783">
        <ele>0</ele>
        <time>2014-04-04T18:14:29Z</time>
      </trkpt>
      <trkpt lat="59.310234797489" lon="18.026748566011">
        <ele>0</ele>
        <time>2014-04-04T18:14:32Z</time>
      </trkpt>
      <trkpt lat="59.310188194125" lon="18.02668159463">
        <ele>0</ele>
        <time>2014-04-04T18:14:33Z</time>
      </trkpt>
      <trkpt lat="59.309802626725" lon="18.026181362838">
        <ele>0</ele>
        <time>2014-04-04T18:14:41Z</time>
      </trkpt>
      <trkpt lat="59.309429129261" lon="18.02565481188">
        <ele>0</ele>
        <time>2014-04-04T18:14:49Z</time>
      </trkpt>
      <trkpt lat="59.309293677757" lon="18.025428416761">
        <ele>0</ele>
        <time>2014-04-04T18:14:52Z</time>
      </trkpt>
      <trkpt lat="59.309242715805" lon="18.025117699728">
        <ele>0</ele>
        <time>2014-04-04T18:14:55Z</time>
      </trkpt>
      <trkpt lat="59.309251181524" lon="18.024886694564">
        <ele>0</ele>
        <time>2014-04-04T18:14:58Z</time>
      </trkpt>
      <trkpt lat="59.309222096331" lon="18.024840426476">
        <ele>0</ele>
        <time>2014-04-04T18:14:59Z</time>
      </trkpt>
      <trkpt lat="59.309200219572" lon="18.024825087599">
        <ele>0</ele>
        <time>2014-04-04T18:15:00Z</time>
      </trkpt>
      <trkpt lat="59.309177085528" lon="18.024788291058">
        <ele>0</ele>
        <time>2014-04-04T18:15:01Z</time>
      </trkpt>
      <trkpt lat="59.309154370579" lon="18.024749147585">
        <ele>0</ele>
        <time>2014-04-04T18:15:02Z</time>
      </trkpt>
      <trkpt lat="59.309134924571" lon="18.024725594446">
        <ele>0</ele>
        <time>2014-04-04T18:15:03Z</time>
      </trkpt>
      <trkpt lat="59.309034593228" lon="18.024787452868">
        <ele>0</ele>
        <time>2014-04-04T18:15:06Z</time>
      </trkpt>
      <trkpt lat="59.308865027391" lon="18.024782004633">
        <ele>0</ele>
        <time>2014-04-04T18:15:09Z</time>
      </trkpt>
      <trkpt lat="59.308714656105" lon="18.02460288343">
        <ele>0</ele>
        <time>2014-04-04T18:15:12Z</time>
      </trkpt>
      <trkpt lat="59.308666711637" lon="18.024543036664">
        <ele>0</ele>
        <time>2014-04-04T18:15:13Z</time>
      </trkpt>
      <trkpt lat="59.308321712633" lon="18.024066693287">
        <ele>0</ele>
        <time>2014-04-04T18:15:20Z</time>
      </trkpt>
      <trkpt lat="59.308009403039" lon="18.023640138396">
        <ele>0</ele>
        <time>2014-04-04T18:15:26Z</time>
      </trkpt>
      <trkpt lat="59.30796154239" lon="18.023574005205">
        <ele>0</ele>
        <time>2014-04-04T18:15:27Z</time>
      </trkpt>
      <trkpt lat="59.307776805314" lon="18.023358003642">
        <ele>0</ele>
        <time>2014-04-04T18:15:31Z</time>
      </trkpt>
      <trkpt lat="59.30767404322" lon="18.02323747192">
        <ele>0</ele>
        <time>2014-04-04T18:15:33Z</time>
      </trkpt>
      <trkpt lat="59.307535658051" lon="18.02301618976">
        <ele>0</ele>
        <time>2014-04-04T18:15:36Z</time>
      </trkpt>
      <trkpt lat="59.30749467056" lon="18.022937902814">
        <ele>0</ele>
        <time>2014-04-04T18:15:37Z</time>
      </trkpt>
      <trkpt lat="59.307452341965" lon="18.022855508737">
        <ele>0</ele>
        <time>2014-04-04T18:15:38Z</time>
      </trkpt>
      <trkpt lat="59.307407582619" lon="18.022768169339">
        <ele>0</ele>
        <time>2014-04-04T18:15:39Z</time>
      </trkpt>
      <trkpt lat="59.307370366983" lon="18.022676638991">
        <ele>0</ele>
        <time>2014-04-04T18:15:40Z</time>
      </trkpt>
      <trkpt lat="59.307301970679" lon="18.022505648231">
        <ele>0</ele>
        <time>2014-04-04T18:15:42Z</time>
      </trkpt>
      <trkpt lat="59.307177080369" lon="18.022154698078">
        <ele>0</ele>
        <time>2014-04-04T18:15:46Z</time>
      </trkpt>
      <trkpt lat="59.307146570253" lon="18.022062078083">
        <ele>0</ele>
        <time>2014-04-04T18:15:47Z</time>
      </trkpt>
      <trkpt lat="59.307117568879" lon="18.021982366214">
        <ele>0</ele>
        <time>2014-04-04T18:15:48Z</time>
      </trkpt>
      <trkpt lat="59.307092087903" lon="18.021912042073">
        <ele>0</ele>
        <time>2014-04-04T18:15:49Z</time>
      </trkpt>
      <trkpt lat="59.307064427633" lon="18.021836353516">
        <ele>0</ele>
        <time>2014-04-04T18:15:50Z</time>
      </trkpt>
      <trkpt lat="59.307043891978" lon="18.021735854535">
        <ele>0</ele>
        <time>2014-04-04T18:15:51Z</time>
      </trkpt>
      <trkpt lat="59.306995276958" lon="18.021428490262">
        <ele>0</ele>
        <time>2014-04-04T18:15:54Z</time>
      </trkpt>
      <trkpt lat="59.306908356655" lon="18.020582337457">
        <ele>0</ele>
        <time>2014-04-04T18:16:02Z</time>
      </trkpt>
      <trkpt lat="59.306858819626" lon="18.020132061789">
        <ele>0</ele>
        <time>2014-04-04T18:16:07Z</time>
      </trkpt>
      <trkpt lat="59.306840463265" lon="18.019964423789">
        <ele>0</ele>
        <time>2014-04-04T18:16:09Z</time>
      </trkpt>
      <trkpt lat="59.306829482976" lon="18.01987549183">
        <ele>0</ele>
        <time>2014-04-04T18:16:10Z</time>
      </trkpt>
      <trkpt lat="59.30681657485" lon="18.019784799672">
        <ele>0</ele>
        <time>2014-04-04T18:16:11Z</time>
      </trkpt>
      <trkpt lat="59.306799308136" lon="18.019693269324">
        <ele>0</ele>
        <time>2014-04-04T18:16:12Z</time>
      </trkpt>
      <trkpt lat="59.306775671178" lon="18.019423120687">
        <ele>0</ele>
        <time>2014-04-04T18:16:15Z</time>
      </trkpt>
      <trkpt lat="59.306748430003" lon="18.019153055869">
        <ele>0</ele>
        <time>2014-04-04T18:16:18Z</time>
      </trkpt>
      <trkpt lat="59.306740383379" lon="18.019062615168">
        <ele>0</ele>
        <time>2014-04-04T18:16:19Z</time>
      </trkpt>
      <trkpt lat="59.306733677859" lon="18.018972677381">
        <ele>0</ele>
        <time>2014-04-04T18:16:20Z</time>
      </trkpt>
      <trkpt lat="59.306724541588" lon="18.018887349639">
        <ele>0</ele>
        <time>2014-04-04T18:16:21Z</time>
      </trkpt>
      <trkpt lat="59.306716914059" lon="18.018802440992">
        <ele>0</ele>
        <time>2014-04-04T18:16:22Z</time>
      </trkpt>
      <trkpt lat="59.306701575182" lon="18.018618877382">
        <ele>0</ele>
        <time>2014-04-04T18:16:24Z</time>
      </trkpt>
      <trkpt lat="59.306654217447" lon="18.018099702496">
        <ele>0</ele>
        <time>2014-04-04T18:16:30Z</time>
      </trkpt>
      <trkpt lat="59.306643404796" lon="18.018015045306">
        <ele>0</ele>
        <time>2014-04-04T18:16:31Z</time>
      </trkpt>
      <trkpt lat="59.306636028724" lon="18.017920497474">
        <ele>0</ele>
        <time>2014-04-04T18:16:32Z</time>
      </trkpt>
      <trkpt lat="59.306631586317" lon="18.017830224411">
        <ele>0</ele>
        <time>2014-04-04T18:16:33Z</time>
      </trkpt>
      <trkpt lat="59.306623958788" lon="18.017742801194">
        <ele>0</ele>
        <time>2014-04-04T18:16:34Z</time>
      </trkpt>
      <trkpt lat="59.306590515007" lon="18.017315240475">
        <ele>0</ele>
        <time>2014-04-04T18:16:39Z</time>
      </trkpt>
      <trkpt lat="59.306588922446" lon="18.017237121167">
        <ele>0</ele>
        <time>2014-04-04T18:16:40Z</time>
      </trkpt>
      <trkpt lat="59.306549024602" lon="18.016830431379">
        <ele>0</ele>
        <time>2014-04-04T18:16:45Z</time>
      </trkpt>
      <trkpt lat="59.30653829577" lon="18.016648795606">
        <ele>0</ele>
        <time>2014-04-04T18:16:47Z</time>
      </trkpt>
      <trkpt lat="59.306515161726" lon="18.016292061942">
        <ele>0</ele>
        <time>2014-04-04T18:16:51Z</time>
      </trkpt>
      <trkpt lat="59.306479203375" lon="18.016022248581">
        <ele>0</ele>
        <time>2014-04-04T18:16:54Z</time>
      </trkpt>
      <trkpt lat="59.306438970255" lon="18.015565854126">
        <ele>0</ele>
        <time>2014-04-04T18:16:59Z</time>
      </trkpt>
      <trkpt lat="59.306429163432" lon="18.015477927995">
        <ele>0.2</ele>
        <time>2014-04-04T18:17:00Z</time>
      </trkpt>
      <trkpt lat="59.306414076012" lon="18.015389079855">
        <ele>1</ele>
        <time>2014-04-04T18:17:01Z</time>
      </trkpt>
      <trkpt lat="59.306406197026" lon="18.015298890611">
        <ele>1.6</ele>
        <time>2014-04-04T18:17:02Z</time>
      </trkpt>
      <trkpt lat="59.306374261987" lon="18.014934697056">
        <ele>1.6</ele>
        <time>2014-04-04T18:17:06Z</time>
      </trkpt>
      <trkpt lat="59.30630024981" lon="18.014102625843">
        <ele>1.6</ele>
        <time>2014-04-04T18:17:15Z</time>
      </trkpt>
      <trkpt lat="59.306245264546" lon="18.013538859249">
        <ele>1.6</ele>
        <time>2014-04-04T18:17:22Z</time>
      </trkpt>
      <trkpt lat="59.306241660329" lon="18.013406676686">
        <ele>1.6</ele>
        <time>2014-04-04T18:17:25Z</time>
      </trkpt>
      <trkpt lat="59.306238139931" lon="18.013403743021">
        <ele>1.6</ele>
        <time>2014-04-04T18:17:26Z</time>
      </trkpt>
      <trkpt lat="59.306241660329" lon="18.013416148233">
        <ele>2</ele>
        <time>2014-04-04T18:17:27Z</time>
      </trkpt>
      <trkpt lat="59.306241660329" lon="18.013416148233">
        <ele>3.8</ele>
        <time>2014-04-04T18:17:37Z</time>
      </trkpt>
      <trkpt lat="59.306238056112" lon="18.013389661429">
        <ele>3.8</ele>
        <time>2014-04-04T18:17:39Z</time>
      </trkpt>
      <trkpt lat="59.306232272601" lon="18.013311290664">
        <ele>3.8</ele>
        <time>2014-04-04T18:17:40Z</time>
      </trkpt>
      <trkpt lat="59.306214586792" lon="18.013137952972">
        <ele>3.8</ele>
        <time>2014-04-04T18:17:43Z</time>
      </trkpt>
      <trkpt lat="59.30616027208" lon="18.012588770884">
        <ele>3.8</ele>
        <time>2014-04-04T18:17:50Z</time>
      </trkpt>
      <trkpt lat="59.306075279614" lon="18.011712778515">
        <ele>3.8</ele>
        <time>2014-04-04T18:18:00Z</time>
      </trkpt>
      <trkpt lat="59.305996657392" lon="18.010972824383">
        <ele>3.8</ele>
        <time>2014-04-04T18:18:09Z</time>
      </trkpt>
      <trkpt lat="59.305968578027" lon="18.0107165897">
        <ele>4.2</ele>
        <time>2014-04-04T18:18:12Z</time>
      </trkpt>
      <trkpt lat="59.305962878335" lon="18.010625478447">
        <ele>4.6</ele>
        <time>2014-04-04T18:18:13Z</time>
      </trkpt>
      <trkpt lat="59.305954999349" lon="18.010544676931">
        <ele>5</ele>
        <time>2014-04-04T18:18:14Z</time>
      </trkpt>
      <trkpt lat="59.305944941069" lon="18.010465887071">
        <ele>5.6</ele>
        <time>2014-04-04T18:18:15Z</time>
      </trkpt>
      <trkpt lat="59.305935385703" lon="18.01037963732">
        <ele>6</ele>
        <time>2014-04-04T18:18:16Z</time>
      </trkpt>
      <trkpt lat="59.305923483405" lon="18.010287101144">
        <ele>6</ele>
        <time>2014-04-04T18:18:17Z</time>
      </trkpt>
      <trkpt lat="59.305850393237" lon="18.009629373451">
        <ele>6</ele>
        <time>2014-04-04T18:18:24Z</time>
      </trkpt>
      <trkpt lat="59.305843771536" lon="18.00953138904">
        <ele>6</ele>
        <time>2014-04-04T18:18:25Z</time>
      </trkpt>
      <trkpt lat="59.305826504822" lon="18.00924891901">
        <ele>6</ele>
        <time>2014-04-04T18:18:28Z</time>
      </trkpt>
      <trkpt lat="59.305788283358" lon="18.008962677125">
        <ele>6</ele>
        <time>2014-04-04T18:18:31Z</time>
      </trkpt>
      <trkpt lat="59.30576883735" lon="18.008761846801">
        <ele>6</ele>
        <time>2014-04-04T18:18:33Z</time>
      </trkpt>
      <trkpt lat="59.305747631143" lon="18.008554646233">
        <ele>6</ele>
        <time>2014-04-04T18:18:35Z</time>
      </trkpt>
      <trkpt lat="59.305740255071" lon="18.008450375397">
        <ele>6.4</ele>
        <time>2014-04-04T18:18:36Z</time>
      </trkpt>
      <trkpt lat="59.305731705533" lon="18.008348954407">
        <ele>6.8</ele>
        <time>2014-04-04T18:18:37Z</time>
      </trkpt>
      <trkpt lat="59.305725167651" lon="18.008244348295">
        <ele>7.2</ele>
        <time>2014-04-04T18:18:38Z</time>
      </trkpt>
      <trkpt lat="59.305724580918" lon="18.008136808518">
        <ele>7.6</ele>
        <time>2014-04-04T18:18:39Z</time>
      </trkpt>
      <trkpt lat="59.305722150167" lon="18.008032034768">
        <ele>8</ele>
        <time>2014-04-04T18:18:40Z</time>
      </trkpt>
      <trkpt lat="59.305690466585" lon="18.0072883926">
        <ele>8</ele>
        <time>2014-04-04T18:18:47Z</time>
      </trkpt>
      <trkpt lat="59.305676384993" lon="18.007170794543">
        <ele>8</ele>
        <time>2014-04-04T18:18:48Z</time>
      </trkpt>
      <trkpt lat="59.305666075256" lon="18.006591772891">
        <ele>8</ele>
        <time>2014-04-04T18:18:53Z</time>
      </trkpt>
      <trkpt lat="59.305634307855" lon="18.005986851168">
        <ele>8</ele>
        <time>2014-04-04T18:18:58Z</time>
      </trkpt>
      <trkpt lat="59.305617292598" lon="18.005744027525">
        <ele>8</ele>
        <time>2014-04-04T18:19:00Z</time>
      </trkpt>
      <trkpt lat="59.305567001198" lon="18.004865017672">
        <ele>7.6</ele>
        <time>2014-04-04T18:19:08Z</time>
      </trkpt>
      <trkpt lat="59.305564989542" lon="18.004760243922">
        <ele>7.2</ele>
        <time>2014-04-04T18:19:09Z</time>
      </trkpt>
      <trkpt lat="59.305553757796" lon="18.004644908978">
        <ele>6.6</ele>
        <time>2014-04-04T18:19:10Z</time>
      </trkpt>
      <trkpt lat="59.30554001148" lon="18.004521359772">
        <ele>6.2</ele>
        <time>2014-04-04T18:19:11Z</time>
      </trkpt>
      <trkpt lat="59.305531713399" lon="18.004401163326">
        <ele>5.8</ele>
        <time>2014-04-04T18:19:12Z</time>
      </trkpt>
      <trkpt lat="59.305519559644" lon="18.004160686615">
        <ele>5.8</ele>
        <time>2014-04-04T18:19:14Z</time>
      </trkpt>
      <trkpt lat="59.305526768078" lon="18.003188553853">
        <ele>5.8</ele>
        <time>2014-04-04T18:19:22Z</time>
      </trkpt>
      <trkpt lat="59.30558192098" lon="18.002465698797">
        <ele>5.8</ele>
        <time>2014-04-04T18:19:28Z</time>
      </trkpt>
      <trkpt lat="59.30557856822" lon="18.002130925711">
        <ele>5.4</ele>
        <time>2014-04-04T18:19:31Z</time>
      </trkpt>
      <trkpt lat="59.305578819677" lon="18.002024810857">
        <ele>5</ele>
        <time>2014-04-04T18:19:32Z</time>
      </trkpt>
      <trkpt lat="59.30557353908" lon="18.001923557505">
        <ele>4.6</ele>
        <time>2014-04-04T18:19:33Z</time>
      </trkpt>
      <trkpt lat="59.305573455261" lon="18.001818113203">
        <ele>4.2</ele>
        <time>2014-04-04T18:19:34Z</time>
      </trkpt>
      <trkpt lat="59.305573455261" lon="18.001711830711">
        <ele>3.8</ele>
        <time>2014-04-04T18:19:35Z</time>
      </trkpt>
      <trkpt lat="59.305548477199" lon="18.001383763145">
        <ele>3.8</ele>
        <time>2014-04-04T18:19:38Z</time>
      </trkpt>
      <trkpt lat="59.30554001148" lon="18.001267087097">
        <ele>3.8</ele>
        <time>2014-04-04T18:19:39Z</time>
      </trkpt>
      <trkpt lat="59.305506567699" lon="18.000767861133">
        <ele>3.8</ele>
        <time>2014-04-04T18:19:43Z</time>
      </trkpt>
      <trkpt lat="59.305464490561" lon="18.000021117662">
        <ele>3.8</ele>
        <time>2014-04-04T18:19:49Z</time>
      </trkpt>
      <trkpt lat="59.30545870705" lon="17.999244366989">
        <ele>3.8</ele>
        <time>2014-04-04T18:19:56Z</time>
      </trkpt>
      <trkpt lat="59.305413863885" lon="17.998467700135">
        <ele>3.8</ele>
        <time>2014-04-04T18:20:03Z</time>
      </trkpt>
      <trkpt lat="59.305430711504" lon="17.99802806948">
        <ele>3.8</ele>
        <time>2014-04-04T18:20:07Z</time>
      </trkpt>
      <trkpt lat="59.30543691411" lon="17.997941819729">
        <ele>3.8</ele>
        <time>2014-04-04T18:20:08Z</time>
      </trkpt>
      <trkpt lat="59.305479494162" lon="17.997577626174">
        <ele>3.8</ele>
        <time>2014-04-04T18:20:13Z</time>
      </trkpt>
      <trkpt lat="59.305473962108" lon="17.997377382583">
        <ele>3.8</ele>
        <time>2014-04-04T18:20:15Z</time>
      </trkpt>
      <trkpt lat="59.305468513873" lon="17.997154088767">
        <ele>3.8</ele>
        <time>2014-04-04T18:20:17Z</time>
      </trkpt>
      <trkpt lat="59.305465328751" lon="17.997029282276">
        <ele>3.4</ele>
        <time>2014-04-04T18:20:18Z</time>
      </trkpt>
      <trkpt lat="59.305456108661" lon="17.996901961215">
        <ele>2.4</ele>
        <time>2014-04-04T18:20:19Z</time>
      </trkpt>
      <trkpt lat="59.305444960734" lon="17.996760223286">
        <ele>2</ele>
        <time>2014-04-04T18:20:20Z</time>
      </trkpt>
      <trkpt lat="59.305434483359" lon="17.996623765954">
        <ele>1.6</ele>
        <time>2014-04-04T18:20:21Z</time>
      </trkpt>
      <trkpt lat="59.305427526382" lon="17.996482614758">
        <ele>1.6</ele>
        <time>2014-04-04T18:20:22Z</time>
      </trkpt>
      <trkpt lat="59.305420653224" lon="17.996063687396">
        <ele>1.2</ele>
        <time>2014-04-04T18:20:25Z</time>
      </trkpt>
      <trkpt lat="59.305416210817" lon="17.995926810969">
        <ele>0.8</ele>
        <time>2014-04-04T18:20:26Z</time>
      </trkpt>
      <trkpt lat="59.305405230528" lon="17.995787839067">
        <ele>0.2</ele>
        <time>2014-04-04T18:20:27Z</time>
      </trkpt>
      <trkpt lat="59.305394585515" lon="17.995654902133">
        <ele>0</ele>
        <time>2014-04-04T18:20:28Z</time>
      </trkpt>
      <trkpt lat="59.305382850855" lon="17.995524144493">
        <ele>0</ele>
        <time>2014-04-04T18:20:29Z</time>
      </trkpt>
      <trkpt lat="59.305341611907" lon="17.995142013672">
        <ele>0</ele>
        <time>2014-04-04T18:20:32Z</time>
      </trkpt>
      <trkpt lat="59.305315711836" lon="17.994757033005">
        <ele>0</ele>
        <time>2014-04-04T18:20:35Z</time>
      </trkpt>
      <trkpt lat="59.305271706861" lon="17.994007355869">
        <ele>0</ele>
        <time>2014-04-04T18:20:41Z</time>
      </trkpt>
      <trkpt lat="59.305216973054" lon="17.993407379467">
        <ele>0</ele>
        <time>2014-04-04T18:20:46Z</time>
      </trkpt>
      <trkpt lat="59.305170621147" lon="17.99305760278">
        <ele>0</ele>
        <time>2014-04-04T18:20:49Z</time>
      </trkpt>
      <trkpt lat="59.305202807643" lon="17.992946207329">
        <ele>0</ele>
        <time>2014-04-04T18:20:50Z</time>
      </trkpt>
      <trkpt lat="59.305207333869" lon="17.992834811878">
        <ele>0</ele>
        <time>2014-04-04T18:20:51Z</time>
      </trkpt>
      <trkpt lat="59.305210686629" lon="17.992721740047">
        <ele>0</ele>
        <time>2014-04-04T18:20:52Z</time>
      </trkpt>
      <trkpt lat="59.305206328041" lon="17.992609925501">
        <ele>0</ele>
        <time>2014-04-04T18:20:53Z</time>
      </trkpt>
      <trkpt lat="59.305202137091" lon="17.992501296077">
        <ele>0</ele>
        <time>2014-04-04T18:20:54Z</time>
      </trkpt>
      <trkpt lat="59.305155449908" lon="17.991823116548">
        <ele>0</ele>
        <time>2014-04-04T18:21:00Z</time>
      </trkpt>
      <trkpt lat="59.305089987269" lon="17.991050808282">
        <ele>0</ele>
        <time>2014-04-04T18:21:06Z</time>
      </trkpt>
      <trkpt lat="59.305082443559" lon="17.990926001791">
        <ele>0</ele>
        <time>2014-04-04T18:21:07Z</time>
      </trkpt>
      <trkpt lat="59.305074480754" lon="17.99080538625">
        <ele>0</ele>
        <time>2014-04-04T18:21:08Z</time>
      </trkpt>
      <trkpt lat="59.3050689487" lon="17.990686782365">
        <ele>0</ele>
        <time>2014-04-04T18:21:09Z</time>
      </trkpt>
      <trkpt lat="59.305049335054" lon="17.99022032963">
        <ele>0</ele>
        <time>2014-04-04T18:21:13Z</time>
      </trkpt>
      <trkpt lat="59.305017735291" lon="17.989684307125">
        <ele>0</ele>
        <time>2014-04-04T18:21:18Z</time>
      </trkpt>
      <trkpt lat="59.305010610676" lon="17.989579449556">
        <ele>0</ele>
        <time>2014-04-04T18:21:19Z</time>
      </trkpt>
      <trkpt lat="59.305002564052" lon="17.989469059933">
        <ele>0</ele>
        <time>2014-04-04T18:21:20Z</time>
      </trkpt>
      <trkpt lat="59.304995690894" lon="17.989365292011">
        <ele>0</ele>
        <time>2014-04-04T18:21:21Z</time>
      </trkpt>
      <trkpt lat="59.304991248487" lon="17.989262110822">
        <ele>0</ele>
        <time>2014-04-04T18:21:22Z</time>
      </trkpt>
      <trkpt lat="59.304983369501" lon="17.989158175262">
        <ele>0</ele>
        <time>2014-04-04T18:21:23Z</time>
      </trkpt>
      <trkpt lat="59.304979597646" lon="17.988943347165">
        <ele>0</ele>
        <time>2014-04-04T18:21:25Z</time>
      </trkpt>
      <trkpt lat="59.304974317049" lon="17.988597761428">
        <ele>0</ele>
        <time>2014-04-04T18:21:28Z</time>
      </trkpt>
      <trkpt lat="59.304945818589" lon="17.988372707413">
        <ele>0</ele>
        <time>2014-04-04T18:21:30Z</time>
      </trkpt>
      <trkpt lat="59.304906591297" lon="17.987648092158">
        <ele>0</ele>
        <time>2014-04-04T18:21:36Z</time>
      </trkpt>
      <trkpt lat="59.304840709563" lon="17.986735889981">
        <ele>0</ele>
        <time>2014-04-04T18:21:43Z</time>
      </trkpt>
      <trkpt lat="59.304818665166" lon="17.986369768589">
        <ele>0</ele>
        <time>2014-04-04T18:21:46Z</time>
      </trkpt>
      <trkpt lat="59.304809361257" lon="17.986246889935">
        <ele>0</ele>
        <time>2014-04-04T18:21:47Z</time>
      </trkpt>
      <trkpt lat="59.304798800063" lon="17.986127531679">
        <ele>0</ele>
        <time>2014-04-04T18:21:48Z</time>
      </trkpt>
      <trkpt lat="59.30479150781" lon="17.986013202563">
        <ele>0</ele>
        <time>2014-04-04T18:21:49Z</time>
      </trkpt>
      <trkpt lat="59.304785221385" lon="17.98590197475">
        <ele>0</ele>
        <time>2014-04-04T18:21:50Z</time>
      </trkpt>
      <trkpt lat="59.304782036263" lon="17.985776749164">
        <ele>0</ele>
        <time>2014-04-04T18:21:51Z</time>
      </trkpt>
      <trkpt lat="59.304775246924" lon="17.985663342057">
        <ele>0</ele>
        <time>2014-04-04T18:21:52Z</time>
      </trkpt>
      <trkpt lat="59.304765775377" lon="17.985544821991">
        <ele>0</ele>
        <time>2014-04-04T18:21:53Z</time>
      </trkpt>
      <trkpt lat="59.304731744863" lon="17.98478382929">
        <ele>0</ele>
        <time>2014-04-04T18:21:59Z</time>
      </trkpt>
      <trkpt lat="59.304694864503" lon="17.983798872221">
        <ele>0</ele>
        <time>2014-04-04T18:22:07Z</time>
      </trkpt>
      <trkpt lat="59.304658989971" lon="17.983007117947">
        <ele>0</ele>
        <time>2014-04-04T18:22:14Z</time>
      </trkpt>
      <trkpt lat="59.30462973714" lon="17.982183260996">
        <ele>0</ele>
        <time>2014-04-04T18:22:22Z</time>
      </trkpt>
      <trkpt lat="59.304589336382" lon="17.981267370783">
        <ele>0</ele>
        <time>2014-04-04T18:22:31Z</time>
      </trkpt>
      <trkpt lat="59.304574919514" lon="17.98090552416">
        <ele>0</ele>
        <time>2014-04-04T18:22:35Z</time>
      </trkpt>
      <trkpt lat="59.304562095207" lon="17.980729671898">
        <ele>0</ele>
        <time>2014-04-04T18:22:37Z</time>
      </trkpt>
      <trkpt lat="59.30455178547" lon="17.980652726056">
        <ele>0</ele>
        <time>2014-04-04T18:22:38Z</time>
      </trkpt>
      <trkpt lat="59.304544157941" lon="17.980567817409">
        <ele>0</ele>
        <time>2014-04-04T18:22:39Z</time>
      </trkpt>
      <trkpt lat="59.304539799353" lon="17.980492883223">
        <ele>0</ele>
        <time>2014-04-04T18:22:40Z</time>
      </trkpt>
      <trkpt lat="59.304541224276" lon="17.980417446123">
        <ele>0</ele>
        <time>2014-04-04T18:22:41Z</time>
      </trkpt>
      <trkpt lat="59.304532590919" lon="17.980204629682">
        <ele>0</ele>
        <time>2014-04-04T18:22:44Z</time>
      </trkpt>
      <trkpt lat="59.30452747796" lon="17.980131958609">
        <ele>0</ele>
        <time>2014-04-04T18:22:45Z</time>
      </trkpt>
      <trkpt lat="59.304528148512" lon="17.980056353871">
        <ele>0</ele>
        <time>2014-04-04T18:22:46Z</time>
      </trkpt>
      <trkpt lat="59.304531752729" lon="17.979980078581">
        <ele>0</ele>
        <time>2014-04-04T18:22:47Z</time>
      </trkpt>
      <trkpt lat="59.304512139083" lon="17.97968595771">
        <ele>0</ele>
        <time>2014-04-04T18:22:51Z</time>
      </trkpt>
      <trkpt lat="59.304502835174" lon="17.979400805472">
        <ele>0</ele>
        <time>2014-04-04T18:22:55Z</time>
      </trkpt>
      <trkpt lat="59.304500152966" lon="17.979334420824">
        <ele>0</ele>
        <time>2014-04-04T18:22:56Z</time>
      </trkpt>
      <trkpt lat="59.304496884025" lon="17.979267449443">
        <ele>0</ele>
        <time>2014-04-04T18:22:57Z</time>
      </trkpt>
      <trkpt lat="59.304495207645" lon="17.979202741175">
        <ele>0</ele>
        <time>2014-04-04T18:22:58Z</time>
      </trkpt>
      <trkpt lat="59.304496213473" lon="17.979136775622">
        <ele>0</ele>
        <time>2014-04-04T18:22:59Z</time>
      </trkpt>
      <trkpt lat="59.304492860713" lon="17.978928820683">
        <ele>0</ele>
        <time>2014-04-04T18:23:02Z</time>
      </trkpt>
      <trkpt lat="59.30445120267" lon="17.978547276595">
        <ele>0</ele>
        <time>2014-04-04T18:23:08Z</time>
      </trkpt>
      <trkpt lat="59.30444198258" lon="17.978482400689">
        <ele>0</ele>
        <time>2014-04-04T18:23:09Z</time>
      </trkpt>
      <trkpt lat="59.304434019775" lon="17.978416854231">
        <ele>0</ele>
        <time>2014-04-04T18:23:10Z</time>
      </trkpt>
      <trkpt lat="59.304424715866" lon="17.978349212298">
        <ele>0</ele>
        <time>2014-04-04T18:23:11Z</time>
      </trkpt>
      <trkpt lat="59.304413651758" lon="17.978280396899">
        <ele>0</ele>
        <time>2014-04-04T18:23:12Z</time>
      </trkpt>
      <trkpt lat="59.304383476918" lon="17.978144777757">
        <ele>0</ele>
        <time>2014-04-04T18:23:14Z</time>
      </trkpt>
      <trkpt lat="59.304261017359" lon="17.977726353309">
        <ele>0</ele>
        <time>2014-04-04T18:23:21Z</time>
      </trkpt>
      <trkpt lat="59.304241152256" lon="17.977670278398">
        <ele>0.2</ele>
        <time>2014-04-04T18:23:22Z</time>
      </trkpt>
      <trkpt lat="59.304221370972" lon="17.977611521279">
        <ele>0.6</ele>
        <time>2014-04-04T18:23:23Z</time>
      </trkpt>
      <trkpt lat="59.304199997127" lon="17.977558966766">
        <ele>1.2</ele>
        <time>2014-04-04T18:23:24Z</time>
      </trkpt>
      <trkpt lat="59.304175605798" lon="17.977517057266">
        <ele>1.6</ele>
        <time>2014-04-04T18:23:25Z</time>
      </trkpt>
      <trkpt lat="59.304150376279" lon="17.977440362881">
        <ele>1.6</ele>
        <time>2014-04-04T18:23:27Z</time>
      </trkpt>
      <trkpt lat="59.304150124822" lon="17.977343887212">
        <ele>2</ele>
        <time>2014-04-04T18:23:29Z</time>
      </trkpt>
      <trkpt lat="59.304154148134" lon="17.977275826184">
        <ele>2.4</ele>
        <time>2014-04-04T18:23:30Z</time>
      </trkpt>
      <trkpt lat="59.304148448442" lon="17.977199467075">
        <ele>2.8</ele>
        <time>2014-04-04T18:23:31Z</time>
      </trkpt>
      <trkpt lat="59.304132355194" lon="17.977128304744">
        <ele>3.2</ele>
        <time>2014-04-04T18:23:32Z</time>
      </trkpt>
      <trkpt lat="59.304105281657" lon="17.977062758286">
        <ele>3.6</ele>
        <time>2014-04-04T18:23:33Z</time>
      </trkpt>
      <trkpt lat="59.304035711887" lon="17.976952787758">
        <ele>3.6</ele>
        <time>2014-04-04T18:23:35Z</time>
      </trkpt>
      <trkpt lat="59.303937559838" lon="17.976704096785">
        <ele>3.6</ele>
        <time>2014-04-04T18:23:38Z</time>
      </trkpt>
      <trkpt lat="59.303910402482" lon="17.976608040211">
        <ele>3.6</ele>
        <time>2014-04-04T18:23:39Z</time>
      </trkpt>
      <trkpt lat="59.303882826031" lon="17.976508882334">
        <ele>3.2</ele>
        <time>2014-04-04T18:23:40Z</time>
      </trkpt>
      <trkpt lat="59.303855836313" lon="17.97640779662">
        <ele>2.8</ele>
        <time>2014-04-04T18:23:41Z</time>
      </trkpt>
      <trkpt lat="59.303829600966" lon="17.976306040354">
        <ele>2.4</ele>
        <time>2014-04-04T18:23:42Z</time>
      </trkpt>
      <trkpt lat="59.303803617076" lon="17.976204787002">
        <ele>2</ele>
        <time>2014-04-04T18:23:43Z</time>
      </trkpt>
      <trkpt lat="59.303778722833" lon="17.97609850451">
        <ele>1.6</ele>
        <time>2014-04-04T18:23:44Z</time>
      </trkpt>
      <trkpt lat="59.303728515252" lon="17.975900859308">
        <ele>1.6</ele>
        <time>2014-04-04T18:23:46Z</time>
      </trkpt>
      <trkpt lat="59.30358283783" lon="17.975202982314">
        <ele>1.6</ele>
        <time>2014-04-04T18:23:53Z</time>
      </trkpt>
      <trkpt lat="59.303458701891" lon="17.974622116644">
        <ele>1.6</ele>
        <time>2014-04-04T18:23:59Z</time>
      </trkpt>
      <trkpt lat="59.30332048436" lon="17.974234956683">
        <ele>1.6</ele>
        <time>2014-04-04T18:24:04Z</time>
      </trkpt>
      <trkpt lat="59.303285196561" lon="17.974166392741">
        <ele>1.6</ele>
        <time>2014-04-04T18:24:05Z</time>
      </trkpt>
      <trkpt lat="59.303211771117" lon="17.974033623445">
        <ele>2</ele>
        <time>2014-04-04T18:24:07Z</time>
      </trkpt>
      <trkpt lat="59.303170867445" lon="17.973973860498">
        <ele>2.4</ele>
        <time>2014-04-04T18:24:08Z</time>
      </trkpt>
      <trkpt lat="59.303129041764" lon="17.973911918257">
        <ele>2.8</ele>
        <time>2014-04-04T18:24:09Z</time>
      </trkpt>
      <trkpt lat="59.303088138092" lon="17.973842599944">
        <ele>3.2</ele>
        <time>2014-04-04T18:24:10Z</time>
      </trkpt>
      <trkpt lat="59.303044468393" lon="17.973770264147">
        <ele>3.6</ele>
        <time>2014-04-04T18:24:11Z</time>
      </trkpt>
      <trkpt lat="59.302853780168" lon="17.973429959007">
        <ele>3.6</ele>
        <time>2014-04-04T18:24:16Z</time>
      </trkpt>
      <trkpt lat="59.302816648351" lon="17.973363993454">
        <ele>3.6</ele>
        <time>2014-04-04T18:24:17Z</time>
      </trkpt>
      <trkpt lat="59.302606514118" lon="17.972972474905">
        <ele>4.2</ele>
        <time>2014-04-04T18:24:23Z</time>
      </trkpt>
      <trkpt lat="59.302571310138" lon="17.9729058388">
        <ele>4.6</ele>
        <time>2014-04-04T18:24:24Z</time>
      </trkpt>
      <trkpt lat="59.302536273796" lon="17.972838448324">
        <ele>5</ele>
        <time>2014-04-04T18:24:25Z</time>
      </trkpt>
      <trkpt lat="59.302500566902" lon="17.972772734228">
        <ele>5.8</ele>
        <time>2014-04-04T18:24:26Z</time>
      </trkpt>
      <trkpt lat="59.30224508659" lon="17.972301671448">
        <ele>5.8</ele>
        <time>2014-04-04T18:24:33Z</time>
      </trkpt>
      <trkpt lat="59.301985918242" lon="17.971804205683">
        <ele>5.8</ele>
        <time>2014-04-04T18:24:40Z</time>
      </trkpt>
      <trkpt lat="59.301847365435" lon="17.971503966025">
        <ele>6.2</ele>
        <time>2014-04-04T18:24:44Z</time>
      </trkpt>
      <trkpt lat="59.301815514215" lon="17.971418805921">
        <ele>6.6</ele>
        <time>2014-04-04T18:24:45Z</time>
      </trkpt>
      <trkpt lat="59.301783998271" lon="17.971339010233">
        <ele>7.2</ele>
        <time>2014-04-04T18:24:46Z</time>
      </trkpt>
      <trkpt lat="59.301753991069" lon="17.971250832645">
        <ele>7.6</ele>
        <time>2014-04-04T18:24:47Z</time>
      </trkpt>
      <trkpt lat="59.301724738238" lon="17.97115569808">
        <ele>8</ele>
        <time>2014-04-04T18:24:48Z</time>
      </trkpt>
      <trkpt lat="59.301653408269" lon="17.97086987529">
        <ele>8</ele>
        <time>2014-04-04T18:24:51Z</time>
      </trkpt>
      <trkpt lat="59.301497840205" lon="17.970168477898">
        <ele>8</ele>
        <time>2014-04-04T18:24:58Z</time>
      </trkpt>
      <trkpt lat="59.301377476121" lon="17.969654918885">
        <ele>8</ele>
        <time>2014-04-04T18:25:03Z</time>
      </trkpt>
      <trkpt lat="59.301349229118" lon="17.969556850655">
        <ele>8</ele>
        <time>2014-04-04T18:25:04Z</time>
      </trkpt>
      <trkpt lat="59.301237666029" lon="17.969091487567">
        <ele>8</ele>
        <time>2014-04-04T18:25:09Z</time>
      </trkpt>
      <trkpt lat="59.30121914203" lon="17.96899652064">
        <ele>8</ele>
        <time>2014-04-04T18:25:10Z</time>
      </trkpt>
      <trkpt lat="59.301134065745" lon="17.968629225782">
        <ele>8</ele>
        <time>2014-04-04T18:25:14Z</time>
      </trkpt>
      <trkpt lat="59.301097185385" lon="17.968445410715">
        <ele>8</ele>
        <time>2014-04-04T18:25:16Z</time>
      </trkpt>
      <trkpt lat="59.300951507963" lon="17.967829005789">
        <ele>8</ele>
        <time>2014-04-04T18:25:23Z</time>
      </trkpt>
      <trkpt lat="59.300915046698" lon="17.967657260658">
        <ele>8</ele>
        <time>2014-04-04T18:25:25Z</time>
      </trkpt>
      <trkpt lat="59.300895181595" lon="17.967572938744">
        <ele>8.4</ele>
        <time>2014-04-04T18:25:26Z</time>
      </trkpt>
      <trkpt lat="59.300874981216" lon="17.967488197735">
        <ele>8.8</ele>
        <time>2014-04-04T18:25:27Z</time>
      </trkpt>
      <trkpt lat="59.300855283751" lon="17.967397673215">
        <ele>9.2</ele>
        <time>2014-04-04T18:25:28Z</time>
      </trkpt>
      <trkpt lat="59.300843213815" lon="17.967303460659">
        <ele>9.6</ele>
        <time>2014-04-04T18:25:29Z</time>
      </trkpt>
      <trkpt lat="59.300833490811" lon="17.967199776556">
        <ele>10</ele>
        <time>2014-04-04T18:25:30Z</time>
      </trkpt>
      <trkpt lat="59.300796945727" lon="17.966806833084">
        <ele>9.6</ele>
        <time>2014-04-04T18:25:34Z</time>
      </trkpt>
      <trkpt lat="59.300784372877" lon="17.966712033795">
        <ele>9</ele>
        <time>2014-04-04T18:25:35Z</time>
      </trkpt>
      <trkpt lat="59.300772051484" lon="17.966616480135">
        <ele>8.4</ele>
        <time>2014-04-04T18:25:36Z</time>
      </trkpt>
      <trkpt lat="59.300761322652" lon="17.966515645878">
        <ele>7.8</ele>
        <time>2014-04-04T18:25:37Z</time>
      </trkpt>
      <trkpt lat="59.3007522702" lon="17.966423696435">
        <ele>8.4</ele>
        <time>2014-04-04T18:25:38Z</time>
      </trkpt>
      <trkpt lat="59.300742714834" lon="17.966325963481">
        <ele>9</ele>
        <time>2014-04-04T18:25:39Z</time>
      </trkpt>
      <trkpt lat="59.300733997658" lon="17.966228398165">
        <ele>9.6</ele>
        <time>2014-04-04T18:25:40Z</time>
      </trkpt>
      <trkpt lat="59.300722011541" lon="17.966128653555">
        <ele>10.8</ele>
        <time>2014-04-04T18:25:41Z</time>
      </trkpt>
      <trkpt lat="59.30071371346" lon="17.966033099895">
        <ele>10.8</ele>
        <time>2014-04-04T18:25:42Z</time>
      </trkpt>
      <trkpt lat="59.300704828646" lon="17.965936121312">
        <ele>10.8</ele>
        <time>2014-04-04T18:25:43Z</time>
      </trkpt>
      <trkpt lat="59.300662248594" lon="17.965549799541">
        <ele>11.2</ele>
        <time>2014-04-04T18:25:47Z</time>
      </trkpt>
      <trkpt lat="59.300650933029" lon="17.965453156234">
        <ele>11.6</ele>
        <time>2014-04-04T18:25:48Z</time>
      </trkpt>
      <trkpt lat="59.300641712939" lon="17.965360620058">
        <ele>12</ele>
        <time>2014-04-04T18:25:49Z</time>
      </trkpt>
      <trkpt lat="59.300633833953" lon="17.965266072226">
        <ele>12.4</ele>
        <time>2014-04-04T18:25:50Z</time>
      </trkpt>
      <trkpt lat="59.30062905627" lon="17.965167836358">
        <ele>12.8</ele>
        <time>2014-04-04T18:25:51Z</time>
      </trkpt>
      <trkpt lat="59.300604581122" lon="17.964731055549">
        <ele>12.8</ele>
        <time>2014-04-04T18:25:55Z</time>
      </trkpt>
      <trkpt lat="59.300549260582" lon="17.963993867444">
        <ele>12.8</ele>
        <time>2014-04-04T18:26:01Z</time>
      </trkpt>
      <trkpt lat="59.30048991673" lon="17.9630068149">
        <ele>12.8</ele>
        <time>2014-04-04T18:26:09Z</time>
      </trkpt>
      <trkpt lat="59.300461166813" lon="17.962339280384">
        <ele>12.8</ele>
        <time>2014-04-04T18:26:15Z</time>
      </trkpt>
      <trkpt lat="59.300461921184" lon="17.961581388986">
        <ele>12.4</ele>
        <time>2014-04-04T18:26:21Z</time>
      </trkpt>
      <trkpt lat="59.300467034143" lon="17.96145197245">
        <ele>12</ele>
        <time>2014-04-04T18:26:22Z</time>
      </trkpt>
      <trkpt lat="59.300473823482" lon="17.961323310285">
        <ele>11.6</ele>
        <time>2014-04-04T18:26:23Z</time>
      </trkpt>
      <trkpt lat="59.300488575626" lon="17.961186098582">
        <ele>11.2</ele>
        <time>2014-04-04T18:26:24Z</time>
      </trkpt>
      <trkpt lat="59.300505590883" lon="17.961053496924">
        <ele>10.8</ele>
        <time>2014-04-04T18:26:25Z</time>
      </trkpt>
      <trkpt lat="59.300546494555" lon="17.960789969988">
        <ele>10.8</ele>
        <time>2014-04-04T18:26:27Z</time>
      </trkpt>
      <trkpt lat="59.300728130328" lon="17.959905176624">
        <ele>10.8</ele>
        <time>2014-04-04T18:26:34Z</time>
      </trkpt>
      <trkpt lat="59.3008444711" lon="17.959420032252">
        <ele>10.4</ele>
        <time>2014-04-04T18:26:38Z</time>
      </trkpt>
      <trkpt lat="59.300874813578" lon="17.959296231589">
        <ele>10</ele>
        <time>2014-04-04T18:26:39Z</time>
      </trkpt>
      <trkpt lat="59.300901216563" lon="17.959177879161">
        <ele>9.4</ele>
        <time>2014-04-04T18:26:40Z</time>
      </trkpt>
      <trkpt lat="59.300925943168" lon="17.959064472054">
        <ele>9</ele>
        <time>2014-04-04T18:26:41Z</time>
      </trkpt>
      <trkpt lat="59.300950502135" lon="17.95895165168">
        <ele>8.6</ele>
        <time>2014-04-04T18:26:42Z</time>
      </trkpt>
      <trkpt lat="59.301037590076" lon="17.958524426237">
        <ele>8.6</ele>
        <time>2014-04-04T18:26:46Z</time>
      </trkpt>
      <trkpt lat="59.301075560083" lon="17.958221252914">
        <ele>9</ele>
        <time>2014-04-04T18:26:49Z</time>
      </trkpt>
      <trkpt lat="59.301079331938" lon="17.9581201672">
        <ele>9.4</ele>
        <time>2014-04-04T18:26:50Z</time>
      </trkpt>
      <trkpt lat="59.301080756861" lon="17.958021931332">
        <ele>10</ele>
        <time>2014-04-04T18:26:51Z</time>
      </trkpt>
      <trkpt lat="59.301082684698" lon="17.957918079591">
        <ele>10.4</ele>
        <time>2014-04-04T18:26:52Z</time>
      </trkpt>
      <trkpt lat="59.301086205096" lon="17.957815736592">
        <ele>10.8</ele>
        <time>2014-04-04T18:26:53Z</time>
      </trkpt>
      <trkpt lat="59.301086624191" lon="17.95760719492">
        <ele>10.8</ele>
        <time>2014-04-04T18:26:55Z</time>
      </trkpt>
      <trkpt lat="59.301071872047" lon="17.957393372651">
        <ele>10.8</ele>
        <time>2014-04-04T18:26:57Z</time>
      </trkpt>
      <trkpt lat="59.301060975577" lon="17.957227327212">
        <ele>10.8</ele>
        <time>2014-04-04T18:26:59Z</time>
      </trkpt>
      <trkpt lat="59.301041361931" lon="17.957173263957">
        <ele>10.8</ele>
        <time>2014-04-04T18:27:00Z</time>
      </trkpt>
      <trkpt lat="59.300920997847" lon="17.957140993642">
        <ele>10.8</ele>
        <time>2014-04-04T18:27:03Z</time>
      </trkpt>
      <trkpt lat="59.30087380775" lon="17.957154320863">
        <ele>10.8</ele>
        <time>2014-04-04T18:27:04Z</time>
      </trkpt>
      <trkpt lat="59.300825444187" lon="17.957155997243">
        <ele>10.8</ele>
        <time>2014-04-04T18:27:05Z</time>
      </trkpt>
      <trkpt lat="59.300678090385" lon="17.957133366113">
        <ele>10.8</ele>
        <time>2014-04-04T18:27:08Z</time>
      </trkpt>
      <trkpt lat="59.300355554873" lon="17.957102436902">
        <ele>10.8</ele>
        <time>2014-04-04T18:27:14Z</time>
      </trkpt>
      <trkpt lat="59.300151958522" lon="17.957081565971">
        <ele>10.8</ele>
        <time>2014-04-04T18:27:18Z</time>
      </trkpt>
      <trkpt lat="59.300053471197" lon="17.957036219892">
        <ele>10.8</ele>
        <time>2014-04-04T18:27:20Z</time>
      </trkpt>
      <trkpt lat="59.299896645848" lon="17.956988526881">
        <ele>11.2</ele>
        <time>2014-04-04T18:27:23Z</time>
      </trkpt>
      <trkpt lat="59.299848114647" lon="17.956972014538">
        <ele>11.8</ele>
        <time>2014-04-04T18:27:24Z</time>
      </trkpt>
      <trkpt lat="59.299797236514" lon="17.956954580186">
        <ele>12.2</ele>
        <time>2014-04-04T18:27:25Z</time>
      </trkpt>
      <trkpt lat="59.299749292046" lon="17.95693496654">
        <ele>12.6</ele>
        <time>2014-04-04T18:27:26Z</time>
      </trkpt>
      <trkpt lat="59.299697324266" lon="17.95691820274">
        <ele>13</ele>
        <time>2014-04-04T18:27:27Z</time>
      </trkpt>
      <trkpt lat="59.299595987095" lon="17.956877801982">
        <ele>13</ele>
        <time>2014-04-04T18:27:29Z</time>
      </trkpt>
      <trkpt lat="59.299396749332" lon="17.956773866422">
        <ele>13</ele>
        <time>2014-04-04T18:27:33Z</time>
      </trkpt>
      <trkpt lat="59.299342183163" lon="17.956758611364">
        <ele>13</ele>
        <time>2014-04-04T18:27:34Z</time>
      </trkpt>
      <trkpt lat="59.299114866035" lon="17.956683174264">
        <ele>13</ele>
        <time>2014-04-04T18:27:38Z</time>
      </trkpt>
      <trkpt lat="59.299001542747" lon="17.956643946972">
        <ele>13</ele>
        <time>2014-04-04T18:27:40Z</time>
      </trkpt>
      <trkpt lat="59.29882527139" lon="17.956588458794">
        <ele>13</ele>
        <time>2014-04-04T18:27:43Z</time>
      </trkpt>
      <trkpt lat="59.298711193731" lon="17.956551578434">
        <ele>13</ele>
        <time>2014-04-04T18:27:45Z</time>
      </trkpt>
      <trkpt lat="59.298533162175" lon="17.956531629512">
        <ele>13</ele>
        <time>2014-04-04T18:27:48Z</time>
      </trkpt>
      <trkpt lat="59.29842042562" lon="17.956544956733">
        <ele>13</ele>
        <time>2014-04-04T18:27:50Z</time>
      </trkpt>
      <trkpt lat="59.298362674329" lon="17.956563313094">
        <ele>13</ele>
        <time>2014-04-04T18:27:51Z</time>
      </trkpt>
      <trkpt lat="59.298217080726" lon="17.956655597813">
        <ele>13.4</ele>
        <time>2014-04-04T18:27:54Z</time>
      </trkpt>
      <trkpt lat="59.298169387715" lon="17.956632044674">
        <ele>13.8</ele>
        <time>2014-04-04T18:27:55Z</time>
      </trkpt>
      <trkpt lat="59.298118174306" lon="17.956607988621">
        <ele>14.4</ele>
        <time>2014-04-04T18:27:56Z</time>
      </trkpt>
      <trkpt lat="59.29806922401" lon="17.956594912857">
        <ele>14.8</ele>
        <time>2014-04-04T18:27:57Z</time>
      </trkpt>
      <trkpt lat="59.298020692809" lon="17.956577813781">
        <ele>15.2</ele>
        <time>2014-04-04T18:27:58Z</time>
      </trkpt>
      <trkpt lat="59.29790829153" lon="17.956532970616">
        <ele>15.2</ele>
        <time>2014-04-04T18:28:01Z</time>
      </trkpt>
      <trkpt lat="59.297874847749" lon="17.956517128825">
        <ele>15.2</ele>
        <time>2014-04-04T18:28:02Z</time>
      </trkpt>
      <trkpt lat="59.29778340122" lon="17.956479410275">
        <ele>15.2</ele>
        <time>2014-04-04T18:28:04Z</time>
      </trkpt>
      <trkpt lat="59.297671754312" lon="17.956436662585">
        <ele>15.2</ele>
        <time>2014-04-04T18:28:06Z</time>
      </trkpt>
      <trkpt lat="59.297330862439" lon="17.956307413687">
        <ele>15.2</ele>
        <time>2014-04-04T18:28:12Z</time>
      </trkpt>
      <trkpt lat="59.297224160852" lon="17.956265085092">
        <ele>15.6</ele>
        <time>2014-04-04T18:28:14Z</time>
      </trkpt>
      <trkpt lat="59.297168840312" lon="17.956237760098">
        <ele>16</ele>
        <time>2014-04-04T18:28:15Z</time>
      </trkpt>
      <trkpt lat="59.297118465093" lon="17.956210016009">
        <ele>16.4</ele>
        <time>2014-04-04T18:28:16Z</time>
      </trkpt>
      <trkpt lat="59.297067419322" lon="17.956188558345">
        <ele>16.8</ele>
        <time>2014-04-04T18:28:17Z</time>
      </trkpt>
      <trkpt lat="59.297013356067" lon="17.956170453441">
        <ele>17.2</ele>
        <time>2014-04-04T18:28:18Z</time>
      </trkpt>
      <trkpt lat="59.296912354172" lon="17.956134075995">
        <ele>17.2</ele>
        <time>2014-04-04T18:28:20Z</time>
      </trkpt>
      <trkpt lat="59.296562409847" lon="17.955971718592">
        <ele>17.2</ele>
        <time>2014-04-04T18:28:27Z</time>
      </trkpt>
      <trkpt lat="59.296141638467" lon="17.955783796394">
        <ele>17.2</ele>
        <time>2014-04-04T18:28:35Z</time>
      </trkpt>
      <trkpt lat="59.296031332663" lon="17.955735851926">
        <ele>17.2</ele>
        <time>2014-04-04T18:28:37Z</time>
      </trkpt>
      <trkpt lat="59.295729165168" lon="17.955579194215">
        <ele>17.2</ele>
        <time>2014-04-04T18:28:43Z</time>
      </trkpt>
      <trkpt lat="59.295423561094" lon="17.955361851548">
        <ele>17.2</ele>
        <time>2014-04-04T18:28:49Z</time>
      </trkpt>
      <trkpt lat="59.295323648846" lon="17.955285073344">
        <ele>17.2</ele>
        <time>2014-04-04T18:28:51Z</time>
      </trkpt>
      <trkpt lat="59.295191047188" lon="17.955156914093">
        <ele>17.2</ele>
        <time>2014-04-04T18:28:54Z</time>
      </trkpt>
      <trkpt lat="59.294959120015" lon="17.954954994122">
        <ele>17.2</ele>
        <time>2014-04-04T18:28:59Z</time>
      </trkpt>
      <trkpt lat="59.29470137659" lon="17.954717451076">
        <ele>17.2</ele>
        <time>2014-04-04T18:29:04Z</time>
      </trkpt>
      <trkpt lat="59.29464857062" lon="17.954667327314">
        <ele>17.2</ele>
        <time>2014-04-04T18:29:05Z</time>
      </trkpt>
      <trkpt lat="59.294342798908" lon="17.954339511205">
        <ele>17.2</ele>
        <time>2014-04-04T18:29:11Z</time>
      </trkpt>
      <trkpt lat="59.294061502344" lon="17.954058214641">
        <ele>17.2</ele>
        <time>2014-04-04T18:29:17Z</time>
      </trkpt>
      <trkpt lat="59.293750533854" lon="17.953797286094">
        <ele>17.2</ele>
        <time>2014-04-04T18:29:23Z</time>
      </trkpt>
      <trkpt lat="59.293397572045" lon="17.953488161622">
        <ele>17.2</ele>
        <time>2014-04-04T18:29:30Z</time>
      </trkpt>
      <trkpt lat="59.29301493831" lon="17.953102175127">
        <ele>17.2</ele>
        <time>2014-04-04T18:29:38Z</time>
      </trkpt>
      <trkpt lat="59.292798266195" lon="17.95282699735">
        <ele>17.2</ele>
        <time>2014-04-04T18:29:43Z</time>
      </trkpt>
      <trkpt lat="59.292462822557" lon="17.95245567918">
        <ele>17.2</ele>
        <time>2014-04-04T18:29:50Z</time>
      </trkpt>
      <trkpt lat="59.292074070035" lon="17.951999368544">
        <ele>17.2</ele>
        <time>2014-04-04T18:29:58Z</time>
      </trkpt>
      <trkpt lat="59.29202419773" lon="17.951931223697">
        <ele>16.8</ele>
        <time>2014-04-04T18:29:59Z</time>
      </trkpt>
      <trkpt lat="59.291971559398" lon="17.951869365275">
        <ele>16.4</ele>
        <time>2014-04-04T18:30:00Z</time>
      </trkpt>
      <trkpt lat="59.291918753428" lon="17.951809937604">
        <ele>16</ele>
        <time>2014-04-04T18:30:01Z</time>
      </trkpt>
      <trkpt lat="59.291864438716" lon="17.951753527417">
        <ele>15.4</ele>
        <time>2014-04-04T18:30:02Z</time>
      </trkpt>
      <trkpt lat="59.291812051841" lon="17.951696614316">
        <ele>15</ele>
        <time>2014-04-04T18:30:03Z</time>
      </trkpt>
      <trkpt lat="59.291761425165" lon="17.951643053975">
        <ele>15</ele>
        <time>2014-04-04T18:30:04Z</time>
      </trkpt>
      <trkpt lat="59.291394214126" lon="17.951214906523">
        <ele>15</ele>
        <time>2014-04-04T18:30:12Z</time>
      </trkpt>
      <trkpt lat="59.291106882594" lon="17.950883150921">
        <ele>14.6</ele>
        <time>2014-04-04T18:30:18Z</time>
      </trkpt>
      <trkpt lat="59.291052903158" lon="17.950821376318">
        <ele>14</ele>
        <time>2014-04-04T18:30:19Z</time>
      </trkpt>
      <trkpt lat="59.291001438292" lon="17.950759517896">
        <ele>13.6</ele>
        <time>2014-04-04T18:30:20Z</time>
      </trkpt>
      <trkpt lat="59.290949386693" lon="17.950702353338">
        <ele>13</ele>
        <time>2014-04-04T18:30:21Z</time>
      </trkpt>
      <trkpt lat="59.290896161628" lon="17.9506435124">
        <ele>12.6</ele>
        <time>2014-04-04T18:30:22Z</time>
      </trkpt>
      <trkpt lat="59.290696337132" lon="17.950404712069">
        <ele>12.6</ele>
        <time>2014-04-04T18:30:26Z</time>
      </trkpt>
      <trkpt lat="59.290417974233" lon="17.950088714439">
        <ele>12.6</ele>
        <time>2014-04-04T18:30:32Z</time>
      </trkpt>
      <trkpt lat="59.29007792055" lon="17.949720413753">
        <ele>12.6</ele>
        <time>2014-04-04T18:30:39Z</time>
      </trkpt>
      <trkpt lat="59.289994520645" lon="17.949611197596">
        <ele>12.6</ele>
        <time>2014-04-04T18:30:41Z</time>
      </trkpt>
      <trkpt lat="59.289887902877" lon="17.949415983145">
        <ele>12.6</ele>
        <time>2014-04-04T18:30:44Z</time>
      </trkpt>
      <trkpt lat="59.289797545995" lon="17.949229653508">
        <ele>12.6</ele>
        <time>2014-04-04T18:30:47Z</time>
      </trkpt>
      <trkpt lat="59.289747003138" lon="17.949055896721">
        <ele>12.6</ele>
        <time>2014-04-04T18:30:49Z</time>
      </trkpt>
      <trkpt lat="59.289709619864" lon="17.948895467155">
        <ele>12.6</ele>
        <time>2014-04-04T18:30:51Z</time>
      </trkpt>
      <trkpt lat="59.289687659286" lon="17.948829836878">
        <ele>12.6</ele>
        <time>2014-04-04T18:30:52Z</time>
      </trkpt>
      <trkpt lat="59.289652622944" lon="17.948805026454">
        <ele>12.6</ele>
        <time>2014-04-04T18:30:53Z</time>
      </trkpt>
      <trkpt lat="59.289493283025" lon="17.948832519086">
        <ele>12.6</ele>
        <time>2014-04-04T18:30:56Z</time>
      </trkpt>
      <trkpt lat="59.289423461798" lon="17.948850456352">
        <ele>12.6</ele>
        <time>2014-04-04T18:30:57Z</time>
      </trkpt>
      <trkpt lat="59.289363698851" lon="17.94890259177">
        <ele>12</ele>
        <time>2014-04-04T18:30:58Z</time>
      </trkpt>
      <trkpt lat="59.2893193586" lon="17.948978699422">
        <ele>11.6</ele>
        <time>2014-04-04T18:30:59Z</time>
      </trkpt>
      <trkpt lat="59.289284573715" lon="17.949057321644">
        <ele>11</ele>
        <time>2014-04-04T18:31:00Z</time>
      </trkpt>
      <trkpt lat="59.289251968124" lon="17.949122951921">
        <ele>10.4</ele>
        <time>2014-04-04T18:31:01Z</time>
      </trkpt>
      <trkpt lat="59.289217350877" lon="17.949176847538">
        <ele>10</ele>
        <time>2014-04-04T18:31:02Z</time>
      </trkpt>
      <trkpt lat="59.289180135241" lon="17.94923702958">
        <ele>10</ele>
        <time>2014-04-04T18:31:03Z</time>
      </trkpt>
      <trkpt lat="59.289097070612" lon="17.94949267753">
        <ele>10</ele>
        <time>2014-04-04T18:31:06Z</time>
      </trkpt>
      <trkpt lat="59.289082486106" lon="17.949578592005">
        <ele>10</ele>
        <time>2014-04-04T18:31:07Z</time>
      </trkpt>
      <trkpt lat="59.28906287246" lon="17.949745727091">
        <ele>10</ele>
        <time>2014-04-04T18:31:09Z</time>
      </trkpt>
      <trkpt lat="59.28903605038" lon="17.950062730549">
        <ele>10</ele>
        <time>2014-04-04T18:31:12Z</time>
      </trkpt>
      <trkpt lat="59.289001097857" lon="17.950567740024">
        <ele>10</ele>
        <time>2014-04-04T18:31:17Z</time>
      </trkpt>
      <trkpt lat="59.288997912735" lon="17.950676285629">
        <ele>10</ele>
        <time>2014-04-04T18:31:18Z</time>
      </trkpt>
      <trkpt lat="59.288989279378" lon="17.950787764899">
        <ele>10</ele>
        <time>2014-04-04T18:31:19Z</time>
      </trkpt>
      <trkpt lat="59.288969581913" lon="17.951221695862">
        <ele>10</ele>
        <time>2014-04-04T18:31:23Z</time>
      </trkpt>
      <trkpt lat="59.288968576085" lon="17.951431075724">
        <ele>10</ele>
        <time>2014-04-04T18:31:25Z</time>
      </trkpt>
      <trkpt lat="59.288977963813" lon="17.951851595647">
        <ele>10</ele>
        <time>2014-04-04T18:31:29Z</time>
      </trkpt>
      <trkpt lat="59.288987854455" lon="17.951959386881">
        <ele>10</ele>
        <time>2014-04-04T18:31:30Z</time>
      </trkpt>
      <trkpt lat="59.289040660425" lon="17.952251915191">
        <ele>10</ele>
        <time>2014-04-04T18:31:33Z</time>
      </trkpt>
      <trkpt lat="59.289140069759" lon="17.952523656389">
        <ele>10</ele>
        <time>2014-04-04T18:31:37Z</time>
      </trkpt>
      <trkpt lat="59.289173764997" lon="17.95258140768">
        <ele>10.4</ele>
        <time>2014-04-04T18:31:38Z</time>
      </trkpt>
      <trkpt lat="59.289206538226" lon="17.952643852835">
        <ele>10.8</ele>
        <time>2014-04-04T18:31:39Z</time>
      </trkpt>
      <trkpt lat="59.289232857392" lon="17.952705711257">
        <ele>11.2</ele>
        <time>2014-04-04T18:31:40Z</time>
      </trkpt>
      <trkpt lat="59.289246184613" lon="17.952765390385">
        <ele>11.6</ele>
        <time>2014-04-04T18:31:41Z</time>
      </trkpt>
      <trkpt lat="59.289241993663" lon="17.952815597966">
        <ele>12.2</ele>
        <time>2014-04-04T18:31:42Z</time>
      </trkpt>
      <trkpt lat="59.289188265684" lon="17.952842420046">
        <ele>12.2</ele>
        <time>2014-04-04T18:31:45Z</time>
      </trkpt>
      <trkpt lat="59.289167059477" lon="17.952837390906">
        <ele>12.2</ele>
        <time>2014-04-04T18:31:46Z</time>
      </trkpt>
      <trkpt lat="59.289116768077" lon="17.952836133621">
        <ele>12.6</ele>
        <time>2014-04-04T18:31:48Z</time>
      </trkpt>
      <trkpt lat="59.289092125291" lon="17.952848287376">
        <ele>13</ele>
        <time>2014-04-04T18:31:49Z</time>
      </trkpt>
      <trkpt lat="59.289071505817" lon="17.952858680932">
        <ele>13.4</ele>
        <time>2014-04-04T18:31:50Z</time>
      </trkpt>
      <trkpt lat="59.289052227447" lon="17.952861782235">
        <ele>13.8</ele>
        <time>2014-04-04T18:31:51Z</time>
      </trkpt>
      <trkpt lat="59.289031272697" lon="17.952863961529">
        <ele>14.2</ele>
        <time>2014-04-04T18:31:52Z</time>
      </trkpt>
      <trkpt lat="59.288905208921" lon="17.952884664822">
        <ele>14.2</ele>
        <time>2014-04-04T18:31:57Z</time>
      </trkpt>
      <trkpt lat="59.288851900037" lon="17.952892292351">
        <ele>14.8</ele>
        <time>2014-04-04T18:31:59Z</time>
      </trkpt>
      <trkpt lat="59.288823736853" lon="17.952892040894">
        <ele>15.2</ele>
        <time>2014-04-04T18:32:00Z</time>
      </trkpt>
      <trkpt lat="59.288789873977" lon="17.952898914052">
        <ele>15.6</ele>
        <time>2014-04-04T18:32:01Z</time>
      </trkpt>
      <trkpt lat="59.288760537327" lon="17.952907798866">
        <ele>16</ele>
        <time>2014-04-04T18:32:02Z</time>
      </trkpt>
      <trkpt lat="59.28872759646" lon="17.952911235445">
        <ele>16.4</ele>
        <time>2014-04-04T18:32:03Z</time>
      </trkpt>
      <trkpt lat="59.28866221764" lon="17.952925568494">
        <ele>16.4</ele>
        <time>2014-04-04T18:32:05Z</time>
      </trkpt>
      <trkpt lat="59.288461471135" lon="17.952973093867">
        <ele>16.4</ele>
        <time>2014-04-04T18:32:10Z</time>
      </trkpt>
      <trkpt lat="59.288357619394" lon="17.953028833502">
        <ele>16.8</ele>
        <time>2014-04-04T18:32:13Z</time>
      </trkpt>
      <trkpt lat="59.288321828681" lon="17.953043585646">
        <ele>17.4</ele>
        <time>2014-04-04T18:32:14Z</time>
      </trkpt>
      <trkpt lat="59.288286205606" lon="17.953054565935">
        <ele>17.8</ele>
        <time>2014-04-04T18:32:15Z</time>
      </trkpt>
      <trkpt lat="59.288248570875" lon="17.953070323907">
        <ele>18.4</ele>
        <time>2014-04-04T18:32:16Z</time>
      </trkpt>
      <trkpt lat="59.288208170117" lon="17.953088428811">
        <ele>18.8</ele>
        <time>2014-04-04T18:32:17Z</time>
      </trkpt>
      <trkpt lat="59.288068108568" lon="17.953172750725">
        <ele>18.4</ele>
        <time>2014-04-04T18:32:20Z</time>
      </trkpt>
      <trkpt lat="59.288014464408" lon="17.953208038524">
        <ele>18</ele>
        <time>2014-04-04T18:32:21Z</time>
      </trkpt>
      <trkpt lat="59.287956377841" lon="17.953244332151">
        <ele>17.6</ele>
        <time>2014-04-04T18:32:22Z</time>
      </trkpt>
      <trkpt lat="59.28789946474" lon="17.953278614122">
        <ele>17.2</ele>
        <time>2014-04-04T18:32:23Z</time>
      </trkpt>
      <trkpt lat="59.287844814752" lon="17.953317087043">
        <ele>16.6</ele>
        <time>2014-04-04T18:32:24Z</time>
      </trkpt>
      <trkpt lat="59.287789158936" lon="17.953362097846">
        <ele>16.2</ele>
        <time>2014-04-04T18:32:25Z</time>
      </trkpt>
      <trkpt lat="59.287736436785" lon="17.953412556884">
        <ele>15.6</ele>
        <time>2014-04-04T18:32:26Z</time>
      </trkpt>
      <trkpt lat="59.287681954435" lon="17.953442480267">
        <ele>15</ele>
        <time>2014-04-04T18:32:27Z</time>
      </trkpt>
      <trkpt lat="59.287631495397" lon="17.953427392847">
        <ele>14.4</ele>
        <time>2014-04-04T18:32:28Z</time>
      </trkpt>
      <trkpt lat="59.287598805987" lon="17.953371737031">
        <ele>13.8</ele>
        <time>2014-04-04T18:32:29Z</time>
      </trkpt>
      <trkpt lat="59.287572905916" lon="17.95327710538">
        <ele>13.2</ele>
        <time>2014-04-04T18:32:30Z</time>
      </trkpt>
      <trkpt lat="59.287557231763" lon="17.953166631938">
        <ele>12.6</ele>
        <time>2014-04-04T18:32:31Z</time>
      </trkpt>
      <trkpt lat="59.287545916198" lon="17.953050039709">
        <ele>12.6</ele>
        <time>2014-04-04T18:32:32Z</time>
      </trkpt>
      <trkpt lat="59.287537785755" lon="17.95293931481">
        <ele>12.6</ele>
        <time>2014-04-04T18:32:33Z</time>
      </trkpt>
      <trkpt lat="59.287493445504" lon="17.952496415214">
        <ele>12.6</ele>
        <time>2014-04-04T18:32:37Z</time>
      </trkpt>
      <trkpt lat="59.287450613995" lon="17.952032896144">
        <ele>12.6</ele>
        <time>2014-04-04T18:32:41Z</time>
      </trkpt>
      <trkpt lat="59.287427647589" lon="17.951801639523">
        <ele>12.6</ele>
        <time>2014-04-04T18:32:43Z</time>
      </trkpt>
      <trkpt lat="59.287364364244" lon="17.951045508324">
        <ele>12.6</ele>
        <time>2014-04-04T18:32:49Z</time>
      </trkpt>
      <trkpt lat="59.287338799449" lon="17.950918773996">
        <ele>12.6</ele>
        <time>2014-04-04T18:32:50Z</time>
      </trkpt>
      <trkpt lat="59.287248610205" lon="17.950720206785">
        <ele>12.6</ele>
        <time>2014-04-04T18:32:52Z</time>
      </trkpt>
      <trkpt lat="59.287123468438" lon="17.950458020953">
        <ele>12.6</ele>
        <time>2014-04-04T18:32:55Z</time>
      </trkpt>
      <trkpt lat="59.287090443752" lon="17.95038702626">
        <ele>12.6</ele>
        <time>2014-04-04T18:32:56Z</time>
      </trkpt>
      <trkpt lat="59.286960524302" lon="17.950168677765">
        <ele>12.6</ele>
        <time>2014-04-04T18:32:59Z</time>
      </trkpt>
      <trkpt lat="59.286908053608" lon="17.950117464356">
        <ele>12.6</ele>
        <time>2014-04-04T18:33:00Z</time>
      </trkpt>
      <trkpt lat="59.28676120272" lon="17.950108411904">
        <ele>12.6</ele>
        <time>2014-04-04T18:33:03Z</time>
      </trkpt>
      <trkpt lat="59.286652573296" lon="17.950154344716">
        <ele>12.6</ele>
        <time>2014-04-04T18:33:05Z</time>
      </trkpt>
      <trkpt lat="59.286531119565" lon="17.950184435737">
        <ele>12.6</ele>
        <time>2014-04-04T18:33:07Z</time>
      </trkpt>
      <trkpt lat="59.286391812387" lon="17.950223914486">
        <ele>12.6</ele>
        <time>2014-04-04T18:33:09Z</time>
      </trkpt>
      <trkpt lat="59.286330792155" lon="17.950250652747">
        <ele>12.2</ele>
        <time>2014-04-04T18:33:10Z</time>
      </trkpt>
      <trkpt lat="59.286266251525" lon="17.950275966085">
        <ele>11.6</ele>
        <time>2014-04-04T18:33:11Z</time>
      </trkpt>
      <trkpt lat="59.286196430298" lon="17.950301949975">
        <ele>11.2</ele>
        <time>2014-04-04T18:33:12Z</time>
      </trkpt>
      <trkpt lat="59.286121915207" lon="17.950334304109">
        <ele>10.8</ele>
        <time>2014-04-04T18:33:13Z</time>
      </trkpt>
      <trkpt lat="59.286050249962" lon="17.950370681555">
        <ele>10.4</ele>
        <time>2014-04-04T18:33:14Z</time>
      </trkpt>
      <trkpt lat="59.285983613857" lon="17.950409825028">
        <ele>10.4</ele>
        <time>2014-04-04T18:33:15Z</time>
      </trkpt>
      <trkpt lat="59.285919827598" lon="17.950430109226">
        <ele>10.4</ele>
        <time>2014-04-04T18:33:16Z</time>
      </trkpt>
      <trkpt lat="59.285790997795" lon="17.950386774803">
        <ele>10.4</ele>
        <time>2014-04-04T18:33:18Z</time>
      </trkpt>
      <trkpt lat="59.285609948755" lon="17.950203211193">
        <ele>10.4</ele>
        <time>2014-04-04T18:33:21Z</time>
      </trkpt>
      <trkpt lat="59.285556556052" lon="17.950150824318">
        <ele>10.4</ele>
        <time>2014-04-04T18:33:22Z</time>
      </trkpt>
      <trkpt lat="59.28539411483" lon="17.949945132492">
        <ele>10.4</ele>
        <time>2014-04-04T18:33:25Z</time>
      </trkpt>
      <trkpt lat="59.285107956764" lon="17.949535676677">
        <ele>10.4</ele>
        <time>2014-04-04T18:33:31Z</time>
      </trkpt>
      <trkpt lat="59.28483839486" lon="17.949064110983">
        <ele>10.4</ele>
        <time>2014-04-04T18:33:37Z</time>
      </trkpt>
      <trkpt lat="59.28459531976" lon="17.948547450667">
        <ele>10.4</ele>
        <time>2014-04-04T18:33:43Z</time>
      </trkpt>
      <trkpt lat="59.2845584394" lon="17.948451980826">
        <ele>10.4</ele>
        <time>2014-04-04T18:33:44Z</time>
      </trkpt>
      <trkpt lat="59.284528935112" lon="17.948355672795">
        <ele>10.4</ele>
        <time>2014-04-04T18:33:45Z</time>
      </trkpt>
      <trkpt lat="59.284426927389" lon="17.947945797885">
        <ele>10.4</ele>
        <time>2014-04-04T18:33:49Z</time>
      </trkpt>
      <trkpt lat="59.284346628787" lon="17.947642037829">
        <ele>10.4</ele>
        <time>2014-04-04T18:33:52Z</time>
      </trkpt>
      <trkpt lat="59.284266246366" lon="17.947509939085">
        <ele>10.4</ele>
        <time>2014-04-04T18:33:54Z</time>
      </trkpt>
      <trkpt lat="59.284169267783" lon="17.947256302791">
        <ele>10.4</ele>
        <time>2014-04-04T18:33:58Z</time>
      </trkpt>
      <trkpt lat="59.284142780979" lon="17.947069637878">
        <ele>10.4</ele>
        <time>2014-04-04T18:34:00Z</time>
      </trkpt>
      <trkpt lat="59.284156527295" lon="17.946978778082">
        <ele>10.4</ele>
        <time>2014-04-04T18:34:01Z</time>
      </trkpt>
      <trkpt lat="59.28416365191" lon="17.946779959414">
        <ele>10.4</ele>
        <time>2014-04-04T18:34:03Z</time>
      </trkpt>
      <trkpt lat="59.284144541178" lon="17.946662780452">
        <ele>10.4</ele>
        <time>2014-04-04T18:34:04Z</time>
      </trkpt>
      <trkpt lat="59.284061895644" lon="17.946300682372">
        <ele>10</ele>
        <time>2014-04-04T18:34:07Z</time>
      </trkpt>
      <trkpt lat="59.284031134071" lon="17.946161459013">
        <ele>9.6</ele>
        <time>2014-04-04T18:34:08Z</time>
      </trkpt>
      <trkpt lat="59.284000875412" lon="17.94602340912">
        <ele>9</ele>
        <time>2014-04-04T18:34:09Z</time>
      </trkpt>
      <trkpt lat="59.283973969513" lon="17.945882760838">
        <ele>8.6</ele>
        <time>2014-04-04T18:34:10Z</time>
      </trkpt>
      <trkpt lat="59.283943962311" lon="17.945741274366">
        <ele>8</ele>
        <time>2014-04-04T18:34:11Z</time>
      </trkpt>
      <trkpt lat="59.283915463851" lon="17.945596518953">
        <ele>7.6</ele>
        <time>2014-04-04T18:34:12Z</time>
      </trkpt>
      <trkpt lat="59.283887803581" lon="17.945459893983">
        <ele>7</ele>
        <time>2014-04-04T18:34:13Z</time>
      </trkpt>
      <trkpt lat="59.283859808035" lon="17.9453293878">
        <ele>6.4</ele>
        <time>2014-04-04T18:34:14Z</time>
      </trkpt>
      <trkpt lat="59.283834662335" lon="17.945198294884">
        <ele>6</ele>
        <time>2014-04-04T18:34:15Z</time>
      </trkpt>
      <trkpt lat="59.283651266363" lon="17.94427662116">
        <ele>6</ele>
        <time>2014-04-04T18:34:22Z</time>
      </trkpt>
      <trkpt lat="59.2834855562" lon="17.943580001451">
        <ele>6</ele>
        <time>2014-04-04T18:34:28Z</time>
      </trkpt>
      <trkpt lat="59.283438785198" lon="17.943405574112">
        <ele>6</ele>
        <time>2014-04-04T18:34:30Z</time>
      </trkpt>
      <trkpt lat="59.283331580697" lon="17.943194350232">
        <ele>6</ele>
        <time>2014-04-04T18:34:33Z</time>
      </trkpt>
      <trkpt lat="59.283214066459" lon="17.942955549901">
        <ele>6</ele>
        <time>2014-04-04T18:34:36Z</time>
      </trkpt>
      <trkpt lat="59.283140724834" lon="17.942787492806">
        <ele>6</ele>
        <time>2014-04-04T18:34:38Z</time>
      </trkpt>
      <trkpt lat="59.282976020499" lon="17.942469399701">
        <ele>6</ele>
        <time>2014-04-04T18:34:42Z</time>
      </trkpt>
      <trkpt lat="59.282843418841" lon="17.942261696219">
        <ele>6</ele>
        <time>2014-04-04T18:34:45Z</time>
      </trkpt>
      <trkpt lat="59.282792037794" lon="17.942205956584">
        <ele>6</ele>
        <time>2014-04-04T18:34:46Z</time>
      </trkpt>
      <trkpt lat="59.282633368427" lon="17.942113085132">
        <ele>6</ele>
        <time>2014-04-04T18:34:49Z</time>
      </trkpt>
      <trkpt lat="59.282149565159" lon="17.941941842915">
        <ele>6</ele>
        <time>2014-04-04T18:34:58Z</time>
      </trkpt>
      <trkpt lat="59.28204722216" lon="17.94192549821">
        <ele>6</ele>
        <time>2014-04-04T18:35:00Z</time>
      </trkpt>
      <trkpt lat="59.281939179469" lon="17.941962881484">
        <ele>6</ele>
        <time>2014-04-04T18:35:02Z</time>
      </trkpt>
      <trkpt lat="59.281693673618" lon="17.942063129008">
        <ele>6.4</ele>
        <time>2014-04-04T18:35:07Z</time>
      </trkpt>
      <trkpt lat="59.281649501005" lon="17.942085843957">
        <ele>7.4</ele>
        <time>2014-04-04T18:35:08Z</time>
      </trkpt>
      <trkpt lat="59.281602059451" lon="17.942106966345">
        <ele>7.8</ele>
        <time>2014-04-04T18:35:09Z</time>
      </trkpt>
      <trkpt lat="59.281556797191" lon="17.94213253114">
        <ele>8.4</ele>
        <time>2014-04-04T18:35:10Z</time>
      </trkpt>
      <trkpt lat="59.281368623536" lon="17.942227665705">
        <ele>8.4</ele>
        <time>2014-04-04T18:35:14Z</time>
      </trkpt>
      <trkpt lat="59.28131715867" lon="17.942246105885">
        <ele>8.4</ele>
        <time>2014-04-04T18:35:15Z</time>
      </trkpt>
      <trkpt lat="59.281058912331" lon="17.942389436375">
        <ele>8.4</ele>
        <time>2014-04-04T18:35:20Z</time>
      </trkpt>
      <trkpt lat="59.280704777056" lon="17.942567300293">
        <ele>8.4</ele>
        <time>2014-04-04T18:35:27Z</time>
      </trkpt>
      <trkpt lat="59.280307894091" lon="17.94274440984">
        <ele>8.4</ele>
        <time>2014-04-04T18:35:35Z</time>
      </trkpt>
      <trkpt lat="59.27994336526" lon="17.942923447224">
        <ele>8.4</ele>
        <time>2014-04-04T18:35:43Z</time>
      </trkpt>
      <trkpt lat="59.279863821029" lon="17.942970637321">
        <ele>8.8</ele>
        <time>2014-04-04T18:35:45Z</time>
      </trkpt>
      <trkpt lat="59.279837920958" lon="17.943015312848">
        <ele>9.2</ele>
        <time>2014-04-04T18:35:46Z</time>
      </trkpt>
      <trkpt lat="59.27982853323" lon="17.943082368048">
        <ele>9.8</ele>
        <time>2014-04-04T18:35:47Z</time>
      </trkpt>
      <trkpt lat="59.279809087222" lon="17.94314674104">
        <ele>10.2</ele>
        <time>2014-04-04T18:35:48Z</time>
      </trkpt>
      <trkpt lat="59.279780253486" lon="17.943183202305">
        <ele>10.6</ele>
        <time>2014-04-04T18:35:49Z</time>
      </trkpt>
      <trkpt lat="59.279755778338" lon="17.94319703244">
        <ele>10.6</ele>
        <time>2014-04-04T18:35:50Z</time>
      </trkpt>
      <trkpt lat="59.279738511624" lon="17.943206587806">
        <ele>10.6</ele>
        <time>2014-04-04T18:35:51Z</time>
      </trkpt>
      <trkpt lat="59.279694003735" lon="17.943255370464">
        <ele>11</ele>
        <time>2014-04-04T18:35:53Z</time>
      </trkpt>
      <trkpt lat="59.279660476135" lon="17.943255957197">
        <ele>11.4</ele>
        <time>2014-04-04T18:35:54Z</time>
      </trkpt>
      <trkpt lat="59.279622422309" lon="17.943225866176">
        <ele>11.8</ele>
        <time>2014-04-04T18:35:55Z</time>
      </trkpt>
      <trkpt lat="59.279581937732" lon="17.9431836214">
        <ele>12.2</ele>
        <time>2014-04-04T18:35:56Z</time>
      </trkpt>
      <trkpt lat="59.279543464811" lon="17.943136431303">
        <ele>12.6</ele>
        <time>2014-04-04T18:35:57Z</time>
      </trkpt>
      <trkpt lat="59.279505075709" lon="17.943094354165">
        <ele>12.6</ele>
        <time>2014-04-04T18:35:58Z</time>
      </trkpt>
      <trkpt lat="59.279419161234" lon="17.943072645044">
        <ele>12.6</ele>
        <time>2014-04-04T18:36:01Z</time>
      </trkpt>
      <trkpt lat="59.279402648891" lon="17.942993016994">
        <ele>12.6</ele>
        <time>2014-04-04T18:36:03Z</time>
      </trkpt>
      <trkpt lat="59.279398206484" lon="17.942942055042">
        <ele>12.6</ele>
        <time>2014-04-04T18:36:04Z</time>
      </trkpt>
      <trkpt lat="59.279366941997" lon="17.94271758776">
        <ele>12.6</ele>
        <time>2014-04-04T18:36:08Z</time>
      </trkpt>
      <trkpt lat="59.279343137401" lon="17.942701159236">
        <ele>12.6</ele>
        <time>2014-04-04T18:36:09Z</time>
      </trkpt>
      <trkpt lat="59.279292343087" lon="17.942719599416">
        <ele>12.6</ele>
        <time>2014-04-04T18:36:11Z</time>
      </trkpt>
      <trkpt lat="59.279147168579" lon="17.942792438127">
        <ele>12.6</ele>
        <time>2014-04-04T18:36:14Z</time>
      </trkpt>
      <trkpt lat="59.279093356781" lon="17.942809621022">
        <ele>12.2</ele>
        <time>2014-04-04T18:36:15Z</time>
      </trkpt>
      <trkpt lat="59.279037868603" lon="17.942837700387">
        <ele>11.8</ele>
        <time>2014-04-04T18:36:16Z</time>
      </trkpt>
      <trkpt lat="59.278978105656" lon="17.942881370086">
        <ele>11.4</ele>
        <time>2014-04-04T18:36:17Z</time>
      </trkpt>
      <trkpt lat="59.278924210039" lon="17.942944485793">
        <ele>11</ele>
        <time>2014-04-04T18:36:18Z</time>
      </trkpt>
      <trkpt lat="59.278871739345" lon="17.943017911237">
        <ele>10.6</ele>
        <time>2014-04-04T18:36:19Z</time>
      </trkpt>
      <trkpt lat="59.278754560383" lon="17.943145399936">
        <ele>10.6</ele>
        <time>2014-04-04T18:36:21Z</time>
      </trkpt>
      <trkpt lat="59.278562782511" lon="17.943318150895">
        <ele>10.6</ele>
        <time>2014-04-04T18:36:24Z</time>
      </trkpt>
      <trkpt lat="59.278058695045" lon="17.94373347404">
        <ele>10.6</ele>
        <time>2014-04-04T18:36:32Z</time>
      </trkpt>
      <trkpt lat="59.277621411322" lon="17.944144019502">
        <ele>10.6</ele>
        <time>2014-04-04T18:36:39Z</time>
      </trkpt>
      <trkpt lat="59.277490905139" lon="17.944300258118">
        <ele>10.2</ele>
        <time>2014-04-04T18:36:41Z</time>
      </trkpt>
      <trkpt lat="59.277431393649" lon="17.944376030494">
        <ele>9.8</ele>
        <time>2014-04-04T18:36:42Z</time>
      </trkpt>
      <trkpt lat="59.277371630702" lon="17.944453982164">
        <ele>9.4</ele>
        <time>2014-04-04T18:36:43Z</time>
      </trkpt>
      <trkpt lat="59.277315136696" lon="17.944530760368">
        <ele>9</ele>
        <time>2014-04-04T18:36:44Z</time>
      </trkpt>
      <trkpt lat="59.27725864269" lon="17.944604018174">
        <ele>8.4</ele>
        <time>2014-04-04T18:36:45Z</time>
      </trkpt>
      <trkpt lat="59.277200891399" lon="17.944670821917">
        <ele>8.4</ele>
        <time>2014-04-04T18:36:46Z</time>
      </trkpt>
      <trkpt lat="59.276864944847" lon="17.945129395666">
        <ele>8.4</ele>
        <time>2014-04-04T18:36:52Z</time>
      </trkpt>
      <trkpt lat="59.276587503957" lon="17.945499288913">
        <ele>8.4</ele>
        <time>2014-04-04T18:36:57Z</time>
      </trkpt>
      <trkpt lat="59.276536374367" lon="17.945585371026">
        <ele>8.4</ele>
        <time>2014-04-04T18:36:58Z</time>
      </trkpt>
      <trkpt lat="59.276424895097" lon="17.945905727244">
        <ele>8.4</ele>
        <time>2014-04-04T18:37:01Z</time>
      </trkpt>
      <trkpt lat="59.276331856007" lon="17.94611393364">
        <ele>8.4</ele>
        <time>2014-04-04T18:37:03Z</time>
      </trkpt>
      <trkpt lat="59.276152148071" lon="17.946507380026">
        <ele>8.4</ele>
        <time>2014-04-04T18:37:07Z</time>
      </trkpt>
      <trkpt lat="59.27607008927" lon="17.946684321935">
        <ele>8.4</ele>
        <time>2014-04-04T18:37:09Z</time>
      </trkpt>
      <trkpt lat="59.275966572805" lon="17.946799992155">
        <ele>8.4</ele>
        <time>2014-04-04T18:37:11Z</time>
      </trkpt>
      <trkpt lat="59.275881412701" lon="17.947067290946">
        <ele>8.4</ele>
        <time>2014-04-04T18:37:14Z</time>
      </trkpt>
      <trkpt lat="59.275772783277" lon="17.947341211438">
        <ele>8.4</ele>
        <time>2014-04-04T18:37:17Z</time>
      </trkpt>
      <trkpt lat="59.275492492541" lon="17.947953090138">
        <ele>8.4</ele>
        <time>2014-04-04T18:37:23Z</time>
      </trkpt>
      <trkpt lat="59.275185547363" lon="17.948661360688">
        <ele>8.4</ele>
        <time>2014-04-04T18:37:30Z</time>
      </trkpt>
      <trkpt lat="59.275144140777" lon="17.948755489425">
        <ele>8.4</ele>
        <time>2014-04-04T18:37:31Z</time>
      </trkpt>
      <trkpt lat="59.27496367847" lon="17.949094788737">
        <ele>8.4</ele>
        <time>2014-04-04T18:37:35Z</time>
      </trkpt>
      <trkpt lat="59.274673832368" lon="17.949554368314">
        <ele>8.4</ele>
        <time>2014-04-04T18:37:41Z</time>
      </trkpt>
      <trkpt lat="59.274373005977" lon="17.949989053648">
        <ele>8.4</ele>
        <time>2014-04-04T18:37:47Z</time>
      </trkpt>
      <trkpt lat="59.274083746608" lon="17.950430193045">
        <ele>8.4</ele>
        <time>2014-04-04T18:37:53Z</time>
      </trkpt>
      <trkpt lat="59.273784764235" lon="17.950842666344">
        <ele>8.4</ele>
        <time>2014-04-04T18:37:59Z</time>
      </trkpt>
      <trkpt lat="59.273591896716" lon="17.951106360918">
        <ele>8.4</ele>
        <time>2014-04-04T18:38:03Z</time>
      </trkpt>
      <trkpt lat="59.273505898422" lon="17.951206692261">
        <ele>8.4</ele>
        <time>2014-04-04T18:38:05Z</time>
      </trkpt>
      <trkpt lat="59.273255614888" lon="17.951483211142">
        <ele>8.4</ele>
        <time>2014-04-04T18:38:11Z</time>
      </trkpt>
      <trkpt lat="59.273122342678" lon="17.951588403987">
        <ele>8.4</ele>
        <time>2014-04-04T18:38:14Z</time>
      </trkpt>
      <trkpt lat="59.273030057959" lon="17.951658141395">
        <ele>8.4</ele>
        <time>2014-04-04T18:38:16Z</time>
      </trkpt>
      <trkpt lat="59.272547092881" lon="17.952086372666">
        <ele>8.4</ele>
        <time>2014-04-04T18:38:26Z</time>
      </trkpt>
      <trkpt lat="59.272399990536" lon="17.952340344236">
        <ele>8.4</ele>
        <time>2014-04-04T18:38:30Z</time>
      </trkpt>
      <trkpt lat="59.272189101932" lon="17.952775448665">
        <ele>8.4</ele>
        <time>2014-04-04T18:38:35Z</time>
      </trkpt>
      <trkpt lat="59.271855083217" lon="17.953506601802">
        <ele>8.4</ele>
        <time>2014-04-04T18:38:43Z</time>
      </trkpt>
      <trkpt lat="59.271551323161" lon="17.954187714996">
        <ele>8.4</ele>
        <time>2014-04-04T18:38:50Z</time>
      </trkpt>
      <trkpt lat="59.27125049677" lon="17.954654586826">
        <ele>8.4</ele>
        <time>2014-04-04T18:38:56Z</time>
      </trkpt>
      <trkpt lat="59.271150919798" lon="17.954778136032">
        <ele>8.4</ele>
        <time>2014-04-04T18:38:58Z</time>
      </trkpt>
      <trkpt lat="59.270973558794" lon="17.954932446811">
        <ele>8</ele>
        <time>2014-04-04T18:39:01Z</time>
      </trkpt>
      <trkpt lat="59.270916561874" lon="17.954986090971">
        <ele>7.6</ele>
        <time>2014-04-04T18:39:02Z</time>
      </trkpt>
      <trkpt lat="59.270858642945" lon="17.955044512814">
        <ele>7.2</ele>
        <time>2014-04-04T18:39:03Z</time>
      </trkpt>
      <trkpt lat="59.2708037415" lon="17.955098995164">
        <ele>6.6</ele>
        <time>2014-04-04T18:39:04Z</time>
      </trkpt>
      <trkpt lat="59.27074842096" lon="17.955161943233">
        <ele>6.2</ele>
        <time>2014-04-04T18:39:05Z</time>
      </trkpt>
      <trkpt lat="59.270635432948" lon="17.955277948729">
        <ele>6.2</ele>
        <time>2014-04-04T18:39:07Z</time>
      </trkpt>
      <trkpt lat="59.270190102601" lon="17.955716573556">
        <ele>6.2</ele>
        <time>2014-04-04T18:39:15Z</time>
      </trkpt>
      <trkpt lat="59.270134446785" lon="17.955764098929">
        <ele>6.2</ele>
        <time>2014-04-04T18:39:16Z</time>
      </trkpt>
      <trkpt lat="59.269964210396" lon="17.955918828803">
        <ele>6.6</ele>
        <time>2014-04-04T18:39:19Z</time>
      </trkpt>
      <trkpt lat="59.269909057494" lon="17.955972975877">
        <ele>7</ele>
        <time>2014-04-04T18:39:20Z</time>
      </trkpt>
      <trkpt lat="59.269855497153" lon="17.956032906462">
        <ele>7.4</ele>
        <time>2014-04-04T18:39:21Z</time>
      </trkpt>
      <trkpt lat="59.26980126626" lon="17.956090573934">
        <ele>7.8</ele>
        <time>2014-04-04T18:39:22Z</time>
      </trkpt>
      <trkpt lat="59.26974426934" lon="17.956145056284">
        <ele>8.2</ele>
        <time>2014-04-04T18:39:23Z</time>
      </trkpt>
      <trkpt lat="59.269513347995" lon="17.956371283765">
        <ele>8.2</ele>
        <time>2014-04-04T18:39:27Z</time>
      </trkpt>
      <trkpt lat="59.269171869389" lon="17.956729777628">
        <ele>8.2</ele>
        <time>2014-04-04T18:39:33Z</time>
      </trkpt>
      <trkpt lat="59.268764006135" lon="17.957194553983">
        <ele>8.2</ele>
        <time>2014-04-04T18:39:40Z</time>
      </trkpt>
      <trkpt lat="59.26864875501" lon="17.957322461777">
        <ele>7.8</ele>
        <time>2014-04-04T18:39:42Z</time>
      </trkpt>
      <trkpt lat="59.268588908244" lon="17.957384739294">
        <ele>7.4</ele>
        <time>2014-04-04T18:39:43Z</time>
      </trkpt>
      <trkpt lat="59.268529648211" lon="17.957446430078">
        <ele>7</ele>
        <time>2014-04-04T18:39:44Z</time>
      </trkpt>
      <trkpt lat="59.268470974911" lon="17.957505690111">
        <ele>6.6</ele>
        <time>2014-04-04T18:39:45Z</time>
      </trkpt>
      <trkpt lat="59.268412133973" lon="17.957573332044">
        <ele>6.2</ele>
        <time>2014-04-04T18:39:46Z</time>
      </trkpt>
      <trkpt lat="59.268296966667" lon="17.957727978099">
        <ele>6.2</ele>
        <time>2014-04-04T18:39:48Z</time>
      </trkpt>
      <trkpt lat="59.268005108909" lon="17.95810005064">
        <ele>6.2</ele>
        <time>2014-04-04T18:39:53Z</time>
      </trkpt>
      <trkpt lat="59.267810648829" lon="17.958368774354">
        <ele>6.2</ele>
        <time>2014-04-04T18:39:57Z</time>
      </trkpt>
      <trkpt lat="59.267517282329" lon="17.958873867648">
        <ele>6.2</ele>
        <time>2014-04-04T18:40:03Z</time>
      </trkpt>
      <trkpt lat="59.267258533076" lon="17.959455487689">
        <ele>6.2</ele>
        <time>2014-04-04T18:40:09Z</time>
      </trkpt>
      <trkpt lat="59.267044291712" lon="17.960092092994">
        <ele>6.2</ele>
        <time>2014-04-04T18:40:15Z</time>
      </trkpt>
      <trkpt lat="59.266818231869" lon="17.960720400218">
        <ele>6.2</ele>
        <time>2014-04-04T18:40:21Z</time>
      </trkpt>
      <trkpt lat="59.266618155916" lon="17.961330015805">
        <ele>6.2</ele>
        <time>2014-04-04T18:40:27Z</time>
      </trkpt>
      <trkpt lat="59.266430317537" lon="17.961929824569">
        <ele>6.2</ele>
        <time>2014-04-04T18:40:33Z</time>
      </trkpt>
      <trkpt lat="59.266207023721" lon="17.962562658019">
        <ele>6.2</ele>
        <time>2014-04-04T18:40:39Z</time>
      </trkpt>
      <trkpt lat="59.266011138718" lon="17.963181828972">
        <ele>6.2</ele>
        <time>2014-04-04T18:40:45Z</time>
      </trkpt>
      <trkpt lat="59.265794885698" lon="17.963732938897">
        <ele>6.2</ele>
        <time>2014-04-04T18:40:51Z</time>
      </trkpt>
      <trkpt lat="59.265701008418" lon="17.963950784478">
        <ele>6.6</ele>
        <time>2014-04-04T18:40:54Z</time>
      </trkpt>
      <trkpt lat="59.265674521614" lon="17.964028233234">
        <ele>7.2</ele>
        <time>2014-04-04T18:40:55Z</time>
      </trkpt>
      <trkpt lat="59.265647531896" lon="17.964102413049">
        <ele>7.6</ele>
        <time>2014-04-04T18:40:56Z</time>
      </trkpt>
      <trkpt lat="59.265618195246" lon="17.964171982819">
        <ele>8</ele>
        <time>2014-04-04T18:40:57Z</time>
      </trkpt>
      <trkpt lat="59.265591205528" lon="17.964243731883">
        <ele>8.4</ele>
        <time>2014-04-04T18:40:58Z</time>
      </trkpt>
      <trkpt lat="59.265533789513" lon="17.964376752636">
        <ele>8.4</ele>
        <time>2014-04-04T18:41:00Z</time>
      </trkpt>
      <trkpt lat="59.265501770655" lon="17.964442969646">
        <ele>8.8</ele>
        <time>2014-04-04T18:41:01Z</time>
      </trkpt>
      <trkpt lat="59.265474613299" lon="17.964513377606">
        <ele>9.4</ele>
        <time>2014-04-04T18:41:02Z</time>
      </trkpt>
      <trkpt lat="59.265444606097" lon="17.964583366471">
        <ele>9.8</ele>
        <time>2014-04-04T18:41:03Z</time>
      </trkpt>
      <trkpt lat="59.26541753256" lon="17.964646901273">
        <ele>10.2</ele>
        <time>2014-04-04T18:41:04Z</time>
      </trkpt>
      <trkpt lat="59.26539071048" lon="17.964702137994">
        <ele>10.6</ele>
        <time>2014-04-04T18:41:05Z</time>
      </trkpt>
      <trkpt lat="59.265359194536" lon="17.964759386371">
        <ele>10.6</ele>
        <time>2014-04-04T18:41:06Z</time>
      </trkpt>
      <trkpt lat="59.265328181506" lon="17.964814371635">
        <ele>11</ele>
        <time>2014-04-04T18:41:07Z</time>
      </trkpt>
      <trkpt lat="59.265297755209" lon="17.964862735198">
        <ele>11.4</ele>
        <time>2014-04-04T18:41:08Z</time>
      </trkpt>
      <trkpt lat="59.265279063572" lon="17.964916379358">
        <ele>11.8</ele>
        <time>2014-04-04T18:41:09Z</time>
      </trkpt>
      <trkpt lat="59.265258863193" lon="17.964967844224">
        <ele>12.4</ele>
        <time>2014-04-04T18:41:10Z</time>
      </trkpt>
      <trkpt lat="59.265242769945" lon="17.965006233326">
        <ele>12.8</ele>
        <time>2014-04-04T18:41:11Z</time>
      </trkpt>
      <trkpt lat="59.265222318109" lon="17.965049986844">
        <ele>12.8</ele>
        <time>2014-04-04T18:41:12Z</time>
      </trkpt>
      <trkpt lat="59.265145959" lon="17.965204968175">
        <ele>13.2</ele>
        <time>2014-04-04T18:41:15Z</time>
      </trkpt>
      <trkpt lat="59.265124585155" lon="17.965261629819">
        <ele>13.6</ele>
        <time>2014-04-04T18:41:16Z</time>
      </trkpt>
      <trkpt lat="59.265098852722" lon="17.965324745526">
        <ele>14</ele>
        <time>2014-04-04T18:41:17Z</time>
      </trkpt>
      <trkpt lat="59.26507555104" lon="17.965390040527">
        <ele>14.4</ele>
        <time>2014-04-04T18:41:18Z</time>
      </trkpt>
      <trkpt lat="59.265060882715" lon="17.965459107383">
        <ele>14.8</ele>
        <time>2014-04-04T18:41:19Z</time>
      </trkpt>
      <trkpt lat="59.26503783249" lon="17.965508225317">
        <ele>14.8</ele>
        <time>2014-04-04T18:41:20Z</time>
      </trkpt>
      <trkpt lat="59.264961389562" lon="17.965763537991">
        <ele>14.8</ele>
        <time>2014-04-04T18:41:24Z</time>
      </trkpt>
      <trkpt lat="59.264911768714" lon="17.965982305581">
        <ele>14.8</ele>
        <time>2014-04-04T18:41:27Z</time>
      </trkpt>
      <trkpt lat="59.264893496172" lon="17.966051540075">
        <ele>14.8</ele>
        <time>2014-04-04T18:41:28Z</time>
      </trkpt>
      <trkpt lat="59.264867512282" lon="17.966114236687">
        <ele>14.8</ele>
        <time>2014-04-04T18:41:29Z</time>
      </trkpt>
      <trkpt lat="59.264810012448" lon="17.966279527755">
        <ele>14.8</ele>
        <time>2014-04-04T18:41:31Z</time>
      </trkpt>
      <trkpt lat="59.264756955021" lon="17.966595190109">
        <ele>14.8</ele>
        <time>2014-04-04T18:41:34Z</time>
      </trkpt>
      <trkpt lat="59.264670872908" lon="17.967068599821">
        <ele>14.8</ele>
        <time>2014-04-04T18:41:38Z</time>
      </trkpt>
      <trkpt lat="59.264645140475" lon="17.967287618868">
        <ele>14.8</ele>
        <time>2014-04-04T18:41:40Z</time>
      </trkpt>
      <trkpt lat="59.264601554595" lon="17.967504207164">
        <ele>14.8</ele>
        <time>2014-04-04T18:41:42Z</time>
      </trkpt>
      <trkpt lat="59.264580767483" lon="17.967615434977">
        <ele>14.8</ele>
        <time>2014-04-04T18:41:43Z</time>
      </trkpt>
      <trkpt lat="59.264499463053" lon="17.967917937748">
        <ele>14.8</ele>
        <time>2014-04-04T18:41:46Z</time>
      </trkpt>
      <trkpt lat="59.264465181082" lon="17.968013659046">
        <ele>14.8</ele>
        <time>2014-04-04T18:41:47Z</time>
      </trkpt>
      <trkpt lat="59.264428635998" lon="17.968112397828">
        <ele>14.8</ele>
        <time>2014-04-04T18:41:48Z</time>
      </trkpt>
      <trkpt lat="59.264216909204" lon="17.968785212941">
        <ele>14.8</ele>
        <time>2014-04-04T18:41:54Z</time>
      </trkpt>
      <trkpt lat="59.264174999704" lon="17.968887891216">
        <ele>14.4</ele>
        <time>2014-04-04T18:41:55Z</time>
      </trkpt>
      <trkpt lat="59.264128480159" lon="17.968981684677">
        <ele>14</ele>
        <time>2014-04-04T18:41:56Z</time>
      </trkpt>
      <trkpt lat="59.264076763836" lon="17.969073298844">
        <ele>13.6</ele>
        <time>2014-04-04T18:41:57Z</time>
      </trkpt>
      <trkpt lat="59.264029154644" lon="17.969166254115">
        <ele>13.2</ele>
        <time>2014-04-04T18:41:58Z</time>
      </trkpt>
      <trkpt lat="59.263981629271" lon="17.969250995124">
        <ele>12.6</ele>
        <time>2014-04-04T18:41:59Z</time>
      </trkpt>
      <trkpt lat="59.263932427518" lon="17.969333892115">
        <ele>12</ele>
        <time>2014-04-04T18:42:00Z</time>
      </trkpt>
      <trkpt lat="59.263884147774" lon="17.969410502681">
        <ele>11.4</ele>
        <time>2014-04-04T18:42:01Z</time>
      </trkpt>
      <trkpt lat="59.263828575777" lon="17.969484095763">
        <ele>10.8</ele>
        <time>2014-04-04T18:42:02Z</time>
      </trkpt>
      <trkpt lat="59.263773171418" lon="17.969563723813">
        <ele>10.4</ele>
        <time>2014-04-04T18:42:03Z</time>
      </trkpt>
      <trkpt lat="59.263661273053" lon="17.96972490775">
        <ele>10.4</ele>
        <time>2014-04-04T18:42:05Z</time>
      </trkpt>
      <trkpt lat="59.263430267889" lon="17.970050712203">
        <ele>10.4</ele>
        <time>2014-04-04T18:42:10Z</time>
      </trkpt>
      <trkpt lat="59.263155425388" lon="17.970404093107">
        <ele>10.4</ele>
        <time>2014-04-04T18:42:15Z</time>
      </trkpt>
      <trkpt lat="59.262792908213" lon="17.970865097607">
        <ele>10.4</ele>
        <time>2014-04-04T18:42:21Z</time>
      </trkpt>
      <trkpt lat="59.262390996108" lon="17.971387206158">
        <ele>10.4</ele>
        <time>2014-04-04T18:42:28Z</time>
      </trkpt>
      <trkpt lat="59.262284545978" lon="17.971531039562">
        <ele>10</ele>
        <time>2014-04-04T18:42:30Z</time>
      </trkpt>
      <trkpt lat="59.262231069456" lon="17.971603878273">
        <ele>9.4</ele>
        <time>2014-04-04T18:42:31Z</time>
      </trkpt>
      <trkpt lat="59.262181448608" lon="17.971676297889">
        <ele>9</ele>
        <time>2014-04-04T18:42:32Z</time>
      </trkpt>
      <trkpt lat="59.262129899923" lon="17.971748549867">
        <ele>8.6</ele>
        <time>2014-04-04T18:42:33Z</time>
      </trkpt>
      <trkpt lat="59.262072148632" lon="17.971824908976">
        <ele>8.2</ele>
        <time>2014-04-04T18:42:34Z</time>
      </trkpt>
      <trkpt lat="59.261895374361" lon="17.97205759052">
        <ele>7.8</ele>
        <time>2014-04-04T18:42:37Z</time>
      </trkpt>
      <trkpt lat="59.261839886183" lon="17.972131854154">
        <ele>7.4</ele>
        <time>2014-04-04T18:42:38Z</time>
      </trkpt>
      <trkpt lat="59.261784398005" lon="17.972200166639">
        <ele>7</ele>
        <time>2014-04-04T18:42:39Z</time>
      </trkpt>
      <trkpt lat="59.261728239275" lon="17.972274430273">
        <ele>6.6</ele>
        <time>2014-04-04T18:42:40Z</time>
      </trkpt>
      <trkpt lat="59.261675684762" lon="17.97234006055">
        <ele>6.2</ele>
        <time>2014-04-04T18:42:41Z</time>
      </trkpt>
      <trkpt lat="59.261409391799" lon="17.972676090921">
        <ele>6.2</ele>
        <time>2014-04-04T18:42:46Z</time>
      </trkpt>
      <trkpt lat="59.261021393648" lon="17.97319669073">
        <ele>6.2</ele>
        <time>2014-04-04T18:42:54Z</time>
      </trkpt>
      <trkpt lat="59.26077563634" lon="17.973532637282">
        <ele>6.2</ele>
        <time>2014-04-04T18:42:59Z</time>
      </trkpt>
      <trkpt lat="59.260688799856" lon="17.973703125128">
        <ele>6.2</ele>
        <time>2014-04-04T18:43:01Z</time>
      </trkpt>
      <trkpt lat="59.260502721676" lon="17.974048124132">
        <ele>6.2</ele>
        <time>2014-04-04T18:43:05Z</time>
      </trkpt>
      <trkpt lat="59.260458381425" lon="17.974129177105">
        <ele>6.2</ele>
        <time>2014-04-04T18:43:06Z</time>
      </trkpt>
      <trkpt lat="59.260236009618" lon="17.974509547727">
        <ele>6.2</ele>
        <time>2014-04-04T18:43:11Z</time>
      </trkpt>
      <trkpt lat="59.260153112627" lon="17.974663942325">
        <ele>5.6</ele>
        <time>2014-04-04T18:43:13Z</time>
      </trkpt>
      <trkpt lat="59.260110364937" lon="17.974739882339">
        <ele>5.2</ele>
        <time>2014-04-04T18:43:14Z</time>
      </trkpt>
      <trkpt lat="59.260067030514" lon="17.974806686082">
        <ele>4.8</ele>
        <time>2014-04-04T18:43:15Z</time>
      </trkpt>
      <trkpt lat="59.260023528453" lon="17.97486636521">
        <ele>4.4</ele>
        <time>2014-04-04T18:43:16Z</time>
      </trkpt>
      <trkpt lat="59.259980529306" lon="17.974924451777">
        <ele>4</ele>
        <time>2014-04-04T18:43:17Z</time>
      </trkpt>
      <trkpt lat="59.259855806634" lon="17.975061831118">
        <ele>4</ele>
        <time>2014-04-04T18:43:20Z</time>
      </trkpt>
      <trkpt lat="59.259780201896" lon="17.975041211644">
        <ele>4</ele>
        <time>2014-04-04T18:43:22Z</time>
      </trkpt>
      <trkpt lat="59.259703758968" lon="17.974945238889">
        <ele>4</ele>
        <time>2014-04-04T18:43:24Z</time>
      </trkpt>
      <trkpt lat="59.259627986592" lon="17.974793023585">
        <ele>4</ele>
        <time>2014-04-04T18:43:26Z</time>
      </trkpt>
      <trkpt lat="59.259591357689" lon="17.974708617852">
        <ele>4</ele>
        <time>2014-04-04T18:43:27Z</time>
      </trkpt>
      <trkpt lat="59.259344091639" lon="17.974243841497">
        <ele>4</ele>
        <time>2014-04-04T18:43:33Z</time>
      </trkpt>
      <trkpt lat="59.258983334663" lon="17.973814352941">
        <ele>4</ele>
        <time>2014-04-04T18:43:40Z</time>
      </trkpt>
      <trkpt lat="59.258571615735" lon="17.973507491582">
        <ele>4</ele>
        <time>2014-04-04T18:43:47Z</time>
      </trkpt>
      <trkpt lat="59.258101139688" lon="17.973153021031">
        <ele>4</ele>
        <time>2014-04-04T18:43:55Z</time>
      </trkpt>
      <trkpt lat="59.25773133026" lon="17.972781032309">
        <ele>4</ele>
        <time>2014-04-04T18:44:02Z</time>
      </trkpt>
      <trkpt lat="59.257532595411" lon="17.972448354698">
        <ele>4</ele>
        <time>2014-04-04T18:44:07Z</time>
      </trkpt>
      <trkpt lat="59.257499235449" lon="17.972377108548">
        <ele>4.4</ele>
        <time>2014-04-04T18:44:08Z</time>
      </trkpt>
      <trkpt lat="59.25746646222" lon="17.972311394452">
        <ele>4.8</ele>
        <time>2014-04-04T18:44:09Z</time>
      </trkpt>
      <trkpt lat="59.257429246584" lon="17.972244674528">
        <ele>5.2</ele>
        <time>2014-04-04T18:44:10Z</time>
      </trkpt>
      <trkpt lat="59.257387504722" lon="17.972170829989">
        <ele>5.6</ele>
        <time>2014-04-04T18:44:11Z</time>
      </trkpt>
      <trkpt lat="59.257350456724" lon="17.972100254391">
        <ele>6</ele>
        <time>2014-04-04T18:44:12Z</time>
      </trkpt>
      <trkpt lat="59.257277198918" lon="17.971963377964">
        <ele>6</ele>
        <time>2014-04-04T18:44:14Z</time>
      </trkpt>
      <trkpt lat="59.257205533673" lon="17.97182205913">
        <ele>6.6</ele>
        <time>2014-04-04T18:44:16Z</time>
      </trkpt>
      <trkpt lat="59.25716890477" lon="17.971749388057">
        <ele>7</ele>
        <time>2014-04-04T18:44:17Z</time>
      </trkpt>
      <trkpt lat="59.257133197876" lon="17.971680572658">
        <ele>7.4</ele>
        <time>2014-04-04T18:44:18Z</time>
      </trkpt>
      <trkpt lat="59.257095898421" lon="17.971616115847">
        <ele>7.8</ele>
        <time>2014-04-04T18:44:19Z</time>
      </trkpt>
      <trkpt lat="59.257057257862" lon="17.97155886747">
        <ele>8.2</ele>
        <time>2014-04-04T18:44:20Z</time>
      </trkpt>
      <trkpt lat="59.256978216545" lon="17.971456859747">
        <ele>8.2</ele>
        <time>2014-04-04T18:44:22Z</time>
      </trkpt>
      <trkpt lat="59.256706475347" lon="17.971147064723">
        <ele>8.2</ele>
        <time>2014-04-04T18:44:28Z</time>
      </trkpt>
      <trkpt lat="59.256652747368" lon="17.971109094716">
        <ele>8.2</ele>
        <time>2014-04-04T18:44:29Z</time>
      </trkpt>
      <trkpt lat="59.256360805791" lon="17.970977415067">
        <ele>8.2</ele>
        <time>2014-04-04T18:44:34Z</time>
      </trkpt>
      <trkpt lat="59.256305485251" lon="17.970947324046">
        <ele>8.2</ele>
        <time>2014-04-04T18:44:35Z</time>
      </trkpt>
      <trkpt lat="59.256015220054" lon="17.970798377683">
        <ele>7.8</ele>
        <time>2014-04-04T18:44:40Z</time>
      </trkpt>
      <trkpt lat="59.255956798211" lon="17.970762419332">
        <ele>7.4</ele>
        <time>2014-04-04T18:44:41Z</time>
      </trkpt>
      <trkpt lat="59.255899717472" lon="17.97073241213">
        <ele>6.8</ele>
        <time>2014-04-04T18:44:42Z</time>
      </trkpt>
      <trkpt lat="59.255843894018" lon="17.970697711064">
        <ele>6.4</ele>
        <time>2014-04-04T18:44:43Z</time>
      </trkpt>
      <trkpt lat="59.255782203234" lon="17.970663512912">
        <ele>6</ele>
        <time>2014-04-04T18:44:44Z</time>
      </trkpt>
      <trkpt lat="59.255661420055" lon="17.970607689458">
        <ele>6</ele>
        <time>2014-04-04T18:44:46Z</time>
      </trkpt>
      <trkpt lat="59.255473749314" lon="17.970536778584">
        <ele>5.4</ele>
        <time>2014-04-04T18:44:49Z</time>
      </trkpt>
      <trkpt lat="59.25541205853" lon="17.970523116087">
        <ele>5</ele>
        <time>2014-04-04T18:44:50Z</time>
      </trkpt>
      <trkpt lat="59.255348439909" lon="17.970522696992">
        <ele>4.4</ele>
        <time>2014-04-04T18:44:51Z</time>
      </trkpt>
      <trkpt lat="59.255286162392" lon="17.970531497987">
        <ele>4</ele>
        <time>2014-04-04T18:44:52Z</time>
      </trkpt>
      <trkpt lat="59.255219358649" lon="17.970541723905">
        <ele>3.4</ele>
        <time>2014-04-04T18:44:53Z</time>
      </trkpt>
      <trkpt lat="59.254828007738" lon="17.970596792988">
        <ele>3.4</ele>
        <time>2014-04-04T18:44:59Z</time>
      </trkpt>
      <trkpt lat="59.254531372297" lon="17.970587069984">
        <ele>3.4</ele>
        <time>2014-04-04T18:45:04Z</time>
      </trkpt>
      <trkpt lat="59.25447328573" lon="17.970567121062">
        <ele>3.4</ele>
        <time>2014-04-04T18:45:05Z</time>
      </trkpt>
      <trkpt lat="59.254361052089" lon="17.970526971761">
        <ele>3.4</ele>
        <time>2014-04-04T18:45:07Z</time>
      </trkpt>
      <trkpt lat="59.254084281751" lon="17.970355394268">
        <ele>3.4</ele>
        <time>2014-04-04T18:45:12Z</time>
      </trkpt>
      <trkpt lat="59.253762249153" lon="17.969996565129">
        <ele>3.4</ele>
        <time>2014-04-04T18:45:18Z</time>
      </trkpt>
      <trkpt lat="59.253434684501" lon="17.969609656625">
        <ele>4</ele>
        <time>2014-04-04T18:45:25Z</time>
      </trkpt>
      <trkpt lat="59.253394199924" lon="17.969561963614">
        <ele>4.4</ele>
        <time>2014-04-04T18:45:26Z</time>
      </trkpt>
      <trkpt lat="59.253361594333" lon="17.969508738549">
        <ele>5.4</ele>
        <time>2014-04-04T18:45:27Z</time>
      </trkpt>
      <trkpt lat="59.25332412724" lon="17.969466829049">
        <ele>6</ele>
        <time>2014-04-04T18:45:28Z</time>
      </trkpt>
      <trkpt lat="59.253262017361" lon="17.969390134664">
        <ele>6.4</ele>
        <time>2014-04-04T18:45:30Z</time>
      </trkpt>
      <trkpt lat="59.253232932168" lon="17.969354846865">
        <ele>7</ele>
        <time>2014-04-04T18:45:31Z</time>
      </trkpt>
      <trkpt lat="59.253200829491" lon="17.969315200478">
        <ele>7.4</ele>
        <time>2014-04-04T18:45:32Z</time>
      </trkpt>
      <trkpt lat="59.253167888624" lon="17.96927144696">
        <ele>8</ele>
        <time>2014-04-04T18:45:33Z</time>
      </trkpt>
      <trkpt lat="59.253141485639" lon="17.969239428102">
        <ele>8.4</ele>
        <time>2014-04-04T18:45:34Z</time>
      </trkpt>
      <trkpt lat="59.253083399072" lon="17.969176563852">
        <ele>8.4</ele>
        <time>2014-04-04T18:45:36Z</time>
      </trkpt>
      <trkpt lat="59.253057499001" lon="17.969137168922">
        <ele>8.8</ele>
        <time>2014-04-04T18:45:37Z</time>
      </trkpt>
      <trkpt lat="59.253027575618" lon="17.969106072073">
        <ele>9.4</ele>
        <time>2014-04-04T18:45:38Z</time>
      </trkpt>
      <trkpt lat="59.252998322787" lon="17.969074388491">
        <ele>9.8</ele>
        <time>2014-04-04T18:45:39Z</time>
      </trkpt>
      <trkpt lat="59.252978709141" lon="17.96904345928">
        <ele>10.2</ele>
        <time>2014-04-04T18:45:40Z</time>
      </trkpt>
      <trkpt lat="59.252957754391" lon="17.969011021327">
        <ele>10.6</ele>
        <time>2014-04-04T18:45:41Z</time>
      </trkpt>
      <trkpt lat="59.252934787985" lon="17.968991156224">
        <ele>10.6</ele>
        <time>2014-04-04T18:45:42Z</time>
      </trkpt>
      <trkpt lat="59.252802605422" lon="17.968829385554">
        <ele>10.6</ele>
        <time>2014-04-04T18:45:47Z</time>
      </trkpt>
      <trkpt lat="59.252774609876" lon="17.968797785791">
        <ele>11</ele>
        <time>2014-04-04T18:45:48Z</time>
      </trkpt>
      <trkpt lat="59.252746530511" lon="17.96876182744">
        <ele>11.4</ele>
        <time>2014-04-04T18:45:49Z</time>
      </trkpt>
      <trkpt lat="59.252718618784" lon="17.968727545469">
        <ele>11.8</ele>
        <time>2014-04-04T18:45:50Z</time>
      </trkpt>
      <trkpt lat="59.252694395093" lon="17.96869644862">
        <ele>12.2</ele>
        <time>2014-04-04T18:45:51Z</time>
      </trkpt>
      <trkpt lat="59.252667070099" lon="17.968670297092">
        <ele>12.6</ele>
        <time>2014-04-04T18:45:52Z</time>
      </trkpt>
      <trkpt lat="59.252607642428" lon="17.968610617964">
        <ele>12.6</ele>
        <time>2014-04-04T18:45:54Z</time>
      </trkpt>
      <trkpt lat="59.252488116534" lon="17.968466030189">
        <ele>13.2</ele>
        <time>2014-04-04T18:45:58Z</time>
      </trkpt>
      <trkpt lat="59.252455008029" lon="17.968427892544">
        <ele>13.6</ele>
        <time>2014-04-04T18:45:59Z</time>
      </trkpt>
      <trkpt lat="59.25242055842" lon="17.968378187877">
        <ele>14</ele>
        <time>2014-04-04T18:46:00Z</time>
      </trkpt>
      <trkpt lat="59.252386527906" lon="17.968328650848">
        <ele>14.4</ele>
        <time>2014-04-04T18:46:01Z</time>
      </trkpt>
      <trkpt lat="59.252353419401" lon="17.96828154457">
        <ele>14.8</ele>
        <time>2014-04-04T18:46:02Z</time>
      </trkpt>
      <trkpt lat="59.252263984528" lon="17.968128910171">
        <ele>14.8</ele>
        <time>2014-04-04T18:46:05Z</time>
      </trkpt>
      <trkpt lat="59.252189469437" lon="17.968019526376">
        <ele>14.8</ele>
        <time>2014-04-04T18:46:07Z</time>
      </trkpt>
      <trkpt lat="59.252125766997" lon="17.967906370726">
        <ele>14.8</ele>
        <time>2014-04-04T18:46:09Z</time>
      </trkpt>
      <trkpt lat="59.252023675455" lon="17.967732781577">
        <ele>14.8</ele>
        <time>2014-04-04T18:46:12Z</time>
      </trkpt>
      <trkpt lat="59.251797280336" lon="17.967293737655">
        <ele>14.8</ele>
        <time>2014-04-04T18:46:19Z</time>
      </trkpt>
      <trkpt lat="59.251762411632" lon="17.967224503161">
        <ele>14.4</ele>
        <time>2014-04-04T18:46:20Z</time>
      </trkpt>
      <trkpt lat="59.251727040014" lon="17.967151748269">
        <ele>14</ele>
        <time>2014-04-04T18:46:21Z</time>
      </trkpt>
      <trkpt lat="59.2516846276" lon="17.967070695296">
        <ele>13.6</ele>
        <time>2014-04-04T18:46:22Z</time>
      </trkpt>
      <trkpt lat="59.25162763068" lon="17.966978242939">
        <ele>13.2</ele>
        <time>2014-04-04T18:46:23Z</time>
      </trkpt>
      <trkpt lat="59.251563592964" lon="17.966888640428">
        <ele>12.6</ele>
        <time>2014-04-04T18:46:24Z</time>
      </trkpt>
      <trkpt lat="59.251499639067" lon="17.966799540831">
        <ele>12.2</ele>
        <time>2014-04-04T18:46:25Z</time>
      </trkpt>
      <trkpt lat="59.251437026274" lon="17.966723097903">
        <ele>11.6</ele>
        <time>2014-04-04T18:46:26Z</time>
      </trkpt>
      <trkpt lat="59.251376760413" lon="17.966653109038">
        <ele>11</ele>
        <time>2014-04-04T18:46:27Z</time>
      </trkpt>
      <trkpt lat="59.251313728525" lon="17.966582701078">
        <ele>10.4</ele>
        <time>2014-04-04T18:46:28Z</time>
      </trkpt>
      <trkpt lat="59.251074844375" lon="17.966323951825">
        <ele>10.4</ele>
        <time>2014-04-04T18:46:32Z</time>
      </trkpt>
      <trkpt lat="59.251010136107" lon="17.966256058435">
        <ele>10</ele>
        <time>2014-04-04T18:46:33Z</time>
      </trkpt>
      <trkpt lat="59.250946349848" lon="17.966184477009">
        <ele>9.6</ele>
        <time>2014-04-04T18:46:34Z</time>
      </trkpt>
      <trkpt lat="59.250883234141" lon="17.96611901437">
        <ele>9.2</ele>
        <time>2014-04-04T18:46:35Z</time>
      </trkpt>
      <trkpt lat="59.25082045371" lon="17.96605866469">
        <ele>8.6</ele>
        <time>2014-04-04T18:46:36Z</time>
      </trkpt>
      <trkpt lat="59.250760187849" lon="17.965994543155">
        <ele>8</ele>
        <time>2014-04-04T18:46:37Z</time>
      </trkpt>
      <trkpt lat="59.250697323599" lon="17.96592706886">
        <ele>7.2</ele>
        <time>2014-04-04T18:46:38Z</time>
      </trkpt>
      <trkpt lat="59.250632615331" lon="17.965852050855">
        <ele>6.6</ele>
        <time>2014-04-04T18:46:39Z</time>
      </trkpt>
      <trkpt lat="59.250570337814" lon="17.965761274878">
        <ele>5.4</ele>
        <time>2014-04-04T18:46:40Z</time>
      </trkpt>
      <trkpt lat="59.250513843808" lon="17.965647616314">
        <ele>5</ele>
        <time>2014-04-04T18:46:41Z</time>
      </trkpt>
      <trkpt lat="59.250480902941" lon="17.965502022711">
        <ele>4.4</ele>
        <time>2014-04-04T18:46:42Z</time>
      </trkpt>
      <trkpt lat="59.250473945964" lon="17.965355171823">
        <ele>3.6</ele>
        <time>2014-04-04T18:46:43Z</time>
      </trkpt>
      <trkpt lat="59.250486351176" lon="17.965217792482">
        <ele>3</ele>
        <time>2014-04-04T18:46:44Z</time>
      </trkpt>
      <trkpt lat="59.250520046414" lon="17.965099942968">
        <ele>2.4</ele>
        <time>2014-04-04T18:46:45Z</time>
      </trkpt>
      <trkpt lat="59.250552065272" lon="17.964983015463">
        <ele>1.8</ele>
        <time>2014-04-04T18:46:46Z</time>
      </trkpt>
      <trkpt lat="59.250587017795" lon="17.964873380211">
        <ele>1.2</ele>
        <time>2014-04-04T18:46:47Z</time>
      </trkpt>
      <trkpt lat="59.250782902798" lon="17.964301902269">
        <ele>1.2</ele>
        <time>2014-04-04T18:46:53Z</time>
      </trkpt>
      <trkpt lat="59.250779969133" lon="17.963874425369">
        <ele>1.6</ele>
        <time>2014-04-04T18:46:57Z</time>
      </trkpt>
      <trkpt lat="59.250731857027" lon="17.963806615798">
        <ele>2</ele>
        <time>2014-04-04T18:46:58Z</time>
      </trkpt>
      <trkpt lat="59.250678464324" lon="17.963749870335">
        <ele>2.4</ele>
        <time>2014-04-04T18:46:59Z</time>
      </trkpt>
      <trkpt lat="59.250616605902" lon="17.963688598646">
        <ele>2.8</ele>
        <time>2014-04-04T18:47:00Z</time>
      </trkpt>
      <trkpt lat="59.250552484367" lon="17.963624309473">
        <ele>3.2</ele>
        <time>2014-04-04T18:47:01Z</time>
      </trkpt>
      <trkpt lat="59.250491212678" lon="17.96354912383">
        <ele>2.8</ele>
        <time>2014-04-04T18:47:02Z</time>
      </trkpt>
      <trkpt lat="59.250427761695" lon="17.963475530748">
        <ele>2.4</ele>
        <time>2014-04-04T18:47:03Z</time>
      </trkpt>
      <trkpt lat="59.250360538857" lon="17.963392549938">
        <ele>1.4</ele>
        <time>2014-04-04T18:47:04Z</time>
      </trkpt>
      <trkpt lat="59.250289627983" lon="17.963313676259">
        <ele>0.8</ele>
        <time>2014-04-04T18:47:05Z</time>
      </trkpt>
      <trkpt lat="59.250213687969" lon="17.963230527811">
        <ele>0.2</ele>
        <time>2014-04-04T18:47:06Z</time>
      </trkpt>
      <trkpt lat="59.250137915593" lon="17.963155090711">
        <ele>0</ele>
        <time>2014-04-04T18:47:07Z</time>
      </trkpt>
      <trkpt lat="59.250063651959" lon="17.963081581448">
        <ele>0</ele>
        <time>2014-04-04T18:47:08Z</time>
      </trkpt>
      <trkpt lat="59.249990813248" lon="17.963016537904">
        <ele>0</ele>
        <time>2014-04-04T18:47:09Z</time>
      </trkpt>
      <trkpt lat="59.249914454139" lon="17.962951913455">
        <ele>0</ele>
        <time>2014-04-04T18:47:10Z</time>
      </trkpt>
      <trkpt lat="59.249840106686" lon="17.962892234327">
        <ele>0</ele>
        <time>2014-04-04T18:47:11Z</time>
      </trkpt>
      <trkpt lat="59.249766345966" lon="17.962833896303">
        <ele>0</ele>
        <time>2014-04-04T18:47:12Z</time>
      </trkpt>
      <trkpt lat="59.249694596902" lon="17.962778743401">
        <ele>0</ele>
        <time>2014-04-04T18:47:13Z</time>
      </trkpt>
      <trkpt lat="59.249623434571" lon="17.962728284363">
        <ele>0</ele>
        <time>2014-04-04T18:47:14Z</time>
      </trkpt>
      <trkpt lat="59.249329816614" lon="17.962487472376">
        <ele>0</ele>
        <time>2014-04-04T18:47:19Z</time>
      </trkpt>
      <trkpt lat="59.249165782831" lon="17.962330814665">
        <ele>0</ele>
        <time>2014-04-04T18:47:22Z</time>
      </trkpt>
      <trkpt lat="59.249120352933" lon="17.962288653708">
        <ele>0</ele>
        <time>2014-04-04T18:47:23Z</time>
      </trkpt>
      <trkpt lat="59.249080035994" lon="17.962251018977">
        <ele>0</ele>
        <time>2014-04-04T18:47:24Z</time>
      </trkpt>
      <trkpt lat="59.249039970512" lon="17.962219922128">
        <ele>0</ele>
        <time>2014-04-04T18:47:25Z</time>
      </trkpt>
      <trkpt lat="59.248998312469" lon="17.962188322365">
        <ele>0</ele>
        <time>2014-04-04T18:47:26Z</time>
      </trkpt>
      <trkpt lat="59.248970652199" lon="17.962140629354">
        <ele>0</ele>
        <time>2014-04-04T18:47:27Z</time>
      </trkpt>
      <trkpt lat="59.248938465703" lon="17.962102575528">
        <ele>0</ele>
        <time>2014-04-04T18:47:28Z</time>
      </trkpt>
      <trkpt lat="59.248907620311" lon="17.962048512273">
        <ele>0</ele>
        <time>2014-04-04T18:47:29Z</time>
      </trkpt>
      <trkpt lat="59.248875769091" lon="17.962004004384">
        <ele>0.2</ele>
        <time>2014-04-04T18:47:30Z</time>
      </trkpt>
      <trkpt lat="59.248803852389" lon="17.961931752406">
        <ele>0.6</ele>
        <time>2014-04-04T18:47:32Z</time>
      </trkpt>
      <trkpt lat="59.24876940278" lon="17.961894788227">
        <ele>1</ele>
        <time>2014-04-04T18:47:33Z</time>
      </trkpt>
      <trkpt lat="59.248733444429" lon="17.961862517912">
        <ele>1.4</ele>
        <time>2014-04-04T18:47:34Z</time>
      </trkpt>
      <trkpt lat="59.248693462766" lon="17.961837791307">
        <ele>1.8</ele>
        <time>2014-04-04T18:47:35Z</time>
      </trkpt>
      <trkpt lat="59.248655744216" lon="17.961804431345">
        <ele>2.2</ele>
        <time>2014-04-04T18:47:36Z</time>
      </trkpt>
      <trkpt lat="59.248576199985" lon="17.961746260959">
        <ele>2.2</ele>
        <time>2014-04-04T18:47:38Z</time>
      </trkpt>
      <trkpt lat="59.248457009367" lon="17.961658670104">
        <ele>2.2</ele>
        <time>2014-04-04T18:47:41Z</time>
      </trkpt>
      <trkpt lat="59.248283001123" lon="17.961560685693">
        <ele>2.2</ele>
        <time>2014-04-04T18:47:45Z</time>
      </trkpt>
      <trkpt lat="59.248196751372" lon="17.961511232483">
        <ele>2.2</ele>
        <time>2014-04-04T18:47:47Z</time>
      </trkpt>
      <trkpt lat="59.24802592825" lon="17.96143604684">
        <ele>2.8</ele>
        <time>2014-04-04T18:47:51Z</time>
      </trkpt>
      <trkpt lat="59.247981336542" lon="17.961414924452">
        <ele>3.2</ele>
        <time>2014-04-04T18:47:52Z</time>
      </trkpt>
      <trkpt lat="59.247937583024" lon="17.961413750986">
        <ele>3.6</ele>
        <time>2014-04-04T18:47:53Z</time>
      </trkpt>
      <trkpt lat="59.247894919153" lon="17.961410314407">
        <ele>4.6</ele>
        <time>2014-04-04T18:47:54Z</time>
      </trkpt>
      <trkpt lat="59.247689730241" lon="17.961414337719">
        <ele>5</ele>
        <time>2014-04-04T18:47:59Z</time>
      </trkpt>
      <trkpt lat="59.247642456325" lon="17.961417355203">
        <ele>5.4</ele>
        <time>2014-04-04T18:48:00Z</time>
      </trkpt>
      <trkpt lat="59.247598535169" lon="17.961431185338">
        <ele>5.8</ele>
        <time>2014-04-04T18:48:01Z</time>
      </trkpt>
      <trkpt lat="59.247555033108" lon="17.961446775672">
        <ele>6.2</ele>
        <time>2014-04-04T18:48:02Z</time>
      </trkpt>
      <trkpt lat="59.247513123608" lon="17.961466892232">
        <ele>6.6</ele>
        <time>2014-04-04T18:48:03Z</time>
      </trkpt>
      <trkpt lat="59.247301145357" lon="17.961613407844">
        <ele>6.6</ele>
        <time>2014-04-04T18:48:08Z</time>
      </trkpt>
      <trkpt lat="59.247131914796" lon="17.961797642006">
        <ele>7</ele>
        <time>2014-04-04T18:48:13Z</time>
      </trkpt>
      <trkpt lat="59.24709805192" lon="17.961843071904">
        <ele>7.4</ele>
        <time>2014-04-04T18:48:14Z</time>
      </trkpt>
      <trkpt lat="59.247058154076" lon="17.961883221205">
        <ele>7.8</ele>
        <time>2014-04-04T18:48:15Z</time>
      </trkpt>
      <trkpt lat="59.247026554313" lon="17.961925717438">
        <ele>8.2</ele>
        <time>2014-04-04T18:48:16Z</time>
      </trkpt>
      <trkpt lat="59.24699495455" lon="17.961974500096">
        <ele>8.6</ele>
        <time>2014-04-04T18:48:17Z</time>
      </trkpt>
      <trkpt lat="59.246902586012" lon="17.962136522223">
        <ele>8.6</ele>
        <time>2014-04-04T18:48:20Z</time>
      </trkpt>
      <trkpt lat="59.246875009561" lon="17.962199973206">
        <ele>9</ele>
        <time>2014-04-04T18:48:21Z</time>
      </trkpt>
      <trkpt lat="59.24684324216" lon="17.962262669818">
        <ele>9.4</ele>
        <time>2014-04-04T18:48:22Z</time>
      </trkpt>
      <trkpt lat="59.246809546922" lon="17.962322516584">
        <ele>9.8</ele>
        <time>2014-04-04T18:48:23Z</time>
      </trkpt>
      <trkpt lat="59.246776103141" lon="17.962382782445">
        <ele>10.2</ele>
        <time>2014-04-04T18:48:24Z</time>
      </trkpt>
      <trkpt lat="59.24674182117" lon="17.962448412722">
        <ele>10.6</ele>
        <time>2014-04-04T18:48:25Z</time>
      </trkpt>
      <trkpt lat="59.246676274712" lon="17.962578164534">
        <ele>10.6</ele>
        <time>2014-04-04T18:48:27Z</time>
      </trkpt>
      <trkpt lat="59.24644091096" lon="17.963010754393">
        <ele>10.6</ele>
        <time>2014-04-04T18:48:34Z</time>
      </trkpt>
      <trkpt lat="59.246410903758" lon="17.96306632639">
        <ele>11.2</ele>
        <time>2014-04-04T18:48:35Z</time>
      </trkpt>
      <trkpt lat="59.246370503" lon="17.963114522315">
        <ele>11.6</ele>
        <time>2014-04-04T18:48:36Z</time>
      </trkpt>
      <trkpt lat="59.246327839129" lon="17.963171686873">
        <ele>12</ele>
        <time>2014-04-04T18:48:37Z</time>
      </trkpt>
      <trkpt lat="59.246292886606" lon="17.963223822291">
        <ele>12.4</ele>
        <time>2014-04-04T18:48:38Z</time>
      </trkpt>
      <trkpt lat="59.246251563839" lon="17.963273778415">
        <ele>12.8</ele>
        <time>2014-04-04T18:48:39Z</time>
      </trkpt>
      <trkpt lat="59.245937745503" lon="17.963593296443">
        <ele>12.8</ele>
        <time>2014-04-04T18:48:47Z</time>
      </trkpt>
      <trkpt lat="59.245717217714" lon="17.963813740413">
        <ele>13.2</ele>
        <time>2014-04-04T18:48:53Z</time>
      </trkpt>
      <trkpt lat="59.245685450313" lon="17.963847687108">
        <ele>13.6</ele>
        <time>2014-04-04T18:48:54Z</time>
      </trkpt>
      <trkpt lat="59.245652509446" lon="17.963883896916">
        <ele>14</ele>
        <time>2014-04-04T18:48:55Z</time>
      </trkpt>
      <trkpt lat="59.245615461448" lon="17.963921615466">
        <ele>14.6</ele>
        <time>2014-04-04T18:48:56Z</time>
      </trkpt>
      <trkpt lat="59.245581095658" lon="17.963956651808">
        <ele>15</ele>
        <time>2014-04-04T18:48:57Z</time>
      </trkpt>
      <trkpt lat="59.245431814019" lon="17.964154380829">
        <ele>15</ele>
        <time>2014-04-04T18:49:01Z</time>
      </trkpt>
      <trkpt lat="59.24514842198" lon="17.964640195753">
        <ele>15</ele>
        <time>2014-04-04T18:49:09Z</time>
      </trkpt>
      <trkpt lat="59.244903754319" lon="17.965126429772">
        <ele>15</ele>
        <time>2014-04-04T18:49:15Z</time>
      </trkpt>
      <trkpt lat="59.244807194831" lon="17.96531519016">
        <ele>14.6</ele>
        <time>2014-04-04T18:49:17Z</time>
      </trkpt>
      <trkpt lat="59.244766291159" lon="17.965399176798">
        <ele>14</ele>
        <time>2014-04-04T18:49:18Z</time>
      </trkpt>
      <trkpt lat="59.244730248989" lon="17.965470171491">
        <ele>13.6</ele>
        <time>2014-04-04T18:49:19Z</time>
      </trkpt>
      <trkpt lat="59.24469831395" lon="17.965491461517">
        <ele>13.2</ele>
        <time>2014-04-04T18:49:20Z</time>
      </trkpt>
      <trkpt lat="59.244664702531" lon="17.965477212287">
        <ele>12.8</ele>
        <time>2014-04-04T18:49:21Z</time>
      </trkpt>
      <trkpt lat="59.244591193268" lon="17.965388867061">
        <ele>12.8</ele>
        <time>2014-04-04T18:49:23Z</time>
      </trkpt>
      <trkpt lat="59.244540818049" lon="17.96526070781">
        <ele>12.8</ele>
        <time>2014-04-04T18:49:25Z</time>
      </trkpt>
      <trkpt lat="59.244497902721" lon="17.965116874406">
        <ele>12.8</ele>
        <time>2014-04-04T18:49:27Z</time>
      </trkpt>
      <trkpt lat="59.244475774505" lon="17.965040012383">
        <ele>12.8</ele>
        <time>2014-04-04T18:49:28Z</time>
      </trkpt>
      <trkpt lat="59.244425734562" lon="17.964896011341">
        <ele>12.8</ele>
        <time>2014-04-04T18:49:30Z</time>
      </trkpt>
      <trkpt lat="59.244317943328" lon="17.964652684784">
        <ele>12.8</ele>
        <time>2014-04-04T18:49:34Z</time>
      </trkpt>
      <trkpt lat="59.244294474008" lon="17.964589569077">
        <ele>12.8</ele>
        <time>2014-04-04T18:49:35Z</time>
      </trkpt>
      <trkpt lat="59.244209984456" lon="17.964393600255">
        <ele>13.2</ele>
        <time>2014-04-04T18:49:38Z</time>
      </trkpt>
      <trkpt lat="59.24418198891" lon="17.964320593906">
        <ele>13.6</ele>
        <time>2014-04-04T18:49:39Z</time>
      </trkpt>
      <trkpt lat="59.244155669744" lon="17.964248677204">
        <ele>14</ele>
        <time>2014-04-04T18:49:40Z</time>
      </trkpt>
      <trkpt lat="59.244129350578" lon="17.964175335579">
        <ele>14.4</ele>
        <time>2014-04-04T18:49:41Z</time>
      </trkpt>
      <trkpt lat="59.2440990081" lon="17.964105011438">
        <ele>14.8</ele>
        <time>2014-04-04T18:49:42Z</time>
      </trkpt>
      <trkpt lat="59.243992138875" lon="17.963902504734">
        <ele>14.8</ele>
        <time>2014-04-04T18:49:45Z</time>
      </trkpt>
      <trkpt lat="59.243956180524" lon="17.963877107577">
        <ele>14.8</ele>
        <time>2014-04-04T18:49:46Z</time>
      </trkpt>
      <trkpt lat="59.243841599951" lon="17.96395145503">
        <ele>14.8</ele>
        <time>2014-04-04T18:49:49Z</time>
      </trkpt>
      <trkpt lat="59.243691899217" lon="17.96429930388">
        <ele>14.8</ele>
        <time>2014-04-04T18:49:53Z</time>
      </trkpt>
      <trkpt lat="59.243579665576" lon="17.964502062041">
        <ele>14.8</ele>
        <time>2014-04-04T18:49:56Z</time>
      </trkpt>
      <trkpt lat="59.243503306467" lon="17.964619911555">
        <ele>14.8</ele>
        <time>2014-04-04T18:49:58Z</time>
      </trkpt>
      <trkpt lat="59.243461899881" lon="17.964650924585">
        <ele>14.8</ele>
        <time>2014-04-04T18:49:59Z</time>
      </trkpt>
      <trkpt lat="59.243374644302" lon="17.964593424751">
        <ele>14.8</ele>
        <time>2014-04-04T18:50:01Z</time>
      </trkpt>
      <trkpt lat="59.243265931059" lon="17.964356803714">
        <ele>14.8</ele>
        <time>2014-04-04T18:50:04Z</time>
      </trkpt>
      <trkpt lat="59.243235840038" lon="17.964282120985">
        <ele>14.8</ele>
        <time>2014-04-04T18:50:05Z</time>
      </trkpt>
      <trkpt lat="59.243179094575" lon="17.964132084975">
        <ele>14.8</ele>
        <time>2014-04-04T18:50:07Z</time>
      </trkpt>
      <trkpt lat="59.243111452642" lon="17.963967799735">
        <ele>14.8</ele>
        <time>2014-04-04T18:50:09Z</time>
      </trkpt>
      <trkpt lat="59.243012881498" lon="17.963758755149">
        <ele>14.8</ele>
        <time>2014-04-04T18:50:12Z</time>
      </trkpt>
      <trkpt lat="59.24296828979" lon="17.963720030771">
        <ele>14.8</ele>
        <time>2014-04-04T18:50:13Z</time>
      </trkpt>
      <trkpt lat="59.242794113908" lon="17.963748110136">
        <ele>14.8</ele>
        <time>2014-04-04T18:50:16Z</time>
      </trkpt>
      <trkpt lat="59.242595127602" lon="17.963736543114">
        <ele>14.8</ele>
        <time>2014-04-04T18:50:20Z</time>
      </trkpt>
      <trkpt lat="59.242548440419" lon="17.963753893647">
        <ele>14.8</ele>
        <time>2014-04-04T18:50:21Z</time>
      </trkpt>
      <trkpt lat="59.242463615591" lon="17.963802424848">
        <ele>14.8</ele>
        <time>2014-04-04T18:50:23Z</time>
      </trkpt>
      <trkpt lat="59.24242095172" lon="17.963853805895">
        <ele>14.8</ele>
        <time>2014-04-04T18:50:24Z</time>
      </trkpt>
      <trkpt lat="59.242336210711" lon="17.964086990353">
        <ele>14.8</ele>
        <time>2014-04-04T18:50:27Z</time>
      </trkpt>
      <trkpt lat="59.242205955985" lon="17.964123200161">
        <ele>14.8</ele>
        <time>2014-04-04T18:50:30Z</time>
      </trkpt>
      <trkpt lat="59.242017195597" lon="17.963860176139">
        <ele>14.8</ele>
        <time>2014-04-04T18:50:34Z</time>
      </trkpt>
      <trkpt lat="59.241940417393" lon="17.963686922266">
        <ele>14.4</ele>
        <time>2014-04-04T18:50:36Z</time>
      </trkpt>
      <trkpt lat="59.241905716327" lon="17.963610395519">
        <ele>14</ele>
        <time>2014-04-04T18:50:37Z</time>
      </trkpt>
      <trkpt lat="59.241866824311" lon="17.963527582347">
        <ele>13.6</ele>
        <time>2014-04-04T18:50:38Z</time>
      </trkpt>
      <trkpt lat="59.241833631987" lon="17.963455833283">
        <ele>13</ele>
        <time>2014-04-04T18:50:39Z</time>
      </trkpt>
      <trkpt lat="59.241793398867" lon="17.963381234373">
        <ele>12.6</ele>
        <time>2014-04-04T18:50:40Z</time>
      </trkpt>
      <trkpt lat="59.241712429713" lon="17.963246201964">
        <ele>12.6</ele>
        <time>2014-04-04T18:50:42Z</time>
      </trkpt>
      <trkpt lat="59.241609667619" lon="17.963150899761">
        <ele>12.6</ele>
        <time>2014-04-04T18:50:44Z</time>
      </trkpt>
      <trkpt lat="59.241497098702" lon="17.963084431294">
        <ele>12.6</ele>
        <time>2014-04-04T18:50:46Z</time>
      </trkpt>
      <trkpt lat="59.241326694675" lon="17.962977645888">
        <ele>12.6</ele>
        <time>2014-04-04T18:50:49Z</time>
      </trkpt>
      <trkpt lat="59.241284701356" lon="17.962930036696">
        <ele>12.2</ele>
        <time>2014-04-04T18:50:50Z</time>
      </trkpt>
      <trkpt lat="59.24125838219" lon="17.962870525206">
        <ele>11.8</ele>
        <time>2014-04-04T18:50:51Z</time>
      </trkpt>
      <trkpt lat="59.241243630046" lon="17.962781006514">
        <ele>11.4</ele>
        <time>2014-04-04T18:50:52Z</time>
      </trkpt>
      <trkpt lat="59.24124748572" lon="17.962673550556">
        <ele>10.8</ele>
        <time>2014-04-04T18:50:53Z</time>
      </trkpt>
      <trkpt lat="59.241248240091" lon="17.962564334399">
        <ele>10.4</ele>
        <time>2014-04-04T18:50:54Z</time>
      </trkpt>
      <trkpt lat="59.24124748572" lon="17.962446484885">
        <ele>10.4</ele>
        <time>2014-04-04T18:50:55Z</time>
      </trkpt>
      <trkpt lat="59.241236253974" lon="17.96196075378">
        <ele>10</ele>
        <time>2014-04-04T18:50:59Z</time>
      </trkpt>
      <trkpt lat="59.241239858191" lon="17.961838461859">
        <ele>9.6</ele>
        <time>2014-04-04T18:51:00Z</time>
      </trkpt>
      <trkpt lat="59.241243797684" lon="17.961705776382">
        <ele>9.2</ele>
        <time>2014-04-04T18:51:01Z</time>
      </trkpt>
      <trkpt lat="59.241243881503" lon="17.961585412298">
        <ele>8.8</ele>
        <time>2014-04-04T18:51:02Z</time>
      </trkpt>
      <trkpt lat="59.241239439096" lon="17.961459348522">
        <ele>8.4</ele>
        <time>2014-04-04T18:51:03Z</time>
      </trkpt>
      <trkpt lat="59.241229632273" lon="17.96095408759">
        <ele>8.4</ele>
        <time>2014-04-04T18:51:07Z</time>
      </trkpt>
      <trkpt lat="59.241236002517" lon="17.960213882001">
        <ele>8.4</ele>
        <time>2014-04-04T18:51:13Z</time>
      </trkpt>
      <trkpt lat="59.241210940636" lon="17.95969931716">
        <ele>8.4</ele>
        <time>2014-04-04T18:51:17Z</time>
      </trkpt>
      <trkpt lat="59.241199625071" lon="17.95957526504">
        <ele>8.4</ele>
        <time>2014-04-04T18:51:18Z</time>
      </trkpt>
      <trkpt lat="59.241157967028" lon="17.959181818654">
        <ele>8.4</ele>
        <time>2014-04-04T18:51:21Z</time>
      </trkpt>
      <trkpt lat="59.241112285673" lon="17.958783929861">
        <ele>8.4</ele>
        <time>2014-04-04T18:51:24Z</time>
      </trkpt>
      <trkpt lat="59.241084122489" lon="17.958534987431">
        <ele>8</ele>
        <time>2014-04-04T18:51:26Z</time>
      </trkpt>
      <trkpt lat="59.24106811306" lon="17.958417640831">
        <ele>7.4</ele>
        <time>2014-04-04T18:51:27Z</time>
      </trkpt>
      <trkpt lat="59.241061910454" lon="17.958298534032">
        <ele>7</ele>
        <time>2014-04-04T18:51:28Z</time>
      </trkpt>
      <trkpt lat="59.241049337604" lon="17.958181606527">
        <ele>6.6</ele>
        <time>2014-04-04T18:51:29Z</time>
      </trkpt>
      <trkpt lat="59.241036680935" lon="17.958061996814">
        <ele>6.2</ele>
        <time>2014-04-04T18:51:30Z</time>
      </trkpt>
      <trkpt lat="59.240929057339" lon="17.957105789662">
        <ele>6.2</ele>
        <time>2014-04-04T18:51:38Z</time>
      </trkpt>
      <trkpt lat="59.24084431633" lon="17.956378073104">
        <ele>6.2</ele>
        <time>2014-04-04T18:51:44Z</time>
      </trkpt>
      <trkpt lat="59.24075965914" lon="17.955560251121">
        <ele>6.2</ele>
        <time>2014-04-04T18:51:51Z</time>
      </trkpt>
      <trkpt lat="59.24064482711" lon="17.955002854771">
        <ele>6.2</ele>
        <time>2014-04-04T18:51:56Z</time>
      </trkpt>
      <trkpt lat="59.240613143528" lon="17.954908055482">
        <ele>6.2</ele>
        <time>2014-04-04T18:51:57Z</time>
      </trkpt>
      <trkpt lat="59.240445421709" lon="17.954309252546">
        <ele>5.8</ele>
        <time>2014-04-04T18:52:03Z</time>
      </trkpt>
      <trkpt lat="59.240417593801" lon="17.954214369438">
        <ele>5.4</ele>
        <time>2014-04-04T18:52:04Z</time>
      </trkpt>
      <trkpt lat="59.240390352626" lon="17.954119653968">
        <ele>5</ele>
        <time>2014-04-04T18:52:05Z</time>
      </trkpt>
      <trkpt lat="59.240363865822" lon="17.954018652073">
        <ele>4.6</ele>
        <time>2014-04-04T18:52:06Z</time>
      </trkpt>
      <trkpt lat="59.240337881932" lon="17.953910022649">
        <ele>4.2</ele>
        <time>2014-04-04T18:52:07Z</time>
      </trkpt>
      <trkpt lat="59.240249117611" lon="17.953596120494">
        <ele>4.2</ele>
        <time>2014-04-04T18:52:10Z</time>
      </trkpt>
      <trkpt lat="59.240086173475" lon="17.953093290313">
        <ele>4.2</ele>
        <time>2014-04-04T18:52:15Z</time>
      </trkpt>
      <trkpt lat="59.239845696764" lon="17.952323496617">
        <ele>4.2</ele>
        <time>2014-04-04T18:52:23Z</time>
      </trkpt>
      <trkpt lat="59.239682082076" lon="17.952253004838">
        <ele>4.2</ele>
        <time>2014-04-04T18:52:26Z</time>
      </trkpt>
      <trkpt lat="59.239500027208" lon="17.952293573234">
        <ele>4.2</ele>
        <time>2014-04-04T18:52:29Z</time>
      </trkpt>
      <trkpt lat="59.239442695012" lon="17.952288292637">
        <ele>4.2</ele>
        <time>2014-04-04T18:52:30Z</time>
      </trkpt>
      <trkpt lat="59.23938586573" lon="17.952266751154">
        <ele>4.2</ele>
        <time>2014-04-04T18:52:31Z</time>
      </trkpt>
      <trkpt lat="59.239269860234" lon="17.952030130117">
        <ele>4.2</ele>
        <time>2014-04-04T18:52:34Z</time>
      </trkpt>
      <trkpt lat="59.239239601575" lon="17.951828796879">
        <ele>4.2</ele>
        <time>2014-04-04T18:52:36Z</time>
      </trkpt>
      <trkpt lat="59.239201799206" lon="17.951611286574">
        <ele>4.2</ele>
        <time>2014-04-04T18:52:38Z</time>
      </trkpt>
      <trkpt lat="59.23910255751" lon="17.950980967694">
        <ele>4.2</ele>
        <time>2014-04-04T18:52:44Z</time>
      </trkpt>
      <trkpt lat="59.239030976084" lon="17.95038283531">
        <ele>4.2</ele>
        <time>2014-04-04T18:52:50Z</time>
      </trkpt>
      <trkpt lat="59.239030305532" lon="17.950281498139">
        <ele>4.2</ele>
        <time>2014-04-04T18:52:51Z</time>
      </trkpt>
      <trkpt lat="59.239033155378" lon="17.949961728654">
        <ele>4.2</ele>
        <time>2014-04-04T18:52:54Z</time>
      </trkpt>
      <trkpt lat="59.239008428773" lon="17.949735584992">
        <ele>4.2</ele>
        <time>2014-04-04T18:52:56Z</time>
      </trkpt>
      <trkpt lat="59.238979008304" lon="17.94949435391">
        <ele>4.2</ele>
        <time>2014-04-04T18:52:58Z</time>
      </trkpt>
      <trkpt lat="59.238902733014" lon="17.949080623326">
        <ele>3.8</ele>
        <time>2014-04-04T18:53:02Z</time>
      </trkpt>
      <trkpt lat="59.238880604798" lon="17.948985488761">
        <ele>3.2</ele>
        <time>2014-04-04T18:53:03Z</time>
      </trkpt>
      <trkpt lat="59.238849927044" lon="17.948897143535">
        <ele>2.8</ele>
        <time>2014-04-04T18:53:04Z</time>
      </trkpt>
      <trkpt lat="59.238817069996" lon="17.948792285966">
        <ele>2.4</ele>
        <time>2014-04-04T18:53:05Z</time>
      </trkpt>
      <trkpt lat="59.238788571536" lon="17.948685584379">
        <ele>1.8</ele>
        <time>2014-04-04T18:53:06Z</time>
      </trkpt>
      <trkpt lat="59.238763342017" lon="17.948571841996">
        <ele>1.8</ele>
        <time>2014-04-04T18:53:07Z</time>
      </trkpt>
      <trkpt lat="59.238742890181" lon="17.948443850383">
        <ele>1.8</ele>
        <time>2014-04-04T18:53:08Z</time>
      </trkpt>
      <trkpt lat="59.238718834128" lon="17.948192728659">
        <ele>1.8</ele>
        <time>2014-04-04T18:53:10Z</time>
      </trkpt>
      <trkpt lat="59.238713385893" lon="17.948076220249">
        <ele>1.8</ele>
        <time>2014-04-04T18:53:11Z</time>
      </trkpt>
      <trkpt lat="59.238645157227" lon="17.947572300421">
        <ele>1.8</ele>
        <time>2014-04-04T18:53:16Z</time>
      </trkpt>
      <trkpt lat="59.23861473093" lon="17.947481440625">
        <ele>1.8</ele>
        <time>2014-04-04T18:53:17Z</time>
      </trkpt>
      <trkpt lat="59.238508113162" lon="17.947228474883">
        <ele>1.8</ele>
        <time>2014-04-04T18:53:20Z</time>
      </trkpt>
      <trkpt lat="59.238439884496" lon="17.947067458584">
        <ele>1.8</ele>
        <time>2014-04-04T18:53:22Z</time>
      </trkpt>
      <trkpt lat="59.23833980461" lon="17.946837794524">
        <ele>1.8</ele>
        <time>2014-04-04T18:53:25Z</time>
      </trkpt>
      <trkpt lat="59.238270151021" lon="17.946696308052">
        <ele>1.8</ele>
        <time>2014-04-04T18:53:27Z</time>
      </trkpt>
      <trkpt lat="59.238235198498" lon="17.946622631151">
        <ele>1.8</ele>
        <time>2014-04-04T18:53:28Z</time>
      </trkpt>
      <trkpt lat="59.238109050903" lon="17.946482485783">
        <ele>1.8</ele>
        <time>2014-04-04T18:53:32Z</time>
      </trkpt>
      <trkpt lat="59.238024309894" lon="17.946390368702">
        <ele>1.8</ele>
        <time>2014-04-04T18:53:36Z</time>
      </trkpt>
      <trkpt lat="59.237968067345" lon="17.946472762779">
        <ele>1.8</ele>
        <time>2014-04-04T18:53:39Z</time>
      </trkpt>
    </trkseg>
  </trk>
</gpx>